<?xml version="1.0" encoding="UTF-8" standalone="no" ?>
<gpx xmlns="http://www.topografix.com/GPX/1/1" xmlns:xsi="http://www.w3.org/2001/XMLSchema-instance" xsi:schemaLocation="http://www.topografix.com/GPX/1/1 http://www.topografix.com/GPX/1/1/gpx.xsd" version="1.1" creator="VisuGPX - https://www.visugpx.com">
  <metadata>
    <name>Boucle Beauregard Baret</name>
    <desc><![CDATA[Cette boucle d'un peu moins de 12km et presque 800m de dénivelé débute sur un large chemin forestier. La pente est un plus rude pour accéder au col des marchands. On longe ensuite la crête avec un très beau paysage. La Descente au niveau du pas de l'Aulagnier est assez glissante pas temps pluvieux. ]]></desc>
  </metadata>
  <trk>
    <name><![CDATA[Beauregard Baret pat 2 janv. 2020]]></name>
    <cmt><![CDATA[12:54:42]]></cmt>
    <desc><![CDATA[comment ...]]></desc>
    <trkseg>
      <trkpt lat="44.99174" lon="5.19842">
        <ele>569</ele>
        <time>2020-01-02T11:54:42Z</time>
      </trkpt>
      <trkpt lat="44.99177" lon="5.19841">
        <ele>551</ele>
        <time>2020-01-02T11:54:43Z</time>
      </trkpt>
      <trkpt lat="44.99179" lon="5.19831">
        <ele>542</ele>
        <time>2020-01-02T11:54:45Z</time>
      </trkpt>
      <trkpt lat="44.99185" lon="5.19824">
        <ele>532</ele>
        <time>2020-01-02T11:54:47Z</time>
      </trkpt>
      <trkpt lat="44.99188" lon="5.19809">
        <ele>512</ele>
        <time>2020-01-02T11:54:56Z</time>
      </trkpt>
      <trkpt lat="44.992" lon="5.19803">
        <ele>507</ele>
        <time>2020-01-02T11:55:11Z</time>
      </trkpt>
      <trkpt lat="44.99207" lon="5.19802">
        <ele>507</ele>
        <time>2020-01-02T11:55:17Z</time>
      </trkpt>
      <trkpt lat="44.99213" lon="5.19801">
        <ele>506</ele>
        <time>2020-01-02T11:55:21Z</time>
      </trkpt>
      <trkpt lat="44.99216" lon="5.19802">
        <ele>506</ele>
        <time>2020-01-02T11:55:23Z</time>
      </trkpt>
      <trkpt lat="44.9922" lon="5.19799">
        <ele>507</ele>
        <time>2020-01-02T11:55:25Z</time>
      </trkpt>
      <trkpt lat="44.99223" lon="5.19799">
        <ele>507</ele>
        <time>2020-01-02T11:55:27Z</time>
      </trkpt>
      <trkpt lat="44.99226" lon="5.19797">
        <ele>507</ele>
        <time>2020-01-02T11:55:30Z</time>
      </trkpt>
      <trkpt lat="44.9923" lon="5.19795">
        <ele>507</ele>
        <time>2020-01-02T11:55:35Z</time>
      </trkpt>
      <trkpt lat="44.99234" lon="5.19792">
        <ele>507</ele>
        <time>2020-01-02T11:55:38Z</time>
      </trkpt>
      <trkpt lat="44.99237" lon="5.19789">
        <ele>507</ele>
        <time>2020-01-02T11:55:42Z</time>
      </trkpt>
      <trkpt lat="44.9924" lon="5.19788">
        <ele>507</ele>
        <time>2020-01-02T11:55:45Z</time>
      </trkpt>
      <trkpt lat="44.99245" lon="5.19786">
        <ele>508</ele>
        <time>2020-01-02T11:55:49Z</time>
      </trkpt>
      <trkpt lat="44.99249" lon="5.19784">
        <ele>508</ele>
        <time>2020-01-02T11:55:51Z</time>
      </trkpt>
      <trkpt lat="44.99253" lon="5.19785">
        <ele>508</ele>
        <time>2020-01-02T11:55:56Z</time>
      </trkpt>
      <trkpt lat="44.99257" lon="5.19781">
        <ele>508</ele>
        <time>2020-01-02T11:55:59Z</time>
      </trkpt>
      <trkpt lat="44.99261" lon="5.19782">
        <ele>508</ele>
        <time>2020-01-02T11:56:02Z</time>
      </trkpt>
      <trkpt lat="44.99266" lon="5.19781">
        <ele>508</ele>
        <time>2020-01-02T11:56:06Z</time>
      </trkpt>
      <trkpt lat="44.9927" lon="5.1978">
        <ele>509</ele>
        <time>2020-01-02T11:56:10Z</time>
      </trkpt>
      <trkpt lat="44.99279" lon="5.19776">
        <ele>509</ele>
        <time>2020-01-02T11:56:16Z</time>
      </trkpt>
      <trkpt lat="44.99293" lon="5.19767">
        <ele>510</ele>
        <time>2020-01-02T11:56:27Z</time>
      </trkpt>
      <trkpt lat="44.9931" lon="5.19757">
        <ele>510</ele>
        <time>2020-01-02T11:56:43Z</time>
      </trkpt>
      <trkpt lat="44.99313" lon="5.19756">
        <ele>511</ele>
        <time>2020-01-02T11:56:46Z</time>
      </trkpt>
      <trkpt lat="44.99319" lon="5.19752">
        <ele>511</ele>
        <time>2020-01-02T11:56:50Z</time>
      </trkpt>
      <trkpt lat="44.99323" lon="5.19751">
        <ele>511</ele>
        <time>2020-01-02T11:56:54Z</time>
      </trkpt>
      <trkpt lat="44.99326" lon="5.19749">
        <ele>511</ele>
        <time>2020-01-02T11:56:57Z</time>
      </trkpt>
      <trkpt lat="44.99331" lon="5.19743">
        <ele>511</ele>
        <time>2020-01-02T11:57:02Z</time>
      </trkpt>
      <trkpt lat="44.99335" lon="5.1974">
        <ele>511</ele>
        <time>2020-01-02T11:57:05Z</time>
      </trkpt>
      <trkpt lat="44.99339" lon="5.1974">
        <ele>512</ele>
        <time>2020-01-02T11:57:07Z</time>
      </trkpt>
      <trkpt lat="44.99341" lon="5.19738">
        <ele>512</ele>
        <time>2020-01-02T11:57:09Z</time>
      </trkpt>
      <trkpt lat="44.99344" lon="5.19736">
        <ele>512</ele>
        <time>2020-01-02T11:57:11Z</time>
      </trkpt>
      <trkpt lat="44.99351" lon="5.19733">
        <ele>512</ele>
        <time>2020-01-02T11:57:17Z</time>
      </trkpt>
      <trkpt lat="44.99353" lon="5.19731">
        <ele>512</ele>
        <time>2020-01-02T11:57:21Z</time>
      </trkpt>
      <trkpt lat="44.9936" lon="5.19729">
        <ele>513</ele>
        <time>2020-01-02T11:57:25Z</time>
      </trkpt>
      <trkpt lat="44.99365" lon="5.19726">
        <ele>513</ele>
        <time>2020-01-02T11:57:29Z</time>
      </trkpt>
      <trkpt lat="44.99368" lon="5.19725">
        <ele>513</ele>
        <time>2020-01-02T11:57:31Z</time>
      </trkpt>
      <trkpt lat="44.99372" lon="5.19725">
        <ele>513</ele>
        <time>2020-01-02T11:57:33Z</time>
      </trkpt>
      <trkpt lat="44.99381" lon="5.19719">
        <ele>514</ele>
        <time>2020-01-02T11:57:44Z</time>
      </trkpt>
      <trkpt lat="44.99384" lon="5.19716">
        <ele>514</ele>
        <time>2020-01-02T11:57:47Z</time>
      </trkpt>
      <trkpt lat="44.99387" lon="5.19716">
        <ele>514</ele>
        <time>2020-01-02T11:57:49Z</time>
      </trkpt>
      <trkpt lat="44.99391" lon="5.19715">
        <ele>514</ele>
        <time>2020-01-02T11:57:51Z</time>
      </trkpt>
      <trkpt lat="44.99394" lon="5.19713">
        <ele>514</ele>
        <time>2020-01-02T11:57:54Z</time>
      </trkpt>
      <trkpt lat="44.99397" lon="5.19712">
        <ele>515</ele>
        <time>2020-01-02T11:57:56Z</time>
      </trkpt>
      <trkpt lat="44.99401" lon="5.19711">
        <ele>515</ele>
        <time>2020-01-02T11:57:58Z</time>
      </trkpt>
      <trkpt lat="44.99409" lon="5.19707">
        <ele>515</ele>
        <time>2020-01-02T11:58:05Z</time>
      </trkpt>
      <trkpt lat="44.99413" lon="5.19706">
        <ele>515</ele>
        <time>2020-01-02T11:58:07Z</time>
      </trkpt>
      <trkpt lat="44.99416" lon="5.19705">
        <ele>515</ele>
        <time>2020-01-02T11:58:10Z</time>
      </trkpt>
      <trkpt lat="44.99419" lon="5.19705">
        <ele>515</ele>
        <time>2020-01-02T11:58:12Z</time>
      </trkpt>
      <trkpt lat="44.99422" lon="5.19704">
        <ele>516</ele>
        <time>2020-01-02T11:58:14Z</time>
      </trkpt>
      <trkpt lat="44.99424" lon="5.19701">
        <ele>516</ele>
        <time>2020-01-02T11:58:16Z</time>
      </trkpt>
      <trkpt lat="44.99428" lon="5.197">
        <ele>516</ele>
        <time>2020-01-02T11:58:19Z</time>
      </trkpt>
      <trkpt lat="44.9943" lon="5.19697">
        <ele>516</ele>
        <time>2020-01-02T11:58:21Z</time>
      </trkpt>
      <trkpt lat="44.99432" lon="5.19694">
        <ele>516</ele>
        <time>2020-01-02T11:58:23Z</time>
      </trkpt>
      <trkpt lat="44.99437" lon="5.19687">
        <ele>516</ele>
        <time>2020-01-02T11:58:28Z</time>
      </trkpt>
      <trkpt lat="44.99438" lon="5.19679">
        <ele>517</ele>
        <time>2020-01-02T11:58:32Z</time>
      </trkpt>
      <trkpt lat="44.99444" lon="5.19667">
        <ele>517</ele>
        <time>2020-01-02T11:58:39Z</time>
      </trkpt>
      <trkpt lat="44.99446" lon="5.19663">
        <ele>517</ele>
        <time>2020-01-02T11:58:42Z</time>
      </trkpt>
      <trkpt lat="44.99452" lon="5.19649">
        <ele>517</ele>
        <time>2020-01-02T11:58:51Z</time>
      </trkpt>
      <trkpt lat="44.99457" lon="5.19644">
        <ele>518</ele>
        <time>2020-01-02T11:58:55Z</time>
      </trkpt>
      <trkpt lat="44.99463" lon="5.19639">
        <ele>518</ele>
        <time>2020-01-02T11:59:00Z</time>
      </trkpt>
      <trkpt lat="44.99466" lon="5.19638">
        <ele>518</ele>
        <time>2020-01-02T11:59:02Z</time>
      </trkpt>
      <trkpt lat="44.99476" lon="5.19636">
        <ele>518</ele>
        <time>2020-01-02T11:59:11Z</time>
      </trkpt>
      <trkpt lat="44.99479" lon="5.19634">
        <ele>519</ele>
        <time>2020-01-02T11:59:15Z</time>
      </trkpt>
      <trkpt lat="44.99491" lon="5.19639">
        <ele>519</ele>
        <time>2020-01-02T11:59:24Z</time>
      </trkpt>
      <trkpt lat="44.99494" lon="5.1964">
        <ele>519</ele>
        <time>2020-01-02T11:59:27Z</time>
      </trkpt>
      <trkpt lat="44.99513" lon="5.19651">
        <ele>520</ele>
        <time>2020-01-02T11:59:44Z</time>
      </trkpt>
      <trkpt lat="44.99516" lon="5.19656">
        <ele>520</ele>
        <time>2020-01-02T11:59:47Z</time>
      </trkpt>
      <trkpt lat="44.99531" lon="5.19671">
        <ele>521</ele>
        <time>2020-01-02T12:00:02Z</time>
      </trkpt>
      <trkpt lat="44.99542" lon="5.19688">
        <ele>521</ele>
        <time>2020-01-02T12:00:14Z</time>
      </trkpt>
      <trkpt lat="44.99545" lon="5.19693">
        <ele>521</ele>
        <time>2020-01-02T12:00:17Z</time>
      </trkpt>
      <trkpt lat="44.99552" lon="5.19701">
        <ele>522</ele>
        <time>2020-01-02T12:00:24Z</time>
      </trkpt>
      <trkpt lat="44.9956" lon="5.1971">
        <ele>522</ele>
        <time>2020-01-02T12:00:29Z</time>
      </trkpt>
      <trkpt lat="44.99562" lon="5.19716">
        <ele>522</ele>
        <time>2020-01-02T12:00:31Z</time>
      </trkpt>
      <trkpt lat="44.99566" lon="5.19722">
        <ele>522</ele>
        <time>2020-01-02T12:00:37Z</time>
      </trkpt>
      <trkpt lat="44.99569" lon="5.19727">
        <ele>522</ele>
        <time>2020-01-02T12:00:42Z</time>
      </trkpt>
      <trkpt lat="44.99572" lon="5.19733">
        <ele>522</ele>
        <time>2020-01-02T12:00:47Z</time>
      </trkpt>
      <trkpt lat="44.99587" lon="5.1975">
        <ele>523</ele>
        <time>2020-01-02T12:01:05Z</time>
      </trkpt>
      <trkpt lat="44.99608" lon="5.19779">
        <ele>523</ele>
        <time>2020-01-02T12:01:28Z</time>
      </trkpt>
      <trkpt lat="44.99637" lon="5.19806">
        <ele>524</ele>
        <time>2020-01-02T12:01:55Z</time>
      </trkpt>
      <trkpt lat="44.99646" lon="5.19812">
        <ele>524</ele>
        <time>2020-01-02T12:02:02Z</time>
      </trkpt>
      <trkpt lat="44.99651" lon="5.19819">
        <ele>524</ele>
        <time>2020-01-02T12:02:11Z</time>
      </trkpt>
      <trkpt lat="44.99658" lon="5.19822">
        <ele>525</ele>
        <time>2020-01-02T12:02:16Z</time>
      </trkpt>
      <trkpt lat="44.99674" lon="5.19841">
        <ele>525</ele>
        <time>2020-01-02T12:02:33Z</time>
      </trkpt>
      <trkpt lat="44.99689" lon="5.19842">
        <ele>526</ele>
        <time>2020-01-02T12:02:41Z</time>
      </trkpt>
      <trkpt lat="44.99695" lon="5.19848">
        <ele>527</ele>
        <time>2020-01-02T12:02:47Z</time>
      </trkpt>
      <trkpt lat="44.99708" lon="5.19849">
        <ele>529</ele>
        <time>2020-01-02T12:02:56Z</time>
      </trkpt>
      <trkpt lat="44.99713" lon="5.19853">
        <ele>529</ele>
        <time>2020-01-02T12:03:00Z</time>
      </trkpt>
      <trkpt lat="44.99719" lon="5.19856">
        <ele>530</ele>
        <time>2020-01-02T12:03:06Z</time>
      </trkpt>
      <trkpt lat="44.99724" lon="5.19863">
        <ele>531</ele>
        <time>2020-01-02T12:03:11Z</time>
      </trkpt>
      <trkpt lat="44.99729" lon="5.19865">
        <ele>532</ele>
        <time>2020-01-02T12:03:17Z</time>
      </trkpt>
      <trkpt lat="44.9974" lon="5.1987">
        <ele>534</ele>
        <time>2020-01-02T12:03:25Z</time>
      </trkpt>
      <trkpt lat="44.99744" lon="5.19872">
        <ele>534</ele>
        <time>2020-01-02T12:03:28Z</time>
      </trkpt>
      <trkpt lat="44.99747" lon="5.19882">
        <ele>535</ele>
        <time>2020-01-02T12:03:36Z</time>
      </trkpt>
      <trkpt lat="44.99753" lon="5.19887">
        <ele>537</ele>
        <time>2020-01-02T12:03:40Z</time>
      </trkpt>
      <trkpt lat="44.9976" lon="5.1989">
        <ele>537</ele>
        <time>2020-01-02T12:03:44Z</time>
      </trkpt>
      <trkpt lat="44.99768" lon="5.19891">
        <ele>539</ele>
        <time>2020-01-02T12:03:50Z</time>
      </trkpt>
      <trkpt lat="44.99775" lon="5.19892">
        <ele>540</ele>
        <time>2020-01-02T12:03:56Z</time>
      </trkpt>
      <trkpt lat="44.99779" lon="5.19899">
        <ele>541</ele>
        <time>2020-01-02T12:04:00Z</time>
      </trkpt>
      <trkpt lat="44.99799" lon="5.19919">
        <ele>545</ele>
        <time>2020-01-02T12:04:15Z</time>
      </trkpt>
      <trkpt lat="44.99805" lon="5.19922">
        <ele>546</ele>
        <time>2020-01-02T12:04:20Z</time>
      </trkpt>
      <trkpt lat="44.99808" lon="5.19927">
        <ele>547</ele>
        <time>2020-01-02T12:04:25Z</time>
      </trkpt>
      <trkpt lat="44.99813" lon="5.19926">
        <ele>549</ele>
        <time>2020-01-02T12:04:32Z</time>
      </trkpt>
      <trkpt lat="44.99822" lon="5.19928">
        <ele>550</ele>
        <time>2020-01-02T12:04:37Z</time>
      </trkpt>
      <trkpt lat="44.99834" lon="5.19934">
        <ele>552</ele>
        <time>2020-01-02T12:04:46Z</time>
      </trkpt>
      <trkpt lat="44.99839" lon="5.19935">
        <ele>552</ele>
        <time>2020-01-02T12:04:49Z</time>
      </trkpt>
      <trkpt lat="44.99847" lon="5.1994">
        <ele>554</ele>
        <time>2020-01-02T12:04:56Z</time>
      </trkpt>
      <trkpt lat="44.99852" lon="5.19941">
        <ele>554</ele>
        <time>2020-01-02T12:04:59Z</time>
      </trkpt>
      <trkpt lat="44.99855" lon="5.19941">
        <ele>555</ele>
        <time>2020-01-02T12:05:02Z</time>
      </trkpt>
      <trkpt lat="44.99863" lon="5.19938">
        <ele>556</ele>
        <time>2020-01-02T12:05:11Z</time>
      </trkpt>
      <trkpt lat="44.99872" lon="5.19936">
        <ele>558</ele>
        <time>2020-01-02T12:05:17Z</time>
      </trkpt>
      <trkpt lat="44.9988" lon="5.19934">
        <ele>559</ele>
        <time>2020-01-02T12:05:24Z</time>
      </trkpt>
      <trkpt lat="44.99884" lon="5.1993">
        <ele>560</ele>
        <time>2020-01-02T12:05:28Z</time>
      </trkpt>
      <trkpt lat="44.99904" lon="5.19923">
        <ele>563</ele>
        <time>2020-01-02T12:05:45Z</time>
      </trkpt>
      <trkpt lat="44.99934" lon="5.19929">
        <ele>567</ele>
        <time>2020-01-02T12:06:08Z</time>
      </trkpt>
      <trkpt lat="44.99954" lon="5.19938">
        <ele>570</ele>
        <time>2020-01-02T12:06:25Z</time>
      </trkpt>
      <trkpt lat="44.99966" lon="5.19939">
        <ele>571</ele>
        <time>2020-01-02T12:06:33Z</time>
      </trkpt>
      <trkpt lat="44.99981" lon="5.19938">
        <ele>573</ele>
        <time>2020-01-02T12:06:42Z</time>
      </trkpt>
      <trkpt lat="44.99987" lon="5.19937">
        <ele>573</ele>
        <time>2020-01-02T12:06:46Z</time>
      </trkpt>
      <trkpt lat="44.99991" lon="5.19935">
        <ele>574</ele>
        <time>2020-01-02T12:06:49Z</time>
      </trkpt>
      <trkpt lat="44.99993" lon="5.19933">
        <ele>574</ele>
        <time>2020-01-02T12:06:52Z</time>
      </trkpt>
      <trkpt lat="44.99996" lon="5.19929">
        <ele>576</ele>
        <time>2020-01-02T12:07:05Z</time>
      </trkpt>
      <trkpt lat="45" lon="5.19931">
        <ele>578</ele>
        <time>2020-01-02T12:07:12Z</time>
      </trkpt>
      <trkpt lat="45.00022" lon="5.19937">
        <ele>581</ele>
        <time>2020-01-02T12:07:26Z</time>
      </trkpt>
      <trkpt lat="45.00028" lon="5.19941">
        <ele>582</ele>
        <time>2020-01-02T12:07:30Z</time>
      </trkpt>
      <trkpt lat="45.00042" lon="5.19951">
        <ele>585</ele>
        <time>2020-01-02T12:07:44Z</time>
      </trkpt>
      <trkpt lat="45.00046" lon="5.19954">
        <ele>585</ele>
        <time>2020-01-02T12:07:49Z</time>
      </trkpt>
      <trkpt lat="45.00078" lon="5.19962">
        <ele>589</ele>
        <time>2020-01-02T12:08:12Z</time>
      </trkpt>
      <trkpt lat="45.00082" lon="5.19963">
        <ele>589</ele>
        <time>2020-01-02T12:08:15Z</time>
      </trkpt>
      <trkpt lat="45.00112" lon="5.19977">
        <ele>593</ele>
        <time>2020-01-02T12:08:40Z</time>
      </trkpt>
      <trkpt lat="45.0014" lon="5.20001">
        <ele>595</ele>
        <time>2020-01-02T12:09:02Z</time>
      </trkpt>
      <trkpt lat="45.00143" lon="5.20004">
        <ele>596</ele>
        <time>2020-01-02T12:09:05Z</time>
      </trkpt>
      <trkpt lat="45.00147" lon="5.20007">
        <ele>596</ele>
        <time>2020-01-02T12:09:08Z</time>
      </trkpt>
      <trkpt lat="45.00151" lon="5.20011">
        <ele>597</ele>
        <time>2020-01-02T12:09:11Z</time>
      </trkpt>
      <trkpt lat="45.00158" lon="5.2002">
        <ele>597</ele>
        <time>2020-01-02T12:09:19Z</time>
      </trkpt>
      <trkpt lat="45.0016" lon="5.20025">
        <ele>598</ele>
        <time>2020-01-02T12:09:22Z</time>
      </trkpt>
      <trkpt lat="45.00171" lon="5.20052">
        <ele>600</ele>
        <time>2020-01-02T12:09:37Z</time>
      </trkpt>
      <trkpt lat="45.00181" lon="5.20084">
        <ele>601</ele>
        <time>2020-01-02T12:09:54Z</time>
      </trkpt>
      <trkpt lat="45.00196" lon="5.20107">
        <ele>603</ele>
        <time>2020-01-02T12:10:12Z</time>
      </trkpt>
      <trkpt lat="45.00198" lon="5.20113">
        <ele>604</ele>
        <time>2020-01-02T12:10:15Z</time>
      </trkpt>
      <trkpt lat="45.00201" lon="5.20119">
        <ele>604</ele>
        <time>2020-01-02T12:10:19Z</time>
      </trkpt>
      <trkpt lat="45.00201" lon="5.20125">
        <ele>604</ele>
        <time>2020-01-02T12:10:22Z</time>
      </trkpt>
      <trkpt lat="45.00203" lon="5.20132">
        <ele>605</ele>
        <time>2020-01-02T12:10:26Z</time>
      </trkpt>
      <trkpt lat="45.00206" lon="5.20144">
        <ele>605</ele>
        <time>2020-01-02T12:10:33Z</time>
      </trkpt>
      <trkpt lat="45.00208" lon="5.20149">
        <ele>606</ele>
        <time>2020-01-02T12:10:37Z</time>
      </trkpt>
      <trkpt lat="45.00224" lon="5.20172">
        <ele>607</ele>
        <time>2020-01-02T12:10:54Z</time>
      </trkpt>
      <trkpt lat="45.00243" lon="5.20186">
        <ele>608</ele>
        <time>2020-01-02T12:11:11Z</time>
      </trkpt>
      <trkpt lat="45.00248" lon="5.20207">
        <ele>609</ele>
        <time>2020-01-02T12:11:24Z</time>
      </trkpt>
      <trkpt lat="45.00252" lon="5.2021">
        <ele>610</ele>
        <time>2020-01-02T12:11:26Z</time>
      </trkpt>
      <trkpt lat="45.00256" lon="5.20213">
        <ele>610</ele>
        <time>2020-01-02T12:11:29Z</time>
      </trkpt>
      <trkpt lat="45.0026" lon="5.20216">
        <ele>610</ele>
        <time>2020-01-02T12:11:32Z</time>
      </trkpt>
      <trkpt lat="45.00262" lon="5.2022">
        <ele>610</ele>
        <time>2020-01-02T12:11:35Z</time>
      </trkpt>
      <trkpt lat="45.00267" lon="5.20223">
        <ele>611</ele>
        <time>2020-01-02T12:11:42Z</time>
      </trkpt>
      <trkpt lat="45.00272" lon="5.20255">
        <ele>612</ele>
        <time>2020-01-02T12:11:54Z</time>
      </trkpt>
      <trkpt lat="45.00283" lon="5.20263">
        <ele>612</ele>
        <time>2020-01-02T12:12:04Z</time>
      </trkpt>
      <trkpt lat="45.00282" lon="5.20283">
        <ele>613</ele>
        <time>2020-01-02T12:12:11Z</time>
      </trkpt>
      <trkpt lat="45.00277" lon="5.20294">
        <ele>613</ele>
        <time>2020-01-02T12:12:13Z</time>
      </trkpt>
      <trkpt lat="45.00282" lon="5.20299">
        <ele>613</ele>
        <time>2020-01-02T12:12:17Z</time>
      </trkpt>
      <trkpt lat="45.00289" lon="5.20298">
        <ele>614</ele>
        <time>2020-01-02T12:12:20Z</time>
      </trkpt>
      <trkpt lat="45.00289" lon="5.20308">
        <ele>614</ele>
        <time>2020-01-02T12:12:27Z</time>
      </trkpt>
      <trkpt lat="45.00278" lon="5.20345">
        <ele>615</ele>
        <time>2020-01-02T12:12:31Z</time>
      </trkpt>
      <trkpt lat="45.00281" lon="5.2035">
        <ele>615</ele>
        <time>2020-01-02T12:12:35Z</time>
      </trkpt>
      <trkpt lat="45.00286" lon="5.20355">
        <ele>615</ele>
        <time>2020-01-02T12:12:38Z</time>
      </trkpt>
      <trkpt lat="45.00288" lon="5.20366">
        <ele>616</ele>
        <time>2020-01-02T12:12:45Z</time>
      </trkpt>
      <trkpt lat="45.00289" lon="5.2037">
        <ele>616</ele>
        <time>2020-01-02T12:12:48Z</time>
      </trkpt>
      <trkpt lat="45.00288" lon="5.20375">
        <ele>617</ele>
        <time>2020-01-02T12:12:51Z</time>
      </trkpt>
      <trkpt lat="45.00288" lon="5.20388">
        <ele>618</ele>
        <time>2020-01-02T12:12:59Z</time>
      </trkpt>
      <trkpt lat="45.00286" lon="5.20393">
        <ele>618</ele>
        <time>2020-01-02T12:13:02Z</time>
      </trkpt>
      <trkpt lat="45.00286" lon="5.20398">
        <ele>618</ele>
        <time>2020-01-02T12:13:06Z</time>
      </trkpt>
      <trkpt lat="45.00287" lon="5.20402">
        <ele>619</ele>
        <time>2020-01-02T12:13:09Z</time>
      </trkpt>
      <trkpt lat="45.00289" lon="5.20408">
        <ele>620</ele>
        <time>2020-01-02T12:13:16Z</time>
      </trkpt>
      <trkpt lat="45.00288" lon="5.20415">
        <ele>620</ele>
        <time>2020-01-02T12:13:21Z</time>
      </trkpt>
      <trkpt lat="45.00288" lon="5.2042">
        <ele>620</ele>
        <time>2020-01-02T12:13:24Z</time>
      </trkpt>
      <trkpt lat="45.00289" lon="5.20432">
        <ele>621</ele>
        <time>2020-01-02T12:13:30Z</time>
      </trkpt>
      <trkpt lat="45.00289" lon="5.2044">
        <ele>621</ele>
        <time>2020-01-02T12:13:34Z</time>
      </trkpt>
      <trkpt lat="45.00293" lon="5.20443">
        <ele>622</ele>
        <time>2020-01-02T12:13:38Z</time>
      </trkpt>
      <trkpt lat="45.00295" lon="5.20462">
        <ele>623</ele>
        <time>2020-01-02T12:13:47Z</time>
      </trkpt>
      <trkpt lat="45.00297" lon="5.20469">
        <ele>623</ele>
        <time>2020-01-02T12:13:50Z</time>
      </trkpt>
      <trkpt lat="45.00303" lon="5.20477">
        <ele>624</ele>
        <time>2020-01-02T12:13:59Z</time>
      </trkpt>
      <trkpt lat="45.00299" lon="5.20485">
        <ele>624</ele>
        <time>2020-01-02T12:14:02Z</time>
      </trkpt>
      <trkpt lat="45.00296" lon="5.20491">
        <ele>625</ele>
        <time>2020-01-02T12:14:04Z</time>
      </trkpt>
      <trkpt lat="45.00294" lon="5.20495">
        <ele>625</ele>
        <time>2020-01-02T12:14:07Z</time>
      </trkpt>
      <trkpt lat="45.00294" lon="5.20501">
        <ele>625</ele>
        <time>2020-01-02T12:14:10Z</time>
      </trkpt>
      <trkpt lat="45.00294" lon="5.20506">
        <ele>626</ele>
        <time>2020-01-02T12:14:13Z</time>
      </trkpt>
      <trkpt lat="45.00292" lon="5.20517">
        <ele>627</ele>
        <time>2020-01-02T12:14:19Z</time>
      </trkpt>
      <trkpt lat="45.00288" lon="5.20535">
        <ele>628</ele>
        <time>2020-01-02T12:14:29Z</time>
      </trkpt>
      <trkpt lat="45.00289" lon="5.2056">
        <ele>630</ele>
        <time>2020-01-02T12:14:44Z</time>
      </trkpt>
      <trkpt lat="45.00293" lon="5.20566">
        <ele>631</ele>
        <time>2020-01-02T12:14:48Z</time>
      </trkpt>
      <trkpt lat="45.00296" lon="5.20572">
        <ele>631</ele>
        <time>2020-01-02T12:14:52Z</time>
      </trkpt>
      <trkpt lat="45.00294" lon="5.20584">
        <ele>632</ele>
        <time>2020-01-02T12:14:59Z</time>
      </trkpt>
      <trkpt lat="45.003" lon="5.20589">
        <ele>632</ele>
        <time>2020-01-02T12:15:04Z</time>
      </trkpt>
      <trkpt lat="45.00306" lon="5.20611">
        <ele>635</ele>
        <time>2020-01-02T12:15:16Z</time>
      </trkpt>
      <trkpt lat="45.00306" lon="5.2062">
        <ele>636</ele>
        <time>2020-01-02T12:15:23Z</time>
      </trkpt>
      <trkpt lat="45.00309" lon="5.20627">
        <ele>639</ele>
        <time>2020-01-02T12:15:30Z</time>
      </trkpt>
      <trkpt lat="45.00311" lon="5.20636">
        <ele>640</ele>
        <time>2020-01-02T12:15:35Z</time>
      </trkpt>
      <trkpt lat="45.00314" lon="5.20643">
        <ele>642</ele>
        <time>2020-01-02T12:15:41Z</time>
      </trkpt>
      <trkpt lat="45.00317" lon="5.20651">
        <ele>643</ele>
        <time>2020-01-02T12:15:47Z</time>
      </trkpt>
      <trkpt lat="45.00317" lon="5.2066">
        <ele>645</ele>
        <time>2020-01-02T12:15:51Z</time>
      </trkpt>
      <trkpt lat="45.00319" lon="5.20666">
        <ele>646</ele>
        <time>2020-01-02T12:15:56Z</time>
      </trkpt>
      <trkpt lat="45.0032" lon="5.20674">
        <ele>647</ele>
        <time>2020-01-02T12:16:00Z</time>
      </trkpt>
      <trkpt lat="45.00322" lon="5.20679">
        <ele>648</ele>
        <time>2020-01-02T12:16:04Z</time>
      </trkpt>
      <trkpt lat="45.00324" lon="5.20683">
        <ele>649</ele>
        <time>2020-01-02T12:16:07Z</time>
      </trkpt>
      <trkpt lat="45.00329" lon="5.20695">
        <ele>651</ele>
        <time>2020-01-02T12:16:14Z</time>
      </trkpt>
      <trkpt lat="45.00332" lon="5.20698">
        <ele>652</ele>
        <time>2020-01-02T12:16:17Z</time>
      </trkpt>
      <trkpt lat="45.00336" lon="5.2071">
        <ele>656</ele>
        <time>2020-01-02T12:16:25Z</time>
      </trkpt>
      <trkpt lat="45.00338" lon="5.20713">
        <ele>656</ele>
        <time>2020-01-02T12:16:27Z</time>
      </trkpt>
      <trkpt lat="45.0034" lon="5.20717">
        <ele>658</ele>
        <time>2020-01-02T12:16:30Z</time>
      </trkpt>
      <trkpt lat="45.00343" lon="5.2072">
        <ele>659</ele>
        <time>2020-01-02T12:16:32Z</time>
      </trkpt>
      <trkpt lat="45.00345" lon="5.20724">
        <ele>660</ele>
        <time>2020-01-02T12:16:35Z</time>
      </trkpt>
      <trkpt lat="45.00346" lon="5.20726">
        <ele>661</ele>
        <time>2020-01-02T12:16:37Z</time>
      </trkpt>
      <trkpt lat="45.00346" lon="5.2073">
        <ele>662</ele>
        <time>2020-01-02T12:16:43Z</time>
      </trkpt>
      <trkpt lat="45.00346" lon="5.20737">
        <ele>666</ele>
        <time>2020-01-02T12:16:51Z</time>
      </trkpt>
      <trkpt lat="45.00348" lon="5.20744">
        <ele>668</ele>
        <time>2020-01-02T12:16:57Z</time>
      </trkpt>
      <trkpt lat="45.00348" lon="5.20756">
        <ele>672</ele>
        <time>2020-01-02T12:17:06Z</time>
      </trkpt>
      <trkpt lat="45.00349" lon="5.20762">
        <ele>675</ele>
        <time>2020-01-02T12:17:12Z</time>
      </trkpt>
      <trkpt lat="45.00349" lon="5.20767">
        <ele>676</ele>
        <time>2020-01-02T12:17:18Z</time>
      </trkpt>
      <trkpt lat="45.00348" lon="5.20773">
        <ele>679</ele>
        <time>2020-01-02T12:17:25Z</time>
      </trkpt>
      <trkpt lat="45.0035" lon="5.2078">
        <ele>681</ele>
        <time>2020-01-02T12:17:29Z</time>
      </trkpt>
      <trkpt lat="45.00352" lon="5.20785">
        <ele>682</ele>
        <time>2020-01-02T12:17:32Z</time>
      </trkpt>
      <trkpt lat="45.00352" lon="5.20791">
        <ele>683</ele>
        <time>2020-01-02T12:17:35Z</time>
      </trkpt>
      <trkpt lat="45.00353" lon="5.20797">
        <ele>683</ele>
        <time>2020-01-02T12:17:38Z</time>
      </trkpt>
      <trkpt lat="45.00357" lon="5.20808">
        <ele>686</ele>
        <time>2020-01-02T12:17:49Z</time>
      </trkpt>
      <trkpt lat="45.00361" lon="5.20819">
        <ele>688</ele>
        <time>2020-01-02T12:17:57Z</time>
      </trkpt>
      <trkpt lat="45.00359" lon="5.20824">
        <ele>691</ele>
        <time>2020-01-02T12:18:13Z</time>
      </trkpt>
      <trkpt lat="45.0035" lon="5.20825">
        <ele>693</ele>
        <time>2020-01-02T12:18:22Z</time>
      </trkpt>
      <trkpt lat="45.00348" lon="5.20828">
        <ele>694</ele>
        <time>2020-01-02T12:18:27Z</time>
      </trkpt>
      <trkpt lat="45.00344" lon="5.20835">
        <ele>696</ele>
        <time>2020-01-02T12:18:33Z</time>
      </trkpt>
      <trkpt lat="45.00334" lon="5.20854">
        <ele>700</ele>
        <time>2020-01-02T12:18:50Z</time>
      </trkpt>
      <trkpt lat="45.00332" lon="5.2086">
        <ele>701</ele>
        <time>2020-01-02T12:18:53Z</time>
      </trkpt>
      <trkpt lat="45.0033" lon="5.20862">
        <ele>702</ele>
        <time>2020-01-02T12:18:56Z</time>
      </trkpt>
      <trkpt lat="45.00328" lon="5.20868">
        <ele>702</ele>
        <time>2020-01-02T12:19:00Z</time>
      </trkpt>
      <trkpt lat="45.00326" lon="5.20871">
        <ele>703</ele>
        <time>2020-01-02T12:19:03Z</time>
      </trkpt>
      <trkpt lat="45.00324" lon="5.20875">
        <ele>704</ele>
        <time>2020-01-02T12:19:07Z</time>
      </trkpt>
      <trkpt lat="45.00322" lon="5.20877">
        <ele>704</ele>
        <time>2020-01-02T12:19:10Z</time>
      </trkpt>
      <trkpt lat="45.0032" lon="5.2088">
        <ele>705</ele>
        <time>2020-01-02T12:19:13Z</time>
      </trkpt>
      <trkpt lat="45.00315" lon="5.20883">
        <ele>706</ele>
        <time>2020-01-02T12:19:18Z</time>
      </trkpt>
      <trkpt lat="45.00316" lon="5.20889">
        <ele>706</ele>
        <time>2020-01-02T12:19:22Z</time>
      </trkpt>
      <trkpt lat="45.0032" lon="5.2089">
        <ele>707</ele>
        <time>2020-01-02T12:19:25Z</time>
      </trkpt>
      <trkpt lat="45.00334" lon="5.20895">
        <ele>708</ele>
        <time>2020-01-02T12:19:33Z</time>
      </trkpt>
      <trkpt lat="45.00337" lon="5.20894">
        <ele>709</ele>
        <time>2020-01-02T12:19:36Z</time>
      </trkpt>
      <trkpt lat="45.00341" lon="5.20896">
        <ele>709</ele>
        <time>2020-01-02T12:19:41Z</time>
      </trkpt>
      <trkpt lat="45.00346" lon="5.20895">
        <ele>710</ele>
        <time>2020-01-02T12:19:46Z</time>
      </trkpt>
      <trkpt lat="45.00348" lon="5.20897">
        <ele>710</ele>
        <time>2020-01-02T12:19:50Z</time>
      </trkpt>
      <trkpt lat="45.00354" lon="5.20907">
        <ele>712</ele>
        <time>2020-01-02T12:20:04Z</time>
      </trkpt>
      <trkpt lat="45.00356" lon="5.20911">
        <ele>712</ele>
        <time>2020-01-02T12:20:08Z</time>
      </trkpt>
      <trkpt lat="45.00362" lon="5.2092">
        <ele>713</ele>
        <time>2020-01-02T12:20:14Z</time>
      </trkpt>
      <trkpt lat="45.00365" lon="5.20925">
        <ele>714</ele>
        <time>2020-01-02T12:20:19Z</time>
      </trkpt>
      <trkpt lat="45.00367" lon="5.20929">
        <ele>714</ele>
        <time>2020-01-02T12:20:23Z</time>
      </trkpt>
      <trkpt lat="45.00373" lon="5.20944">
        <ele>715</ele>
        <time>2020-01-02T12:20:38Z</time>
      </trkpt>
      <trkpt lat="45.00378" lon="5.20948">
        <ele>716</ele>
        <time>2020-01-02T12:20:46Z</time>
      </trkpt>
      <trkpt lat="45.00382" lon="5.20957">
        <ele>716</ele>
        <time>2020-01-02T12:20:49Z</time>
      </trkpt>
      <trkpt lat="45.00385" lon="5.2096">
        <ele>716</ele>
        <time>2020-01-02T12:20:56Z</time>
      </trkpt>
      <trkpt lat="45.00391" lon="5.20961">
        <ele>717</ele>
        <time>2020-01-02T12:21:03Z</time>
      </trkpt>
      <trkpt lat="45.00392" lon="5.20966">
        <ele>717</ele>
        <time>2020-01-02T12:21:06Z</time>
      </trkpt>
      <trkpt lat="45.00415" lon="5.20987">
        <ele>720</ele>
        <time>2020-01-02T12:21:30Z</time>
      </trkpt>
      <trkpt lat="45.00418" lon="5.20991">
        <ele>720</ele>
        <time>2020-01-02T12:21:34Z</time>
      </trkpt>
      <trkpt lat="45.0042" lon="5.20998">
        <ele>720</ele>
        <time>2020-01-02T12:21:38Z</time>
      </trkpt>
      <trkpt lat="45.00456" lon="5.2102">
        <ele>725</ele>
        <time>2020-01-02T12:22:08Z</time>
      </trkpt>
      <trkpt lat="45.0046" lon="5.21024">
        <ele>726</ele>
        <time>2020-01-02T12:22:10Z</time>
      </trkpt>
      <trkpt lat="45.00463" lon="5.21025">
        <ele>726</ele>
        <time>2020-01-02T12:22:13Z</time>
      </trkpt>
      <trkpt lat="45.00473" lon="5.21033">
        <ele>729</ele>
        <time>2020-01-02T12:22:26Z</time>
      </trkpt>
      <trkpt lat="45.00476" lon="5.21035">
        <ele>729</ele>
        <time>2020-01-02T12:22:29Z</time>
      </trkpt>
      <trkpt lat="45.00492" lon="5.21046">
        <ele>733</ele>
        <time>2020-01-02T12:22:50Z</time>
      </trkpt>
      <trkpt lat="45.00494" lon="5.21048">
        <ele>734</ele>
        <time>2020-01-02T12:22:54Z</time>
      </trkpt>
      <trkpt lat="45.00496" lon="5.21054">
        <ele>735</ele>
        <time>2020-01-02T12:23:04Z</time>
      </trkpt>
      <trkpt lat="45.00496" lon="5.21058">
        <ele>737</ele>
        <time>2020-01-02T12:23:10Z</time>
      </trkpt>
      <trkpt lat="45.00491" lon="5.21072">
        <ele>738</ele>
        <time>2020-01-02T12:23:16Z</time>
      </trkpt>
      <trkpt lat="45.00489" lon="5.21074">
        <ele>740</ele>
        <time>2020-01-02T12:23:22Z</time>
      </trkpt>
      <trkpt lat="45.00484" lon="5.21074">
        <ele>742</ele>
        <time>2020-01-02T12:23:28Z</time>
      </trkpt>
      <trkpt lat="45.00483" lon="5.21077">
        <ele>743</ele>
        <time>2020-01-02T12:23:30Z</time>
      </trkpt>
      <trkpt lat="45.00478" lon="5.2108">
        <ele>744</ele>
        <time>2020-01-02T12:23:33Z</time>
      </trkpt>
      <trkpt lat="45.00475" lon="5.21081">
        <ele>745</ele>
        <time>2020-01-02T12:23:35Z</time>
      </trkpt>
      <trkpt lat="45.00467" lon="5.21085">
        <ele>745</ele>
        <time>2020-01-02T12:23:40Z</time>
      </trkpt>
      <trkpt lat="45.0046" lon="5.21086">
        <ele>748</ele>
        <time>2020-01-02T12:23:49Z</time>
      </trkpt>
      <trkpt lat="45.00455" lon="5.21085">
        <ele>749</ele>
        <time>2020-01-02T12:23:53Z</time>
      </trkpt>
      <trkpt lat="45.00449" lon="5.21085">
        <ele>750</ele>
        <time>2020-01-02T12:23:57Z</time>
      </trkpt>
      <trkpt lat="45.00448" lon="5.21091">
        <ele>751</ele>
        <time>2020-01-02T12:24:02Z</time>
      </trkpt>
      <trkpt lat="45.00449" lon="5.21097">
        <ele>752</ele>
        <time>2020-01-02T12:24:07Z</time>
      </trkpt>
      <trkpt lat="45.0045" lon="5.21102">
        <ele>753</ele>
        <time>2020-01-02T12:24:11Z</time>
      </trkpt>
      <trkpt lat="45.00453" lon="5.21106">
        <ele>754</ele>
        <time>2020-01-02T12:24:17Z</time>
      </trkpt>
      <trkpt lat="45.00456" lon="5.2111">
        <ele>755</ele>
        <time>2020-01-02T12:24:24Z</time>
      </trkpt>
      <trkpt lat="45.00461" lon="5.21117">
        <ele>756</ele>
        <time>2020-01-02T12:24:32Z</time>
      </trkpt>
      <trkpt lat="45.00464" lon="5.21126">
        <ele>757</ele>
        <time>2020-01-02T12:24:38Z</time>
      </trkpt>
      <trkpt lat="45.00468" lon="5.21132">
        <ele>757</ele>
        <time>2020-01-02T12:24:44Z</time>
      </trkpt>
      <trkpt lat="45.00473" lon="5.21136">
        <ele>758</ele>
        <time>2020-01-02T12:24:53Z</time>
      </trkpt>
      <trkpt lat="45.00476" lon="5.21139">
        <ele>759</ele>
        <time>2020-01-02T12:24:57Z</time>
      </trkpt>
      <trkpt lat="45.0048" lon="5.21144">
        <ele>760</ele>
        <time>2020-01-02T12:25:01Z</time>
      </trkpt>
      <trkpt lat="45.00482" lon="5.21148">
        <ele>761</ele>
        <time>2020-01-02T12:25:04Z</time>
      </trkpt>
      <trkpt lat="45.00494" lon="5.21158">
        <ele>763</ele>
        <time>2020-01-02T12:25:15Z</time>
      </trkpt>
      <trkpt lat="45.00499" lon="5.21161">
        <ele>764</ele>
        <time>2020-01-02T12:25:21Z</time>
      </trkpt>
      <trkpt lat="45.00502" lon="5.21163">
        <ele>765</ele>
        <time>2020-01-02T12:25:25Z</time>
      </trkpt>
      <trkpt lat="45.00507" lon="5.21167">
        <ele>766</ele>
        <time>2020-01-02T12:25:31Z</time>
      </trkpt>
      <trkpt lat="45.00511" lon="5.2117">
        <ele>767</ele>
        <time>2020-01-02T12:25:36Z</time>
      </trkpt>
      <trkpt lat="45.00515" lon="5.21173">
        <ele>768</ele>
        <time>2020-01-02T12:25:41Z</time>
      </trkpt>
      <trkpt lat="45.00526" lon="5.21177">
        <ele>770</ele>
        <time>2020-01-02T12:25:51Z</time>
      </trkpt>
      <trkpt lat="45.00532" lon="5.21181">
        <ele>771</ele>
        <time>2020-01-02T12:25:56Z</time>
      </trkpt>
      <trkpt lat="45.00537" lon="5.21176">
        <ele>772</ele>
        <time>2020-01-02T12:26:00Z</time>
      </trkpt>
      <trkpt lat="45.00548" lon="5.21185">
        <ele>774</ele>
        <time>2020-01-02T12:26:12Z</time>
      </trkpt>
      <trkpt lat="45.0056" lon="5.21183">
        <ele>776</ele>
        <time>2020-01-02T12:26:24Z</time>
      </trkpt>
      <trkpt lat="45.00567" lon="5.21179">
        <ele>778</ele>
        <time>2020-01-02T12:26:28Z</time>
      </trkpt>
      <trkpt lat="45.0057" lon="5.21177">
        <ele>780</ele>
        <time>2020-01-02T12:26:32Z</time>
      </trkpt>
      <trkpt lat="45.00579" lon="5.21167">
        <ele>783</ele>
        <time>2020-01-02T12:26:44Z</time>
      </trkpt>
      <trkpt lat="45.0059" lon="5.21158">
        <ele>787</ele>
        <time>2020-01-02T12:26:55Z</time>
      </trkpt>
      <trkpt lat="45.00593" lon="5.21161">
        <ele>788</ele>
        <time>2020-01-02T12:27:01Z</time>
      </trkpt>
      <trkpt lat="45.00597" lon="5.21165">
        <ele>790</ele>
        <time>2020-01-02T12:27:07Z</time>
      </trkpt>
      <trkpt lat="45.00597" lon="5.21172">
        <ele>792</ele>
        <time>2020-01-02T12:27:12Z</time>
      </trkpt>
      <trkpt lat="45.00595" lon="5.21175">
        <ele>793</ele>
        <time>2020-01-02T12:27:15Z</time>
      </trkpt>
      <trkpt lat="45.00593" lon="5.2118">
        <ele>793</ele>
        <time>2020-01-02T12:27:19Z</time>
      </trkpt>
      <trkpt lat="45.0059" lon="5.21188">
        <ele>795</ele>
        <time>2020-01-02T12:27:24Z</time>
      </trkpt>
      <trkpt lat="45.00587" lon="5.21191">
        <ele>796</ele>
        <time>2020-01-02T12:27:28Z</time>
      </trkpt>
      <trkpt lat="45.00585" lon="5.21196">
        <ele>796</ele>
        <time>2020-01-02T12:27:30Z</time>
      </trkpt>
      <trkpt lat="45.00582" lon="5.212">
        <ele>797</ele>
        <time>2020-01-02T12:27:33Z</time>
      </trkpt>
      <trkpt lat="45.00567" lon="5.21213">
        <ele>799</ele>
        <time>2020-01-02T12:27:45Z</time>
      </trkpt>
      <trkpt lat="45.00564" lon="5.21217">
        <ele>800</ele>
        <time>2020-01-02T12:27:48Z</time>
      </trkpt>
      <trkpt lat="45.00558" lon="5.2122">
        <ele>800</ele>
        <time>2020-01-02T12:27:51Z</time>
      </trkpt>
      <trkpt lat="45.00552" lon="5.21219">
        <ele>802</ele>
        <time>2020-01-02T12:27:56Z</time>
      </trkpt>
      <trkpt lat="45.00548" lon="5.21226">
        <ele>803</ele>
        <time>2020-01-02T12:28:01Z</time>
      </trkpt>
      <trkpt lat="45.00548" lon="5.21232">
        <ele>803</ele>
        <time>2020-01-02T12:28:04Z</time>
      </trkpt>
      <trkpt lat="45.00546" lon="5.21236">
        <ele>804</ele>
        <time>2020-01-02T12:28:09Z</time>
      </trkpt>
      <trkpt lat="45.00542" lon="5.2124">
        <ele>805</ele>
        <time>2020-01-02T12:28:13Z</time>
      </trkpt>
      <trkpt lat="45.00538" lon="5.2124">
        <ele>805</ele>
        <time>2020-01-02T12:28:17Z</time>
      </trkpt>
      <trkpt lat="45.00532" lon="5.21246">
        <ele>806</ele>
        <time>2020-01-02T12:28:25Z</time>
      </trkpt>
      <trkpt lat="45.00527" lon="5.21251">
        <ele>807</ele>
        <time>2020-01-02T12:28:30Z</time>
      </trkpt>
      <trkpt lat="45.00517" lon="5.2125">
        <ele>809</ele>
        <time>2020-01-02T12:28:43Z</time>
      </trkpt>
      <trkpt lat="45.00512" lon="5.21251">
        <ele>809</ele>
        <time>2020-01-02T12:28:46Z</time>
      </trkpt>
      <trkpt lat="45.00508" lon="5.21249">
        <ele>810</ele>
        <time>2020-01-02T12:28:51Z</time>
      </trkpt>
      <trkpt lat="45.00505" lon="5.21245">
        <ele>811</ele>
        <time>2020-01-02T12:28:58Z</time>
      </trkpt>
      <trkpt lat="45.00499" lon="5.21239">
        <ele>811</ele>
        <time>2020-01-02T12:29:03Z</time>
      </trkpt>
      <trkpt lat="45.00493" lon="5.21239">
        <ele>811</ele>
        <time>2020-01-02T12:29:06Z</time>
      </trkpt>
      <trkpt lat="45.00488" lon="5.21235">
        <ele>812</ele>
        <time>2020-01-02T12:29:11Z</time>
      </trkpt>
      <trkpt lat="45.00476" lon="5.21231">
        <ele>813</ele>
        <time>2020-01-02T12:29:20Z</time>
      </trkpt>
      <trkpt lat="45.0047" lon="5.21228">
        <ele>813</ele>
        <time>2020-01-02T12:29:25Z</time>
      </trkpt>
      <trkpt lat="45.00466" lon="5.21225">
        <ele>814</ele>
        <time>2020-01-02T12:29:30Z</time>
      </trkpt>
      <trkpt lat="45.00463" lon="5.21228">
        <ele>815</ele>
        <time>2020-01-02T12:29:33Z</time>
      </trkpt>
      <trkpt lat="45.00459" lon="5.21233">
        <ele>815</ele>
        <time>2020-01-02T12:29:37Z</time>
      </trkpt>
      <trkpt lat="45.00461" lon="5.21231">
        <ele>817</ele>
        <time>2020-01-02T12:30:13Z</time>
      </trkpt>
      <trkpt lat="45.00464" lon="5.21234">
        <ele>819</ele>
        <time>2020-01-02T12:30:17Z</time>
      </trkpt>
      <trkpt lat="45.00467" lon="5.21238">
        <ele>819</ele>
        <time>2020-01-02T12:30:19Z</time>
      </trkpt>
      <trkpt lat="45.0047" lon="5.21242">
        <ele>820</ele>
        <time>2020-01-02T12:30:22Z</time>
      </trkpt>
      <trkpt lat="45.00473" lon="5.21245">
        <ele>820</ele>
        <time>2020-01-02T12:30:26Z</time>
      </trkpt>
      <trkpt lat="45.00478" lon="5.21252">
        <ele>821</ele>
        <time>2020-01-02T12:30:30Z</time>
      </trkpt>
      <trkpt lat="45.00483" lon="5.21259">
        <ele>822</ele>
        <time>2020-01-02T12:30:34Z</time>
      </trkpt>
      <trkpt lat="45.00487" lon="5.21264">
        <ele>823</ele>
        <time>2020-01-02T12:30:41Z</time>
      </trkpt>
      <trkpt lat="45.00492" lon="5.21269">
        <ele>824</ele>
        <time>2020-01-02T12:30:48Z</time>
      </trkpt>
      <trkpt lat="45.00495" lon="5.21276">
        <ele>825</ele>
        <time>2020-01-02T12:30:54Z</time>
      </trkpt>
      <trkpt lat="45.00496" lon="5.21285">
        <ele>826</ele>
        <time>2020-01-02T12:31:01Z</time>
      </trkpt>
      <trkpt lat="45.005" lon="5.2129">
        <ele>828</ele>
        <time>2020-01-02T12:31:05Z</time>
      </trkpt>
      <trkpt lat="45.00505" lon="5.21292">
        <ele>828</ele>
        <time>2020-01-02T12:31:09Z</time>
      </trkpt>
      <trkpt lat="45.00511" lon="5.21295">
        <ele>830</ele>
        <time>2020-01-02T12:31:14Z</time>
      </trkpt>
      <trkpt lat="45.00514" lon="5.21298">
        <ele>830</ele>
        <time>2020-01-02T12:31:17Z</time>
      </trkpt>
      <trkpt lat="45.00516" lon="5.21303">
        <ele>831</ele>
        <time>2020-01-02T12:31:20Z</time>
      </trkpt>
      <trkpt lat="45.00529" lon="5.21311">
        <ele>833</ele>
        <time>2020-01-02T12:31:30Z</time>
      </trkpt>
      <trkpt lat="45.00546" lon="5.2131">
        <ele>837</ele>
        <time>2020-01-02T12:31:44Z</time>
      </trkpt>
      <trkpt lat="45.00552" lon="5.21308">
        <ele>838</ele>
        <time>2020-01-02T12:31:49Z</time>
      </trkpt>
      <trkpt lat="45.00557" lon="5.21307">
        <ele>840</ele>
        <time>2020-01-02T12:31:55Z</time>
      </trkpt>
      <trkpt lat="45.00561" lon="5.21309">
        <ele>840</ele>
        <time>2020-01-02T12:31:58Z</time>
      </trkpt>
      <trkpt lat="45.00567" lon="5.21308">
        <ele>841</ele>
        <time>2020-01-02T12:32:02Z</time>
      </trkpt>
      <trkpt lat="45.0057" lon="5.21305">
        <ele>842</ele>
        <time>2020-01-02T12:32:06Z</time>
      </trkpt>
      <trkpt lat="45.00577" lon="5.21298">
        <ele>845</ele>
        <time>2020-01-02T12:32:15Z</time>
      </trkpt>
      <trkpt lat="45.00584" lon="5.21292">
        <ele>846</ele>
        <time>2020-01-02T12:32:23Z</time>
      </trkpt>
      <trkpt lat="45.00588" lon="5.21291">
        <ele>847</ele>
        <time>2020-01-02T12:32:27Z</time>
      </trkpt>
      <trkpt lat="45.00592" lon="5.21292">
        <ele>848</ele>
        <time>2020-01-02T12:32:30Z</time>
      </trkpt>
      <trkpt lat="45.00595" lon="5.21294">
        <ele>848</ele>
        <time>2020-01-02T12:32:33Z</time>
      </trkpt>
      <trkpt lat="45.00599" lon="5.21295">
        <ele>849</ele>
        <time>2020-01-02T12:32:38Z</time>
      </trkpt>
      <trkpt lat="45.00603" lon="5.21294">
        <ele>850</ele>
        <time>2020-01-02T12:32:40Z</time>
      </trkpt>
      <trkpt lat="45.00607" lon="5.21295">
        <ele>850</ele>
        <time>2020-01-02T12:32:43Z</time>
      </trkpt>
      <trkpt lat="45.00613" lon="5.21298">
        <ele>851</ele>
        <time>2020-01-02T12:32:50Z</time>
      </trkpt>
      <trkpt lat="45.00625" lon="5.21302">
        <ele>853</ele>
        <time>2020-01-02T12:33:02Z</time>
      </trkpt>
      <trkpt lat="45.00634" lon="5.21303">
        <ele>855</ele>
        <time>2020-01-02T12:33:11Z</time>
      </trkpt>
      <trkpt lat="45.00639" lon="5.21302">
        <ele>855</ele>
        <time>2020-01-02T12:33:15Z</time>
      </trkpt>
      <trkpt lat="45.00643" lon="5.213">
        <ele>856</ele>
        <time>2020-01-02T12:33:19Z</time>
      </trkpt>
      <trkpt lat="45.00647" lon="5.21299">
        <ele>856</ele>
        <time>2020-01-02T12:33:21Z</time>
      </trkpt>
      <trkpt lat="45.00653" lon="5.21298">
        <ele>857</ele>
        <time>2020-01-02T12:33:24Z</time>
      </trkpt>
      <trkpt lat="45.00659" lon="5.21296">
        <ele>858</ele>
        <time>2020-01-02T12:33:29Z</time>
      </trkpt>
      <trkpt lat="45.00662" lon="5.21292">
        <ele>859</ele>
        <time>2020-01-02T12:33:34Z</time>
      </trkpt>
      <trkpt lat="45.00668" lon="5.2129">
        <ele>860</ele>
        <time>2020-01-02T12:33:40Z</time>
      </trkpt>
      <trkpt lat="45.00676" lon="5.21289">
        <ele>861</ele>
        <time>2020-01-02T12:33:47Z</time>
      </trkpt>
      <trkpt lat="45.00682" lon="5.21286">
        <ele>862</ele>
        <time>2020-01-02T12:33:52Z</time>
      </trkpt>
      <trkpt lat="45.00691" lon="5.21281">
        <ele>864</ele>
        <time>2020-01-02T12:34:01Z</time>
      </trkpt>
      <trkpt lat="45.00695" lon="5.21277">
        <ele>865</ele>
        <time>2020-01-02T12:34:05Z</time>
      </trkpt>
      <trkpt lat="45.00703" lon="5.21272">
        <ele>866</ele>
        <time>2020-01-02T12:34:12Z</time>
      </trkpt>
      <trkpt lat="45.00706" lon="5.21268">
        <ele>867</ele>
        <time>2020-01-02T12:34:16Z</time>
      </trkpt>
      <trkpt lat="45.00709" lon="5.21267">
        <ele>868</ele>
        <time>2020-01-02T12:34:21Z</time>
      </trkpt>
      <trkpt lat="45.00717" lon="5.2126">
        <ele>870</ele>
        <time>2020-01-02T12:34:30Z</time>
      </trkpt>
      <trkpt lat="45.0072" lon="5.21254">
        <ele>871</ele>
        <time>2020-01-02T12:34:36Z</time>
      </trkpt>
      <trkpt lat="45.00722" lon="5.21251">
        <ele>872</ele>
        <time>2020-01-02T12:34:39Z</time>
      </trkpt>
      <trkpt lat="45.00725" lon="5.21251">
        <ele>872</ele>
        <time>2020-01-02T12:34:42Z</time>
      </trkpt>
      <trkpt lat="45.00727" lon="5.21254">
        <ele>873</ele>
        <time>2020-01-02T12:34:46Z</time>
      </trkpt>
      <trkpt lat="45.00727" lon="5.21258">
        <ele>873</ele>
        <time>2020-01-02T12:34:48Z</time>
      </trkpt>
      <trkpt lat="45.00727" lon="5.21269">
        <ele>875</ele>
        <time>2020-01-02T12:34:58Z</time>
      </trkpt>
      <trkpt lat="45.00719" lon="5.21281">
        <ele>877</ele>
        <time>2020-01-02T12:35:08Z</time>
      </trkpt>
      <trkpt lat="45.00711" lon="5.21295">
        <ele>879</ele>
        <time>2020-01-02T12:35:21Z</time>
      </trkpt>
      <trkpt lat="45.0071" lon="5.21299">
        <ele>880</ele>
        <time>2020-01-02T12:35:24Z</time>
      </trkpt>
      <trkpt lat="45.007" lon="5.21306">
        <ele>880</ele>
        <time>2020-01-02T12:35:30Z</time>
      </trkpt>
      <trkpt lat="45.00697" lon="5.2131">
        <ele>881</ele>
        <time>2020-01-02T12:35:34Z</time>
      </trkpt>
      <trkpt lat="45.00693" lon="5.2132">
        <ele>882</ele>
        <time>2020-01-02T12:35:42Z</time>
      </trkpt>
      <trkpt lat="45.00691" lon="5.21323">
        <ele>882</ele>
        <time>2020-01-02T12:35:45Z</time>
      </trkpt>
      <trkpt lat="45.0069" lon="5.21327">
        <ele>883</ele>
        <time>2020-01-02T12:35:49Z</time>
      </trkpt>
      <trkpt lat="45.00686" lon="5.21335">
        <ele>884</ele>
        <time>2020-01-02T12:35:55Z</time>
      </trkpt>
      <trkpt lat="45.00682" lon="5.21347">
        <ele>885</ele>
        <time>2020-01-02T12:36:04Z</time>
      </trkpt>
      <trkpt lat="45.00678" lon="5.21356">
        <ele>886</ele>
        <time>2020-01-02T12:36:10Z</time>
      </trkpt>
      <trkpt lat="45.00676" lon="5.2136">
        <ele>886</ele>
        <time>2020-01-02T12:36:13Z</time>
      </trkpt>
      <trkpt lat="45.00674" lon="5.21369">
        <ele>886</ele>
        <time>2020-01-02T12:36:19Z</time>
      </trkpt>
      <trkpt lat="45.0067" lon="5.21375">
        <ele>887</ele>
        <time>2020-01-02T12:36:26Z</time>
      </trkpt>
      <trkpt lat="45.00667" lon="5.2138">
        <ele>888</ele>
        <time>2020-01-02T12:36:29Z</time>
      </trkpt>
      <trkpt lat="45.00672" lon="5.21385">
        <ele>888</ele>
        <time>2020-01-02T12:36:35Z</time>
      </trkpt>
      <trkpt lat="45.00678" lon="5.21383">
        <ele>889</ele>
        <time>2020-01-02T12:36:38Z</time>
      </trkpt>
      <trkpt lat="45.00681" lon="5.2138">
        <ele>889</ele>
        <time>2020-01-02T12:36:41Z</time>
      </trkpt>
      <trkpt lat="45.00683" lon="5.21375">
        <ele>890</ele>
        <time>2020-01-02T12:36:46Z</time>
      </trkpt>
      <trkpt lat="45.00684" lon="5.21371">
        <ele>890</ele>
        <time>2020-01-02T12:36:48Z</time>
      </trkpt>
      <trkpt lat="45.00688" lon="5.21368">
        <ele>890</ele>
        <time>2020-01-02T12:36:52Z</time>
      </trkpt>
      <trkpt lat="45.0069" lon="5.21363">
        <ele>891</ele>
        <time>2020-01-02T12:36:57Z</time>
      </trkpt>
      <trkpt lat="45.00693" lon="5.2136">
        <ele>892</ele>
        <time>2020-01-02T12:37:02Z</time>
      </trkpt>
      <trkpt lat="45.00699" lon="5.21357">
        <ele>892</ele>
        <time>2020-01-02T12:37:07Z</time>
      </trkpt>
      <trkpt lat="45.00703" lon="5.21354">
        <ele>893</ele>
        <time>2020-01-02T12:37:10Z</time>
      </trkpt>
      <trkpt lat="45.00708" lon="5.21352">
        <ele>893</ele>
        <time>2020-01-02T12:37:18Z</time>
      </trkpt>
      <trkpt lat="45.00714" lon="5.2135">
        <ele>894</ele>
        <time>2020-01-02T12:37:24Z</time>
      </trkpt>
      <trkpt lat="45.00722" lon="5.21344">
        <ele>896</ele>
        <time>2020-01-02T12:37:33Z</time>
      </trkpt>
      <trkpt lat="45.00726" lon="5.21337">
        <ele>896</ele>
        <time>2020-01-02T12:37:36Z</time>
      </trkpt>
      <trkpt lat="45.00737" lon="5.21329">
        <ele>898</ele>
        <time>2020-01-02T12:37:47Z</time>
      </trkpt>
      <trkpt lat="45.00742" lon="5.2133">
        <ele>899</ele>
        <time>2020-01-02T12:37:55Z</time>
      </trkpt>
      <trkpt lat="45.00759" lon="5.21329">
        <ele>901</ele>
        <time>2020-01-02T12:38:09Z</time>
      </trkpt>
      <trkpt lat="45.00763" lon="5.21327">
        <ele>901</ele>
        <time>2020-01-02T12:38:12Z</time>
      </trkpt>
      <trkpt lat="45.00767" lon="5.21327">
        <ele>902</ele>
        <time>2020-01-02T12:38:16Z</time>
      </trkpt>
      <trkpt lat="45.00772" lon="5.21327">
        <ele>902</ele>
        <time>2020-01-02T12:38:20Z</time>
      </trkpt>
      <trkpt lat="45.00776" lon="5.21326">
        <ele>903</ele>
        <time>2020-01-02T12:38:23Z</time>
      </trkpt>
      <trkpt lat="45.0078" lon="5.21325">
        <ele>903</ele>
        <time>2020-01-02T12:38:27Z</time>
      </trkpt>
      <trkpt lat="45.00783" lon="5.21323">
        <ele>903</ele>
        <time>2020-01-02T12:38:31Z</time>
      </trkpt>
      <trkpt lat="45.00791" lon="5.21321">
        <ele>904</ele>
        <time>2020-01-02T12:38:38Z</time>
      </trkpt>
      <trkpt lat="45.00803" lon="5.21314">
        <ele>905</ele>
        <time>2020-01-02T12:38:49Z</time>
      </trkpt>
      <trkpt lat="45.00808" lon="5.21313">
        <ele>905</ele>
        <time>2020-01-02T12:38:53Z</time>
      </trkpt>
      <trkpt lat="45.00819" lon="5.21306">
        <ele>906</ele>
        <time>2020-01-02T12:39:02Z</time>
      </trkpt>
      <trkpt lat="45.00822" lon="5.21299">
        <ele>907</ele>
        <time>2020-01-02T12:39:07Z</time>
      </trkpt>
      <trkpt lat="45.00824" lon="5.2129">
        <ele>907</ele>
        <time>2020-01-02T12:39:12Z</time>
      </trkpt>
      <trkpt lat="45.00823" lon="5.21283">
        <ele>909</ele>
        <time>2020-01-02T12:39:16Z</time>
      </trkpt>
      <trkpt lat="45.00824" lon="5.21275">
        <ele>909</ele>
        <time>2020-01-02T12:39:22Z</time>
      </trkpt>
      <trkpt lat="45.00822" lon="5.21267">
        <ele>911</ele>
        <time>2020-01-02T12:39:30Z</time>
      </trkpt>
      <trkpt lat="45.00824" lon="5.21262">
        <ele>911</ele>
        <time>2020-01-02T12:39:32Z</time>
      </trkpt>
      <trkpt lat="45.00825" lon="5.21257">
        <ele>912</ele>
        <time>2020-01-02T12:39:38Z</time>
      </trkpt>
      <trkpt lat="45.00824" lon="5.21251">
        <ele>913</ele>
        <time>2020-01-02T12:39:41Z</time>
      </trkpt>
      <trkpt lat="45.00823" lon="5.21245">
        <ele>914</ele>
        <time>2020-01-02T12:39:46Z</time>
      </trkpt>
      <trkpt lat="45.00823" lon="5.21239">
        <ele>915</ele>
        <time>2020-01-02T12:39:50Z</time>
      </trkpt>
      <trkpt lat="45.00827" lon="5.21236">
        <ele>917</ele>
        <time>2020-01-02T12:39:55Z</time>
      </trkpt>
      <trkpt lat="45.00829" lon="5.21232">
        <ele>917</ele>
        <time>2020-01-02T12:39:58Z</time>
      </trkpt>
      <trkpt lat="45.00833" lon="5.21232">
        <ele>919</ele>
        <time>2020-01-02T12:40:02Z</time>
      </trkpt>
      <trkpt lat="45.00837" lon="5.21229">
        <ele>920</ele>
        <time>2020-01-02T12:40:07Z</time>
      </trkpt>
      <trkpt lat="45.00841" lon="5.21226">
        <ele>921</ele>
        <time>2020-01-02T12:40:11Z</time>
      </trkpt>
      <trkpt lat="45.00845" lon="5.21225">
        <ele>923</ele>
        <time>2020-01-02T12:40:16Z</time>
      </trkpt>
      <trkpt lat="45.00849" lon="5.21224">
        <ele>924</ele>
        <time>2020-01-02T12:40:20Z</time>
      </trkpt>
      <trkpt lat="45.0088" lon="5.21213">
        <ele>932</ele>
        <time>2020-01-02T12:40:50Z</time>
      </trkpt>
      <trkpt lat="45.00882" lon="5.21212">
        <ele>934</ele>
        <time>2020-01-02T12:40:53Z</time>
      </trkpt>
      <trkpt lat="45.00887" lon="5.21211">
        <ele>935</ele>
        <time>2020-01-02T12:40:57Z</time>
      </trkpt>
      <trkpt lat="45.00888" lon="5.2121">
        <ele>940</ele>
        <time>2020-01-02T12:41:47Z</time>
      </trkpt>
      <trkpt lat="45.00891" lon="5.21207">
        <ele>942</ele>
        <time>2020-01-02T12:42:14Z</time>
      </trkpt>
      <trkpt lat="45.00892" lon="5.21204">
        <ele>942</ele>
        <time>2020-01-02T12:42:22Z</time>
      </trkpt>
      <trkpt lat="45.00895" lon="5.21202">
        <ele>949</ele>
        <time>2020-01-02T12:42:39Z</time>
      </trkpt>
      <trkpt lat="45.00892" lon="5.21208">
        <ele>950</ele>
        <time>2020-01-02T12:43:07Z</time>
      </trkpt>
      <trkpt lat="45.00892" lon="5.21215">
        <ele>952</ele>
        <time>2020-01-02T12:43:13Z</time>
      </trkpt>
      <trkpt lat="45.00891" lon="5.21221">
        <ele>953</ele>
        <time>2020-01-02T12:43:16Z</time>
      </trkpt>
      <trkpt lat="45.00885" lon="5.21226">
        <ele>954</ele>
        <time>2020-01-02T12:43:20Z</time>
      </trkpt>
      <trkpt lat="45.00883" lon="5.21229">
        <ele>954</ele>
        <time>2020-01-02T12:43:22Z</time>
      </trkpt>
      <trkpt lat="45.00878" lon="5.21234">
        <ele>955</ele>
        <time>2020-01-02T12:43:26Z</time>
      </trkpt>
      <trkpt lat="45.00873" lon="5.21246">
        <ele>956</ele>
        <time>2020-01-02T12:43:35Z</time>
      </trkpt>
      <trkpt lat="45.00872" lon="5.21251">
        <ele>957</ele>
        <time>2020-01-02T12:43:38Z</time>
      </trkpt>
      <trkpt lat="45.00872" lon="5.21259">
        <ele>957</ele>
        <time>2020-01-02T12:43:44Z</time>
      </trkpt>
      <trkpt lat="45.00871" lon="5.21263">
        <ele>958</ele>
        <time>2020-01-02T12:43:47Z</time>
      </trkpt>
      <trkpt lat="45.00872" lon="5.21268">
        <ele>958</ele>
        <time>2020-01-02T12:43:50Z</time>
      </trkpt>
      <trkpt lat="45.00872" lon="5.21272">
        <ele>958</ele>
        <time>2020-01-02T12:43:52Z</time>
      </trkpt>
      <trkpt lat="45.00872" lon="5.21277">
        <ele>959</ele>
        <time>2020-01-02T12:43:55Z</time>
      </trkpt>
      <trkpt lat="45.0087" lon="5.21286">
        <ele>959</ele>
        <time>2020-01-02T12:43:59Z</time>
      </trkpt>
      <trkpt lat="45.00867" lon="5.21291">
        <ele>959</ele>
        <time>2020-01-02T12:44:02Z</time>
      </trkpt>
      <trkpt lat="45.00865" lon="5.21295">
        <ele>960</ele>
        <time>2020-01-02T12:44:04Z</time>
      </trkpt>
      <trkpt lat="45.0086" lon="5.21321">
        <ele>961</ele>
        <time>2020-01-02T12:44:19Z</time>
      </trkpt>
      <trkpt lat="45.0086" lon="5.21324">
        <ele>961</ele>
        <time>2020-01-02T12:44:21Z</time>
      </trkpt>
      <trkpt lat="45.00859" lon="5.21327">
        <ele>961</ele>
        <time>2020-01-02T12:44:23Z</time>
      </trkpt>
      <trkpt lat="45.00857" lon="5.21337">
        <ele>961</ele>
        <time>2020-01-02T12:44:28Z</time>
      </trkpt>
      <trkpt lat="45.00856" lon="5.21345">
        <ele>962</ele>
        <time>2020-01-02T12:44:33Z</time>
      </trkpt>
      <trkpt lat="45.00856" lon="5.21348">
        <ele>962</ele>
        <time>2020-01-02T12:44:35Z</time>
      </trkpt>
      <trkpt lat="45.00852" lon="5.21374">
        <ele>963</ele>
        <time>2020-01-02T12:44:58Z</time>
      </trkpt>
      <trkpt lat="45.00852" lon="5.21378">
        <ele>963</ele>
        <time>2020-01-02T12:45:01Z</time>
      </trkpt>
      <trkpt lat="45.00852" lon="5.21383">
        <ele>963</ele>
        <time>2020-01-02T12:45:04Z</time>
      </trkpt>
      <trkpt lat="45.00849" lon="5.21386">
        <ele>963</ele>
        <time>2020-01-02T12:45:09Z</time>
      </trkpt>
      <trkpt lat="45.00848" lon="5.2139">
        <ele>963</ele>
        <time>2020-01-02T12:45:19Z</time>
      </trkpt>
      <trkpt lat="45.00846" lon="5.21394">
        <ele>964</ele>
        <time>2020-01-02T12:45:22Z</time>
      </trkpt>
      <trkpt lat="45.00843" lon="5.21396">
        <ele>964</ele>
        <time>2020-01-02T12:45:27Z</time>
      </trkpt>
      <trkpt lat="45.0084" lon="5.214">
        <ele>964</ele>
        <time>2020-01-02T12:45:33Z</time>
      </trkpt>
      <trkpt lat="45.00842" lon="5.21405">
        <ele>964</ele>
        <time>2020-01-02T12:45:43Z</time>
      </trkpt>
      <trkpt lat="45.0084" lon="5.2141">
        <ele>965</ele>
        <time>2020-01-02T12:45:51Z</time>
      </trkpt>
      <trkpt lat="45.00839" lon="5.21416">
        <ele>965</ele>
        <time>2020-01-02T12:45:57Z</time>
      </trkpt>
      <trkpt lat="45.00839" lon="5.21421">
        <ele>965</ele>
        <time>2020-01-02T12:46:04Z</time>
      </trkpt>
      <trkpt lat="45.00838" lon="5.21426">
        <ele>965</ele>
        <time>2020-01-02T12:46:08Z</time>
      </trkpt>
      <trkpt lat="45.00835" lon="5.21431">
        <ele>965</ele>
        <time>2020-01-02T12:46:18Z</time>
      </trkpt>
      <trkpt lat="45.00833" lon="5.21436">
        <ele>966</ele>
        <time>2020-01-02T12:46:24Z</time>
      </trkpt>
      <trkpt lat="45.00832" lon="5.21442">
        <ele>966</ele>
        <time>2020-01-02T12:46:31Z</time>
      </trkpt>
      <trkpt lat="45.0083" lon="5.21448">
        <ele>966</ele>
        <time>2020-01-02T12:46:46Z</time>
      </trkpt>
      <trkpt lat="45.00827" lon="5.21451">
        <ele>966</ele>
        <time>2020-01-02T12:46:52Z</time>
      </trkpt>
      <trkpt lat="45.00823" lon="5.21452">
        <ele>967</ele>
        <time>2020-01-02T12:46:57Z</time>
      </trkpt>
      <trkpt lat="45.00818" lon="5.21454">
        <ele>967</ele>
        <time>2020-01-02T12:47:10Z</time>
      </trkpt>
      <trkpt lat="45.00817" lon="5.2146">
        <ele>968</ele>
        <time>2020-01-02T12:47:20Z</time>
      </trkpt>
      <trkpt lat="45.00818" lon="5.21466">
        <ele>969</ele>
        <time>2020-01-02T12:47:30Z</time>
      </trkpt>
      <trkpt lat="45.00815" lon="5.2147">
        <ele>969</ele>
        <time>2020-01-02T12:47:40Z</time>
      </trkpt>
      <trkpt lat="45.00811" lon="5.21477">
        <ele>971</ele>
        <time>2020-01-02T12:47:47Z</time>
      </trkpt>
      <trkpt lat="45.00812" lon="5.21483">
        <ele>971</ele>
        <time>2020-01-02T12:47:51Z</time>
      </trkpt>
      <trkpt lat="45.00811" lon="5.21489">
        <ele>972</ele>
        <time>2020-01-02T12:47:57Z</time>
      </trkpt>
      <trkpt lat="45.0081" lon="5.21494">
        <ele>972</ele>
        <time>2020-01-02T12:48:03Z</time>
      </trkpt>
      <trkpt lat="45.00807" lon="5.21499">
        <ele>974</ele>
        <time>2020-01-02T12:48:08Z</time>
      </trkpt>
      <trkpt lat="45.00805" lon="5.21504">
        <ele>975</ele>
        <time>2020-01-02T12:48:14Z</time>
      </trkpt>
      <trkpt lat="45.00802" lon="5.21509">
        <ele>975</ele>
        <time>2020-01-02T12:48:17Z</time>
      </trkpt>
      <trkpt lat="45.00799" lon="5.21514">
        <ele>976</ele>
        <time>2020-01-02T12:48:20Z</time>
      </trkpt>
      <trkpt lat="45.00796" lon="5.21519">
        <ele>977</ele>
        <time>2020-01-02T12:48:25Z</time>
      </trkpt>
      <trkpt lat="45.00793" lon="5.21523">
        <ele>978</ele>
        <time>2020-01-02T12:48:28Z</time>
      </trkpt>
      <trkpt lat="45.00792" lon="5.21532">
        <ele>978</ele>
        <time>2020-01-02T12:48:33Z</time>
      </trkpt>
      <trkpt lat="45.00787" lon="5.21542">
        <ele>979</ele>
        <time>2020-01-02T12:48:36Z</time>
      </trkpt>
      <trkpt lat="45.00784" lon="5.21547">
        <ele>980</ele>
        <time>2020-01-02T12:48:39Z</time>
      </trkpt>
      <trkpt lat="45.00781" lon="5.2155">
        <ele>980</ele>
        <time>2020-01-02T12:48:43Z</time>
      </trkpt>
      <trkpt lat="45.00779" lon="5.21556">
        <ele>981</ele>
        <time>2020-01-02T12:48:48Z</time>
      </trkpt>
      <trkpt lat="45.00777" lon="5.21561">
        <ele>981</ele>
        <time>2020-01-02T12:48:51Z</time>
      </trkpt>
      <trkpt lat="45.00773" lon="5.21568">
        <ele>982</ele>
        <time>2020-01-02T12:48:56Z</time>
      </trkpt>
      <trkpt lat="45.00771" lon="5.21573">
        <ele>983</ele>
        <time>2020-01-02T12:48:59Z</time>
      </trkpt>
      <trkpt lat="45.00768" lon="5.21575">
        <ele>983</ele>
        <time>2020-01-02T12:49:03Z</time>
      </trkpt>
      <trkpt lat="45.00767" lon="5.2158">
        <ele>984</ele>
        <time>2020-01-02T12:49:06Z</time>
      </trkpt>
      <trkpt lat="45.00767" lon="5.21584">
        <ele>985</ele>
        <time>2020-01-02T12:49:09Z</time>
      </trkpt>
      <trkpt lat="45.00764" lon="5.21592">
        <ele>986</ele>
        <time>2020-01-02T12:49:17Z</time>
      </trkpt>
      <trkpt lat="45.00754" lon="5.21604">
        <ele>987</ele>
        <time>2020-01-02T12:49:29Z</time>
      </trkpt>
      <trkpt lat="45.00753" lon="5.2161">
        <ele>988</ele>
        <time>2020-01-02T12:49:35Z</time>
      </trkpt>
      <trkpt lat="45.00751" lon="5.21615">
        <ele>988</ele>
        <time>2020-01-02T12:49:37Z</time>
      </trkpt>
      <trkpt lat="45.00747" lon="5.21613">
        <ele>988</ele>
        <time>2020-01-02T12:49:42Z</time>
      </trkpt>
      <trkpt lat="45.00736" lon="5.21604">
        <ele>989</ele>
        <time>2020-01-02T12:49:55Z</time>
      </trkpt>
      <trkpt lat="45.00729" lon="5.21595">
        <ele>990</ele>
        <time>2020-01-02T12:50:01Z</time>
      </trkpt>
      <trkpt lat="45.00726" lon="5.21591">
        <ele>990</ele>
        <time>2020-01-02T12:50:04Z</time>
      </trkpt>
      <trkpt lat="45.00722" lon="5.21585">
        <ele>990</ele>
        <time>2020-01-02T12:50:08Z</time>
      </trkpt>
      <trkpt lat="45.0072" lon="5.21581">
        <ele>990</ele>
        <time>2020-01-02T12:50:11Z</time>
      </trkpt>
      <trkpt lat="45.00719" lon="5.21576">
        <ele>990</ele>
        <time>2020-01-02T12:50:17Z</time>
      </trkpt>
      <trkpt lat="45.00716" lon="5.21573">
        <ele>991</ele>
        <time>2020-01-02T12:50:21Z</time>
      </trkpt>
      <trkpt lat="45.00712" lon="5.21571">
        <ele>991</ele>
        <time>2020-01-02T12:50:24Z</time>
      </trkpt>
      <trkpt lat="45.00707" lon="5.21564">
        <ele>991</ele>
        <time>2020-01-02T12:50:29Z</time>
      </trkpt>
      <trkpt lat="45.00701" lon="5.21559">
        <ele>991</ele>
        <time>2020-01-02T12:50:33Z</time>
      </trkpt>
      <trkpt lat="45.00695" lon="5.21558">
        <ele>991</ele>
        <time>2020-01-02T12:50:39Z</time>
      </trkpt>
      <trkpt lat="45.00687" lon="5.21566">
        <ele>992</ele>
        <time>2020-01-02T12:50:45Z</time>
      </trkpt>
      <trkpt lat="45.00683" lon="5.2157">
        <ele>992</ele>
        <time>2020-01-02T12:50:48Z</time>
      </trkpt>
      <trkpt lat="45.00675" lon="5.21578">
        <ele>992</ele>
        <time>2020-01-02T12:50:53Z</time>
      </trkpt>
      <trkpt lat="45.00671" lon="5.21581">
        <ele>992</ele>
        <time>2020-01-02T12:50:56Z</time>
      </trkpt>
      <trkpt lat="45.00668" lon="5.21584">
        <ele>992</ele>
        <time>2020-01-02T12:50:59Z</time>
      </trkpt>
      <trkpt lat="45.00652" lon="5.21594">
        <ele>993</ele>
        <time>2020-01-02T12:51:14Z</time>
      </trkpt>
      <trkpt lat="45.00646" lon="5.21599">
        <ele>993</ele>
        <time>2020-01-02T12:51:18Z</time>
      </trkpt>
      <trkpt lat="45.00644" lon="5.21604">
        <ele>993</ele>
        <time>2020-01-02T12:51:23Z</time>
      </trkpt>
      <trkpt lat="45.00642" lon="5.2161">
        <ele>993</ele>
        <time>2020-01-02T12:51:26Z</time>
      </trkpt>
      <trkpt lat="45.0064" lon="5.21627">
        <ele>994</ele>
        <time>2020-01-02T12:51:40Z</time>
      </trkpt>
      <trkpt lat="45.0064" lon="5.21639">
        <ele>994</ele>
        <time>2020-01-02T12:51:48Z</time>
      </trkpt>
      <trkpt lat="45.00635" lon="5.2165">
        <ele>994</ele>
        <time>2020-01-02T12:51:54Z</time>
      </trkpt>
      <trkpt lat="45.00634" lon="5.21653">
        <ele>994</ele>
        <time>2020-01-02T12:51:57Z</time>
      </trkpt>
      <trkpt lat="45.00633" lon="5.21657">
        <ele>995</ele>
        <time>2020-01-02T12:52:00Z</time>
      </trkpt>
      <trkpt lat="45.00635" lon="5.21661">
        <ele>995</ele>
        <time>2020-01-02T12:52:04Z</time>
      </trkpt>
      <trkpt lat="45.00632" lon="5.21678">
        <ele>996</ele>
        <time>2020-01-02T12:52:18Z</time>
      </trkpt>
      <trkpt lat="45.00635" lon="5.2169">
        <ele>996</ele>
        <time>2020-01-02T12:52:24Z</time>
      </trkpt>
      <trkpt lat="45.00634" lon="5.21696">
        <ele>996</ele>
        <time>2020-01-02T12:52:28Z</time>
      </trkpt>
      <trkpt lat="45.00632" lon="5.21699">
        <ele>997</ele>
        <time>2020-01-02T12:52:32Z</time>
      </trkpt>
      <trkpt lat="45.00625" lon="5.21696">
        <ele>997</ele>
        <time>2020-01-02T12:52:39Z</time>
      </trkpt>
      <trkpt lat="45.00622" lon="5.21693">
        <ele>998</ele>
        <time>2020-01-02T12:52:45Z</time>
      </trkpt>
      <trkpt lat="45.00617" lon="5.21692">
        <ele>998</ele>
        <time>2020-01-02T12:52:51Z</time>
      </trkpt>
      <trkpt lat="45.00614" lon="5.2169">
        <ele>998</ele>
        <time>2020-01-02T12:52:55Z</time>
      </trkpt>
      <trkpt lat="45.00598" lon="5.21679">
        <ele>1000</ele>
        <time>2020-01-02T12:53:14Z</time>
      </trkpt>
      <trkpt lat="45.00591" lon="5.21676">
        <ele>1000</ele>
        <time>2020-01-02T12:53:23Z</time>
      </trkpt>
      <trkpt lat="45.00581" lon="5.21667">
        <ele>1001</ele>
        <time>2020-01-02T12:53:35Z</time>
      </trkpt>
      <trkpt lat="45.00578" lon="5.21668">
        <ele>1002</ele>
        <time>2020-01-02T12:53:42Z</time>
      </trkpt>
      <trkpt lat="45.00574" lon="5.2167">
        <ele>1002</ele>
        <time>2020-01-02T12:53:47Z</time>
      </trkpt>
      <trkpt lat="45.00571" lon="5.21673">
        <ele>1003</ele>
        <time>2020-01-02T12:53:53Z</time>
      </trkpt>
      <trkpt lat="45.00568" lon="5.21675">
        <ele>1003</ele>
        <time>2020-01-02T12:53:56Z</time>
      </trkpt>
      <trkpt lat="45.00565" lon="5.21678">
        <ele>1004</ele>
        <time>2020-01-02T12:54:00Z</time>
      </trkpt>
      <trkpt lat="45.00557" lon="5.21679">
        <ele>1005</ele>
        <time>2020-01-02T12:54:08Z</time>
      </trkpt>
      <trkpt lat="45.00551" lon="5.21679">
        <ele>1005</ele>
        <time>2020-01-02T12:54:15Z</time>
      </trkpt>
      <trkpt lat="45.00545" lon="5.21681">
        <ele>1006</ele>
        <time>2020-01-02T12:54:23Z</time>
      </trkpt>
      <trkpt lat="45.0053" lon="5.21682">
        <ele>1008</ele>
        <time>2020-01-02T12:54:40Z</time>
      </trkpt>
      <trkpt lat="45.00525" lon="5.21684">
        <ele>1009</ele>
        <time>2020-01-02T12:54:45Z</time>
      </trkpt>
      <trkpt lat="45.00521" lon="5.21686">
        <ele>1010</ele>
        <time>2020-01-02T12:54:54Z</time>
      </trkpt>
      <trkpt lat="45.00518" lon="5.21688">
        <ele>1011</ele>
        <time>2020-01-02T12:55:00Z</time>
      </trkpt>
      <trkpt lat="45.00515" lon="5.21691">
        <ele>1012</ele>
        <time>2020-01-02T12:55:08Z</time>
      </trkpt>
      <trkpt lat="45.005" lon="5.21691">
        <ele>1015</ele>
        <time>2020-01-02T12:55:26Z</time>
      </trkpt>
      <trkpt lat="45.00496" lon="5.21692">
        <ele>1016</ele>
        <time>2020-01-02T12:55:33Z</time>
      </trkpt>
      <trkpt lat="45.00492" lon="5.21693">
        <ele>1017</ele>
        <time>2020-01-02T12:55:40Z</time>
      </trkpt>
      <trkpt lat="45.00489" lon="5.21696">
        <ele>1018</ele>
        <time>2020-01-02T12:55:44Z</time>
      </trkpt>
      <trkpt lat="45.00482" lon="5.21698">
        <ele>1020</ele>
        <time>2020-01-02T12:55:55Z</time>
      </trkpt>
      <trkpt lat="45.00472" lon="5.21708">
        <ele>1024</ele>
        <time>2020-01-02T12:56:12Z</time>
      </trkpt>
      <trkpt lat="45.00468" lon="5.2171">
        <ele>1025</ele>
        <time>2020-01-02T12:56:17Z</time>
      </trkpt>
      <trkpt lat="45.00451" lon="5.21712">
        <ele>1029</ele>
        <time>2020-01-02T12:56:35Z</time>
      </trkpt>
      <trkpt lat="45.00448" lon="5.21713">
        <ele>1030</ele>
        <time>2020-01-02T12:56:39Z</time>
      </trkpt>
      <trkpt lat="45.00444" lon="5.21714">
        <ele>1031</ele>
        <time>2020-01-02T12:56:43Z</time>
      </trkpt>
      <trkpt lat="45.0044" lon="5.21713">
        <ele>1032</ele>
        <time>2020-01-02T12:56:48Z</time>
      </trkpt>
      <trkpt lat="45.00433" lon="5.21717">
        <ele>1033</ele>
        <time>2020-01-02T12:56:54Z</time>
      </trkpt>
      <trkpt lat="45.0043" lon="5.2172">
        <ele>1035</ele>
        <time>2020-01-02T12:57:00Z</time>
      </trkpt>
      <trkpt lat="45.00426" lon="5.21721">
        <ele>1035</ele>
        <time>2020-01-02T12:57:04Z</time>
      </trkpt>
      <trkpt lat="45.00423" lon="5.21725">
        <ele>1036</ele>
        <time>2020-01-02T12:57:07Z</time>
      </trkpt>
      <trkpt lat="45.00419" lon="5.21724">
        <ele>1037</ele>
        <time>2020-01-02T12:57:10Z</time>
      </trkpt>
      <trkpt lat="45.00415" lon="5.21724">
        <ele>1038</ele>
        <time>2020-01-02T12:57:16Z</time>
      </trkpt>
      <trkpt lat="45.0041" lon="5.21724">
        <ele>1039</ele>
        <time>2020-01-02T12:57:23Z</time>
      </trkpt>
      <trkpt lat="45.00406" lon="5.21724">
        <ele>1041</ele>
        <time>2020-01-02T12:57:29Z</time>
      </trkpt>
      <trkpt lat="45.00398" lon="5.2173">
        <ele>1043</ele>
        <time>2020-01-02T12:57:38Z</time>
      </trkpt>
      <trkpt lat="45.00394" lon="5.21734">
        <ele>1044</ele>
        <time>2020-01-02T12:57:43Z</time>
      </trkpt>
      <trkpt lat="45.00391" lon="5.21738">
        <ele>1045</ele>
        <time>2020-01-02T12:57:47Z</time>
      </trkpt>
      <trkpt lat="45.00376" lon="5.21743">
        <ele>1048</ele>
        <time>2020-01-02T12:58:02Z</time>
      </trkpt>
      <trkpt lat="45.00371" lon="5.21747">
        <ele>1049</ele>
        <time>2020-01-02T12:58:07Z</time>
      </trkpt>
      <trkpt lat="45.00367" lon="5.21748">
        <ele>1050</ele>
        <time>2020-01-02T12:58:11Z</time>
      </trkpt>
      <trkpt lat="45.00361" lon="5.21751">
        <ele>1050</ele>
        <time>2020-01-02T12:58:16Z</time>
      </trkpt>
      <trkpt lat="45.00356" lon="5.21753">
        <ele>1052</ele>
        <time>2020-01-02T12:58:24Z</time>
      </trkpt>
      <trkpt lat="45.00352" lon="5.21752">
        <ele>1053</ele>
        <time>2020-01-02T12:58:29Z</time>
      </trkpt>
      <trkpt lat="45.00348" lon="5.21755">
        <ele>1054</ele>
        <time>2020-01-02T12:58:36Z</time>
      </trkpt>
      <trkpt lat="45.00344" lon="5.21757">
        <ele>1055</ele>
        <time>2020-01-02T12:58:40Z</time>
      </trkpt>
      <trkpt lat="45.00342" lon="5.21762">
        <ele>1056</ele>
        <time>2020-01-02T12:58:46Z</time>
      </trkpt>
      <trkpt lat="45.00338" lon="5.21764">
        <ele>1058</ele>
        <time>2020-01-02T12:58:53Z</time>
      </trkpt>
      <trkpt lat="45.00334" lon="5.21767">
        <ele>1059</ele>
        <time>2020-01-02T12:58:57Z</time>
      </trkpt>
      <trkpt lat="45.00325" lon="5.21771">
        <ele>1061</ele>
        <time>2020-01-02T12:59:09Z</time>
      </trkpt>
      <trkpt lat="45.00322" lon="5.21776">
        <ele>1063</ele>
        <time>2020-01-02T12:59:18Z</time>
      </trkpt>
      <trkpt lat="45.00317" lon="5.21785">
        <ele>1065</ele>
        <time>2020-01-02T12:59:27Z</time>
      </trkpt>
      <trkpt lat="45.00309" lon="5.21787">
        <ele>1068</ele>
        <time>2020-01-02T12:59:40Z</time>
      </trkpt>
      <trkpt lat="45.00305" lon="5.21789">
        <ele>1069</ele>
        <time>2020-01-02T12:59:46Z</time>
      </trkpt>
      <trkpt lat="45.003" lon="5.21791">
        <ele>1070</ele>
        <time>2020-01-02T12:59:52Z</time>
      </trkpt>
      <trkpt lat="45.00297" lon="5.21793">
        <ele>1072</ele>
        <time>2020-01-02T12:59:58Z</time>
      </trkpt>
      <trkpt lat="45.0029" lon="5.21799">
        <ele>1074</ele>
        <time>2020-01-02T13:00:06Z</time>
      </trkpt>
      <trkpt lat="45.00286" lon="5.21801">
        <ele>1074</ele>
        <time>2020-01-02T13:00:09Z</time>
      </trkpt>
      <trkpt lat="45.00282" lon="5.21802">
        <ele>1075</ele>
        <time>2020-01-02T13:00:12Z</time>
      </trkpt>
      <trkpt lat="45.00272" lon="5.21806">
        <ele>1078</ele>
        <time>2020-01-02T13:00:27Z</time>
      </trkpt>
      <trkpt lat="45.00269" lon="5.21807">
        <ele>1080</ele>
        <time>2020-01-02T13:00:33Z</time>
      </trkpt>
      <trkpt lat="45.00263" lon="5.21809">
        <ele>1081</ele>
        <time>2020-01-02T13:00:39Z</time>
      </trkpt>
      <trkpt lat="45.00255" lon="5.21812">
        <ele>1084</ele>
        <time>2020-01-02T13:00:48Z</time>
      </trkpt>
      <trkpt lat="45.0025" lon="5.21815">
        <ele>1085</ele>
        <time>2020-01-02T13:00:52Z</time>
      </trkpt>
      <trkpt lat="45.00246" lon="5.21817">
        <ele>1086</ele>
        <time>2020-01-02T13:00:55Z</time>
      </trkpt>
      <trkpt lat="45.0024" lon="5.21816">
        <ele>1087</ele>
        <time>2020-01-02T13:01:01Z</time>
      </trkpt>
      <trkpt lat="45.00235" lon="5.2182">
        <ele>1089</ele>
        <time>2020-01-02T13:01:07Z</time>
      </trkpt>
      <trkpt lat="45.0023" lon="5.21825">
        <ele>1090</ele>
        <time>2020-01-02T13:01:12Z</time>
      </trkpt>
      <trkpt lat="45.00226" lon="5.21826">
        <ele>1091</ele>
        <time>2020-01-02T13:01:16Z</time>
      </trkpt>
      <trkpt lat="45.00223" lon="5.21828">
        <ele>1092</ele>
        <time>2020-01-02T13:01:23Z</time>
      </trkpt>
      <trkpt lat="45.00218" lon="5.21831">
        <ele>1093</ele>
        <time>2020-01-02T13:01:27Z</time>
      </trkpt>
      <trkpt lat="45.00211" lon="5.21835">
        <ele>1095</ele>
        <time>2020-01-02T13:01:35Z</time>
      </trkpt>
      <trkpt lat="45.00206" lon="5.21841">
        <ele>1096</ele>
        <time>2020-01-02T13:01:39Z</time>
      </trkpt>
      <trkpt lat="45.00199" lon="5.21847">
        <ele>1098</ele>
        <time>2020-01-02T13:01:44Z</time>
      </trkpt>
      <trkpt lat="45.00195" lon="5.21848">
        <ele>1099</ele>
        <time>2020-01-02T13:01:48Z</time>
      </trkpt>
      <trkpt lat="45.00191" lon="5.21849">
        <ele>1100</ele>
        <time>2020-01-02T13:01:53Z</time>
      </trkpt>
      <trkpt lat="45.00187" lon="5.21851">
        <ele>1101</ele>
        <time>2020-01-02T13:01:56Z</time>
      </trkpt>
      <trkpt lat="45.00181" lon="5.21851">
        <ele>1102</ele>
        <time>2020-01-02T13:02:00Z</time>
      </trkpt>
      <trkpt lat="45.00176" lon="5.21855">
        <ele>1103</ele>
        <time>2020-01-02T13:02:05Z</time>
      </trkpt>
      <trkpt lat="45.00173" lon="5.21859">
        <ele>1104</ele>
        <time>2020-01-02T13:02:08Z</time>
      </trkpt>
      <trkpt lat="45.00169" lon="5.2186">
        <ele>1105</ele>
        <time>2020-01-02T13:02:11Z</time>
      </trkpt>
      <trkpt lat="45.00165" lon="5.21863">
        <ele>1105</ele>
        <time>2020-01-02T13:02:14Z</time>
      </trkpt>
      <trkpt lat="45.00161" lon="5.21866">
        <ele>1106</ele>
        <time>2020-01-02T13:02:17Z</time>
      </trkpt>
      <trkpt lat="45.00159" lon="5.21872">
        <ele>1107</ele>
        <time>2020-01-02T13:02:21Z</time>
      </trkpt>
      <trkpt lat="45.00161" lon="5.21877">
        <ele>1108</ele>
        <time>2020-01-02T13:02:29Z</time>
      </trkpt>
      <trkpt lat="45.00159" lon="5.21884">
        <ele>1109</ele>
        <time>2020-01-02T13:02:33Z</time>
      </trkpt>
      <trkpt lat="45.00159" lon="5.2189">
        <ele>1110</ele>
        <time>2020-01-02T13:02:36Z</time>
      </trkpt>
      <trkpt lat="45.00163" lon="5.21903">
        <ele>1112</ele>
        <time>2020-01-02T13:02:44Z</time>
      </trkpt>
      <trkpt lat="45.00166" lon="5.21912">
        <ele>1113</ele>
        <time>2020-01-02T13:02:47Z</time>
      </trkpt>
      <trkpt lat="45.0017" lon="5.21918">
        <ele>1113</ele>
        <time>2020-01-02T13:02:50Z</time>
      </trkpt>
      <trkpt lat="45.0017" lon="5.21927">
        <ele>1114</ele>
        <time>2020-01-02T13:02:52Z</time>
      </trkpt>
      <trkpt lat="45.00172" lon="5.21934">
        <ele>1114</ele>
        <time>2020-01-02T13:02:56Z</time>
      </trkpt>
      <trkpt lat="45.00176" lon="5.21941">
        <ele>1115</ele>
        <time>2020-01-02T13:03:02Z</time>
      </trkpt>
      <trkpt lat="45.00178" lon="5.21948">
        <ele>1116</ele>
        <time>2020-01-02T13:03:06Z</time>
      </trkpt>
      <trkpt lat="45.00184" lon="5.2196">
        <ele>1117</ele>
        <time>2020-01-02T13:03:15Z</time>
      </trkpt>
      <trkpt lat="45.00184" lon="5.21979">
        <ele>1118</ele>
        <time>2020-01-02T13:03:23Z</time>
      </trkpt>
      <trkpt lat="45.00187" lon="5.21988">
        <ele>1119</ele>
        <time>2020-01-02T13:03:27Z</time>
      </trkpt>
      <trkpt lat="45.00191" lon="5.22014">
        <ele>1120</ele>
        <time>2020-01-02T13:03:39Z</time>
      </trkpt>
      <trkpt lat="45.00194" lon="5.22021">
        <ele>1121</ele>
        <time>2020-01-02T13:03:43Z</time>
      </trkpt>
      <trkpt lat="45.00191" lon="5.22038">
        <ele>1122</ele>
        <time>2020-01-02T13:03:51Z</time>
      </trkpt>
      <trkpt lat="45.00182" lon="5.22053">
        <ele>1123</ele>
        <time>2020-01-02T13:04:03Z</time>
      </trkpt>
      <trkpt lat="45.00176" lon="5.22063">
        <ele>1124</ele>
        <time>2020-01-02T13:04:10Z</time>
      </trkpt>
      <trkpt lat="45.00173" lon="5.22068">
        <ele>1124</ele>
        <time>2020-01-02T13:04:14Z</time>
      </trkpt>
      <trkpt lat="45.00173" lon="5.22073">
        <ele>1124</ele>
        <time>2020-01-02T13:04:18Z</time>
      </trkpt>
      <trkpt lat="45.00171" lon="5.22077">
        <ele>1125</ele>
        <time>2020-01-02T13:04:20Z</time>
      </trkpt>
      <trkpt lat="45.00167" lon="5.22081">
        <ele>1125</ele>
        <time>2020-01-02T13:04:23Z</time>
      </trkpt>
      <trkpt lat="45.00165" lon="5.22085">
        <ele>1125</ele>
        <time>2020-01-02T13:04:25Z</time>
      </trkpt>
      <trkpt lat="45.00162" lon="5.22089">
        <ele>1125</ele>
        <time>2020-01-02T13:04:27Z</time>
      </trkpt>
      <trkpt lat="45.00159" lon="5.22093">
        <ele>1126</ele>
        <time>2020-01-02T13:04:32Z</time>
      </trkpt>
      <trkpt lat="45.00156" lon="5.22098">
        <ele>1126</ele>
        <time>2020-01-02T13:04:34Z</time>
      </trkpt>
      <trkpt lat="45.00153" lon="5.22116">
        <ele>1127</ele>
        <time>2020-01-02T13:04:48Z</time>
      </trkpt>
      <trkpt lat="45.00152" lon="5.22122">
        <ele>1127</ele>
        <time>2020-01-02T13:04:51Z</time>
      </trkpt>
      <trkpt lat="45.00145" lon="5.22136">
        <ele>1128</ele>
        <time>2020-01-02T13:04:58Z</time>
      </trkpt>
      <trkpt lat="45.00142" lon="5.2214">
        <ele>1128</ele>
        <time>2020-01-02T13:05:10Z</time>
      </trkpt>
      <trkpt lat="45.00139" lon="5.22163">
        <ele>1129</ele>
        <time>2020-01-02T13:05:21Z</time>
      </trkpt>
      <trkpt lat="45.00139" lon="5.2219">
        <ele>1131</ele>
        <time>2020-01-02T13:05:38Z</time>
      </trkpt>
      <trkpt lat="45.00139" lon="5.22206">
        <ele>1131</ele>
        <time>2020-01-02T13:05:49Z</time>
      </trkpt>
      <trkpt lat="45.00139" lon="5.22214">
        <ele>1132</ele>
        <time>2020-01-02T13:05:52Z</time>
      </trkpt>
      <trkpt lat="45.00137" lon="5.22234">
        <ele>1132</ele>
        <time>2020-01-02T13:06:05Z</time>
      </trkpt>
      <trkpt lat="45.00136" lon="5.2224">
        <ele>1133</ele>
        <time>2020-01-02T13:06:09Z</time>
      </trkpt>
      <trkpt lat="45.00135" lon="5.22245">
        <ele>1133</ele>
        <time>2020-01-02T13:06:12Z</time>
      </trkpt>
      <trkpt lat="45.00127" lon="5.22272">
        <ele>1134</ele>
        <time>2020-01-02T13:06:29Z</time>
      </trkpt>
      <trkpt lat="45.00126" lon="5.22276">
        <ele>1134</ele>
        <time>2020-01-02T13:06:33Z</time>
      </trkpt>
      <trkpt lat="45.00125" lon="5.22286">
        <ele>1134</ele>
        <time>2020-01-02T13:06:39Z</time>
      </trkpt>
      <trkpt lat="45.00125" lon="5.22296">
        <ele>1135</ele>
        <time>2020-01-02T13:06:46Z</time>
      </trkpt>
      <trkpt lat="45.00123" lon="5.22304">
        <ele>1136</ele>
        <time>2020-01-02T13:06:54Z</time>
      </trkpt>
      <trkpt lat="45.00122" lon="5.22309">
        <ele>1136</ele>
        <time>2020-01-02T13:06:57Z</time>
      </trkpt>
      <trkpt lat="45.00119" lon="5.22313">
        <ele>1136</ele>
        <time>2020-01-02T13:06:59Z</time>
      </trkpt>
      <trkpt lat="45.00118" lon="5.22317">
        <ele>1136</ele>
        <time>2020-01-02T13:07:01Z</time>
      </trkpt>
      <trkpt lat="45.00115" lon="5.22325">
        <ele>1137</ele>
        <time>2020-01-02T13:07:07Z</time>
      </trkpt>
      <trkpt lat="45.00114" lon="5.22329">
        <ele>1137</ele>
        <time>2020-01-02T13:07:10Z</time>
      </trkpt>
      <trkpt lat="45.00112" lon="5.22333">
        <ele>1138</ele>
        <time>2020-01-02T13:07:13Z</time>
      </trkpt>
      <trkpt lat="45.0011" lon="5.22337">
        <ele>1138</ele>
        <time>2020-01-02T13:07:16Z</time>
      </trkpt>
      <trkpt lat="45.00109" lon="5.22341">
        <ele>1138</ele>
        <time>2020-01-02T13:07:20Z</time>
      </trkpt>
      <trkpt lat="45.00106" lon="5.2235">
        <ele>1139</ele>
        <time>2020-01-02T13:07:28Z</time>
      </trkpt>
      <trkpt lat="45.00103" lon="5.22357">
        <ele>1140</ele>
        <time>2020-01-02T13:07:35Z</time>
      </trkpt>
      <trkpt lat="45.00101" lon="5.22361">
        <ele>1140</ele>
        <time>2020-01-02T13:07:38Z</time>
      </trkpt>
      <trkpt lat="45.00097" lon="5.22368">
        <ele>1141</ele>
        <time>2020-01-02T13:07:45Z</time>
      </trkpt>
      <trkpt lat="45.00095" lon="5.22371">
        <ele>1141</ele>
        <time>2020-01-02T13:07:49Z</time>
      </trkpt>
      <trkpt lat="45.00093" lon="5.22376">
        <ele>1142</ele>
        <time>2020-01-02T13:07:53Z</time>
      </trkpt>
      <trkpt lat="45.00092" lon="5.2238">
        <ele>1142</ele>
        <time>2020-01-02T13:07:57Z</time>
      </trkpt>
      <trkpt lat="45.00084" lon="5.22393">
        <ele>1143</ele>
        <time>2020-01-02T13:08:10Z</time>
      </trkpt>
      <trkpt lat="45.00076" lon="5.22406">
        <ele>1145</ele>
        <time>2020-01-02T13:08:25Z</time>
      </trkpt>
      <trkpt lat="45.00074" lon="5.22409">
        <ele>1146</ele>
        <time>2020-01-02T13:08:29Z</time>
      </trkpt>
      <trkpt lat="45.00061" lon="5.22432">
        <ele>1149</ele>
        <time>2020-01-02T13:09:00Z</time>
      </trkpt>
      <trkpt lat="45.00058" lon="5.22436">
        <ele>1149</ele>
        <time>2020-01-02T13:09:05Z</time>
      </trkpt>
      <trkpt lat="45.00048" lon="5.22445">
        <ele>1151</ele>
        <time>2020-01-02T13:09:20Z</time>
      </trkpt>
      <trkpt lat="45.0004" lon="5.22459">
        <ele>1152</ele>
        <time>2020-01-02T13:09:38Z</time>
      </trkpt>
      <trkpt lat="45.00038" lon="5.22464">
        <ele>1153</ele>
        <time>2020-01-02T13:09:44Z</time>
      </trkpt>
      <trkpt lat="45.00036" lon="5.22468">
        <ele>1153</ele>
        <time>2020-01-02T13:09:49Z</time>
      </trkpt>
      <trkpt lat="45.00034" lon="5.22473">
        <ele>1154</ele>
        <time>2020-01-02T13:09:54Z</time>
      </trkpt>
      <trkpt lat="45.00027" lon="5.22485">
        <ele>1155</ele>
        <time>2020-01-02T13:10:10Z</time>
      </trkpt>
      <trkpt lat="45.00024" lon="5.22489">
        <ele>1156</ele>
        <time>2020-01-02T13:10:15Z</time>
      </trkpt>
      <trkpt lat="45.00023" lon="5.22493">
        <ele>1156</ele>
        <time>2020-01-02T13:10:19Z</time>
      </trkpt>
      <trkpt lat="45.0002" lon="5.22499">
        <ele>1157</ele>
        <time>2020-01-02T13:10:25Z</time>
      </trkpt>
      <trkpt lat="45.00016" lon="5.22503">
        <ele>1158</ele>
        <time>2020-01-02T13:10:35Z</time>
      </trkpt>
      <trkpt lat="45.00014" lon="5.22508">
        <ele>1159</ele>
        <time>2020-01-02T13:10:41Z</time>
      </trkpt>
      <trkpt lat="45.00009" lon="5.22517">
        <ele>1161</ele>
        <time>2020-01-02T13:10:52Z</time>
      </trkpt>
      <trkpt lat="45.00008" lon="5.22522">
        <ele>1161</ele>
        <time>2020-01-02T13:10:58Z</time>
      </trkpt>
      <trkpt lat="45.00007" lon="5.22527">
        <ele>1162</ele>
        <time>2020-01-02T13:11:02Z</time>
      </trkpt>
      <trkpt lat="45.00002" lon="5.22535">
        <ele>1165</ele>
        <time>2020-01-02T13:11:15Z</time>
      </trkpt>
      <trkpt lat="45" lon="5.2254">
        <ele>1166</ele>
        <time>2020-01-02T13:11:22Z</time>
      </trkpt>
      <trkpt lat="44.99995" lon="5.22549">
        <ele>1169</ele>
        <time>2020-01-02T13:11:37Z</time>
      </trkpt>
      <trkpt lat="44.99991" lon="5.22559">
        <ele>1173</ele>
        <time>2020-01-02T13:11:49Z</time>
      </trkpt>
      <trkpt lat="44.99988" lon="5.22564">
        <ele>1175</ele>
        <time>2020-01-02T13:11:56Z</time>
      </trkpt>
      <trkpt lat="44.9999" lon="5.22569">
        <ele>1176</ele>
        <time>2020-01-02T13:12:02Z</time>
      </trkpt>
      <trkpt lat="44.99988" lon="5.22574">
        <ele>1179</ele>
        <time>2020-01-02T13:12:12Z</time>
      </trkpt>
      <trkpt lat="44.99982" lon="5.22582">
        <ele>1184</ele>
        <time>2020-01-02T13:12:31Z</time>
      </trkpt>
      <trkpt lat="44.99981" lon="5.22587">
        <ele>1186</ele>
        <time>2020-01-02T13:12:38Z</time>
      </trkpt>
      <trkpt lat="44.99982" lon="5.22592">
        <ele>1190</ele>
        <time>2020-01-02T13:12:51Z</time>
      </trkpt>
      <trkpt lat="44.99983" lon="5.22597">
        <ele>1192</ele>
        <time>2020-01-02T13:13:00Z</time>
      </trkpt>
      <trkpt lat="44.99986" lon="5.22615">
        <ele>1201</ele>
        <time>2020-01-02T13:13:27Z</time>
      </trkpt>
      <trkpt lat="44.99986" lon="5.22621">
        <ele>1203</ele>
        <time>2020-01-02T13:13:34Z</time>
      </trkpt>
      <trkpt lat="44.99988" lon="5.22625">
        <ele>1206</ele>
        <time>2020-01-02T13:13:37Z</time>
      </trkpt>
      <trkpt lat="44.99989" lon="5.22631">
        <ele>1207</ele>
        <time>2020-01-02T13:13:44Z</time>
      </trkpt>
      <trkpt lat="44.99991" lon="5.22635">
        <ele>1211</ele>
        <time>2020-01-02T13:13:57Z</time>
      </trkpt>
      <trkpt lat="44.99992" lon="5.2264">
        <ele>1214</ele>
        <time>2020-01-02T13:14:22Z</time>
      </trkpt>
      <trkpt lat="44.99994" lon="5.22645">
        <ele>1219</ele>
        <time>2020-01-02T13:14:27Z</time>
      </trkpt>
      <trkpt lat="44.99996" lon="5.2265">
        <ele>1221</ele>
        <time>2020-01-02T13:14:36Z</time>
      </trkpt>
      <trkpt lat="44.99995" lon="5.22658">
        <ele>1225</ele>
        <time>2020-01-02T13:14:52Z</time>
      </trkpt>
      <trkpt lat="44.99996" lon="5.22666">
        <ele>1228</ele>
        <time>2020-01-02T13:15:10Z</time>
      </trkpt>
      <trkpt lat="44.99991" lon="5.22677">
        <ele>1235</ele>
        <time>2020-01-02T13:15:30Z</time>
      </trkpt>
      <trkpt lat="44.99987" lon="5.22672">
        <ele>1242</ele>
        <time>2020-01-02T13:16:23Z</time>
      </trkpt>
      <trkpt lat="44.99985" lon="5.22665">
        <ele>1244</ele>
        <time>2020-01-02T13:16:35Z</time>
      </trkpt>
      <trkpt lat="44.99979" lon="5.22666">
        <ele>1253</ele>
        <time>2020-01-02T13:16:40Z</time>
      </trkpt>
      <trkpt lat="44.99972" lon="5.22665">
        <ele>1255</ele>
        <time>2020-01-02T13:16:43Z</time>
      </trkpt>
      <trkpt lat="44.99961" lon="5.22664">
        <ele>1257</ele>
        <time>2020-01-02T13:16:51Z</time>
      </trkpt>
      <trkpt lat="44.99955" lon="5.22664">
        <ele>1258</ele>
        <time>2020-01-02T13:16:55Z</time>
      </trkpt>
      <trkpt lat="44.99949" lon="5.22662">
        <ele>1259</ele>
        <time>2020-01-02T13:16:59Z</time>
      </trkpt>
      <trkpt lat="44.99942" lon="5.22663">
        <ele>1260</ele>
        <time>2020-01-02T13:17:03Z</time>
      </trkpt>
      <trkpt lat="44.99936" lon="5.22664">
        <ele>1260</ele>
        <time>2020-01-02T13:17:09Z</time>
      </trkpt>
      <trkpt lat="44.99931" lon="5.22663">
        <ele>1261</ele>
        <time>2020-01-02T13:17:14Z</time>
      </trkpt>
      <trkpt lat="44.99923" lon="5.22662">
        <ele>1263</ele>
        <time>2020-01-02T13:17:21Z</time>
      </trkpt>
      <trkpt lat="44.99908" lon="5.22649">
        <ele>1266</ele>
        <time>2020-01-02T13:17:39Z</time>
      </trkpt>
      <trkpt lat="44.99902" lon="5.22649">
        <ele>1267</ele>
        <time>2020-01-02T13:17:46Z</time>
      </trkpt>
      <trkpt lat="44.99899" lon="5.22653">
        <ele>1268</ele>
        <time>2020-01-02T13:17:49Z</time>
      </trkpt>
      <trkpt lat="44.99895" lon="5.2265">
        <ele>1269</ele>
        <time>2020-01-02T13:17:53Z</time>
      </trkpt>
      <trkpt lat="44.9989" lon="5.2265">
        <ele>1270</ele>
        <time>2020-01-02T13:17:57Z</time>
      </trkpt>
      <trkpt lat="44.99887" lon="5.22654">
        <ele>1270</ele>
        <time>2020-01-02T13:18:00Z</time>
      </trkpt>
      <trkpt lat="44.99884" lon="5.22657">
        <ele>1271</ele>
        <time>2020-01-02T13:18:04Z</time>
      </trkpt>
      <trkpt lat="44.9988" lon="5.22657">
        <ele>1272</ele>
        <time>2020-01-02T13:18:33Z</time>
      </trkpt>
      <trkpt lat="44.99876" lon="5.22656">
        <ele>1273</ele>
        <time>2020-01-02T13:18:42Z</time>
      </trkpt>
      <trkpt lat="44.99868" lon="5.22656">
        <ele>1274</ele>
        <time>2020-01-02T13:18:49Z</time>
      </trkpt>
      <trkpt lat="44.99864" lon="5.22658">
        <ele>1275</ele>
        <time>2020-01-02T13:18:51Z</time>
      </trkpt>
      <trkpt lat="44.99859" lon="5.22658">
        <ele>1275</ele>
        <time>2020-01-02T13:18:54Z</time>
      </trkpt>
      <trkpt lat="44.99855" lon="5.22658">
        <ele>1276</ele>
        <time>2020-01-02T13:18:59Z</time>
      </trkpt>
      <trkpt lat="44.99851" lon="5.22659">
        <ele>1276</ele>
        <time>2020-01-02T13:19:01Z</time>
      </trkpt>
      <trkpt lat="44.99847" lon="5.22657">
        <ele>1277</ele>
        <time>2020-01-02T13:19:04Z</time>
      </trkpt>
      <trkpt lat="44.99842" lon="5.22653">
        <ele>1277</ele>
        <time>2020-01-02T13:19:07Z</time>
      </trkpt>
      <trkpt lat="44.99833" lon="5.22651">
        <ele>1278</ele>
        <time>2020-01-02T13:19:13Z</time>
      </trkpt>
      <trkpt lat="44.99824" lon="5.22647">
        <ele>1279</ele>
        <time>2020-01-02T13:19:19Z</time>
      </trkpt>
      <trkpt lat="44.99812" lon="5.22646">
        <ele>1281</ele>
        <time>2020-01-02T13:19:29Z</time>
      </trkpt>
      <trkpt lat="44.99808" lon="5.22646">
        <ele>1281</ele>
        <time>2020-01-02T13:19:32Z</time>
      </trkpt>
      <trkpt lat="44.99805" lon="5.2265">
        <ele>1282</ele>
        <time>2020-01-02T13:19:36Z</time>
      </trkpt>
      <trkpt lat="44.99801" lon="5.22647">
        <ele>1282</ele>
        <time>2020-01-02T13:19:40Z</time>
      </trkpt>
      <trkpt lat="44.99798" lon="5.22645">
        <ele>1283</ele>
        <time>2020-01-02T13:19:44Z</time>
      </trkpt>
      <trkpt lat="44.99794" lon="5.22645">
        <ele>1283</ele>
        <time>2020-01-02T13:19:47Z</time>
      </trkpt>
      <trkpt lat="44.99791" lon="5.22648">
        <ele>1284</ele>
        <time>2020-01-02T13:19:52Z</time>
      </trkpt>
      <trkpt lat="44.99787" lon="5.22647">
        <ele>1284</ele>
        <time>2020-01-02T13:19:55Z</time>
      </trkpt>
      <trkpt lat="44.99774" lon="5.22649">
        <ele>1285</ele>
        <time>2020-01-02T13:20:02Z</time>
      </trkpt>
      <trkpt lat="44.9977" lon="5.22651">
        <ele>1285</ele>
        <time>2020-01-02T13:20:05Z</time>
      </trkpt>
      <trkpt lat="44.99767" lon="5.22653">
        <ele>1285</ele>
        <time>2020-01-02T13:20:07Z</time>
      </trkpt>
      <trkpt lat="44.99764" lon="5.22652">
        <ele>1286</ele>
        <time>2020-01-02T13:20:09Z</time>
      </trkpt>
      <trkpt lat="44.9976" lon="5.2265">
        <ele>1286</ele>
        <time>2020-01-02T13:20:12Z</time>
      </trkpt>
      <trkpt lat="44.99757" lon="5.22649">
        <ele>1286</ele>
        <time>2020-01-02T13:20:14Z</time>
      </trkpt>
      <trkpt lat="44.99754" lon="5.22649">
        <ele>1287</ele>
        <time>2020-01-02T13:20:16Z</time>
      </trkpt>
      <trkpt lat="44.99748" lon="5.22652">
        <ele>1287</ele>
        <time>2020-01-02T13:20:20Z</time>
      </trkpt>
      <trkpt lat="44.99737" lon="5.22653">
        <ele>1289</ele>
        <time>2020-01-02T13:20:32Z</time>
      </trkpt>
      <trkpt lat="44.99736" lon="5.22647">
        <ele>1289</ele>
        <time>2020-01-02T13:20:37Z</time>
      </trkpt>
      <trkpt lat="44.99732" lon="5.22646">
        <ele>1290</ele>
        <time>2020-01-02T13:20:39Z</time>
      </trkpt>
      <trkpt lat="44.99728" lon="5.22647">
        <ele>1290</ele>
        <time>2020-01-02T13:20:41Z</time>
      </trkpt>
      <trkpt lat="44.99724" lon="5.22645">
        <ele>1290</ele>
        <time>2020-01-02T13:20:43Z</time>
      </trkpt>
      <trkpt lat="44.99716" lon="5.22646">
        <ele>1291</ele>
        <time>2020-01-02T13:20:49Z</time>
      </trkpt>
      <trkpt lat="44.99712" lon="5.22647">
        <ele>1291</ele>
        <time>2020-01-02T13:20:54Z</time>
      </trkpt>
      <trkpt lat="44.99708" lon="5.22649">
        <ele>1292</ele>
        <time>2020-01-02T13:20:56Z</time>
      </trkpt>
      <trkpt lat="44.99703" lon="5.22649">
        <ele>1292</ele>
        <time>2020-01-02T13:20:59Z</time>
      </trkpt>
      <trkpt lat="44.99685" lon="5.22662">
        <ele>1293</ele>
        <time>2020-01-02T13:21:14Z</time>
      </trkpt>
      <trkpt lat="44.99678" lon="5.2266">
        <ele>1294</ele>
        <time>2020-01-02T13:21:19Z</time>
      </trkpt>
      <trkpt lat="44.99674" lon="5.22661">
        <ele>1294</ele>
        <time>2020-01-02T13:21:21Z</time>
      </trkpt>
      <trkpt lat="44.9967" lon="5.22664">
        <ele>1294</ele>
        <time>2020-01-02T13:21:24Z</time>
      </trkpt>
      <trkpt lat="44.99667" lon="5.22665">
        <ele>1295</ele>
        <time>2020-01-02T13:21:27Z</time>
      </trkpt>
      <trkpt lat="44.99663" lon="5.22665">
        <ele>1295</ele>
        <time>2020-01-02T13:21:30Z</time>
      </trkpt>
      <trkpt lat="44.99661" lon="5.22662">
        <ele>1295</ele>
        <time>2020-01-02T13:21:34Z</time>
      </trkpt>
      <trkpt lat="44.9966" lon="5.22658">
        <ele>1295</ele>
        <time>2020-01-02T13:21:36Z</time>
      </trkpt>
      <trkpt lat="44.99658" lon="5.22654">
        <ele>1296</ele>
        <time>2020-01-02T13:21:41Z</time>
      </trkpt>
      <trkpt lat="44.99654" lon="5.22654">
        <ele>1296</ele>
        <time>2020-01-02T13:21:44Z</time>
      </trkpt>
      <trkpt lat="44.99651" lon="5.22652">
        <ele>1296</ele>
        <time>2020-01-02T13:21:47Z</time>
      </trkpt>
      <trkpt lat="44.99648" lon="5.22654">
        <ele>1297</ele>
        <time>2020-01-02T13:21:50Z</time>
      </trkpt>
      <trkpt lat="44.99647" lon="5.2265">
        <ele>1297</ele>
        <time>2020-01-02T13:21:55Z</time>
      </trkpt>
      <trkpt lat="44.99643" lon="5.22649">
        <ele>1298</ele>
        <time>2020-01-02T13:22:00Z</time>
      </trkpt>
      <trkpt lat="44.99637" lon="5.22645">
        <ele>1298</ele>
        <time>2020-01-02T13:22:06Z</time>
      </trkpt>
      <trkpt lat="44.99624" lon="5.22647">
        <ele>1299</ele>
        <time>2020-01-02T13:22:18Z</time>
      </trkpt>
      <trkpt lat="44.99621" lon="5.22648">
        <ele>1300</ele>
        <time>2020-01-02T13:22:27Z</time>
      </trkpt>
      <trkpt lat="44.99618" lon="5.22645">
        <ele>1301</ele>
        <time>2020-01-02T13:24:07Z</time>
      </trkpt>
      <trkpt lat="44.99614" lon="5.22644">
        <ele>1302</ele>
        <time>2020-01-02T13:24:54Z</time>
      </trkpt>
      <trkpt lat="44.9961" lon="5.22642">
        <ele>1302</ele>
        <time>2020-01-02T13:25:02Z</time>
      </trkpt>
      <trkpt lat="44.99606" lon="5.22642">
        <ele>1302</ele>
        <time>2020-01-02T13:25:05Z</time>
      </trkpt>
      <trkpt lat="44.99601" lon="5.22644">
        <ele>1303</ele>
        <time>2020-01-02T13:25:08Z</time>
      </trkpt>
      <trkpt lat="44.99597" lon="5.22644">
        <ele>1303</ele>
        <time>2020-01-02T13:25:11Z</time>
      </trkpt>
      <trkpt lat="44.99594" lon="5.22647">
        <ele>1303</ele>
        <time>2020-01-02T13:25:15Z</time>
      </trkpt>
      <trkpt lat="44.9959" lon="5.22644">
        <ele>1303</ele>
        <time>2020-01-02T13:25:18Z</time>
      </trkpt>
      <trkpt lat="44.99587" lon="5.22642">
        <ele>1303</ele>
        <time>2020-01-02T13:25:20Z</time>
      </trkpt>
      <trkpt lat="44.99582" lon="5.2264">
        <ele>1303</ele>
        <time>2020-01-02T13:25:23Z</time>
      </trkpt>
      <trkpt lat="44.99579" lon="5.22643">
        <ele>1303</ele>
        <time>2020-01-02T13:25:27Z</time>
      </trkpt>
      <trkpt lat="44.99575" lon="5.22643">
        <ele>1303</ele>
        <time>2020-01-02T13:25:30Z</time>
      </trkpt>
      <trkpt lat="44.99573" lon="5.22638">
        <ele>1303</ele>
        <time>2020-01-02T13:25:33Z</time>
      </trkpt>
      <trkpt lat="44.99572" lon="5.22633">
        <ele>1303</ele>
        <time>2020-01-02T13:25:36Z</time>
      </trkpt>
      <trkpt lat="44.99568" lon="5.22631">
        <ele>1303</ele>
        <time>2020-01-02T13:25:39Z</time>
      </trkpt>
      <trkpt lat="44.99566" lon="5.22626">
        <ele>1303</ele>
        <time>2020-01-02T13:25:42Z</time>
      </trkpt>
      <trkpt lat="44.99563" lon="5.22615">
        <ele>1303</ele>
        <time>2020-01-02T13:25:49Z</time>
      </trkpt>
      <trkpt lat="44.9956" lon="5.22611">
        <ele>1303</ele>
        <time>2020-01-02T13:25:52Z</time>
      </trkpt>
      <trkpt lat="44.99556" lon="5.22607">
        <ele>1303</ele>
        <time>2020-01-02T13:25:55Z</time>
      </trkpt>
      <trkpt lat="44.99544" lon="5.22603">
        <ele>1304</ele>
        <time>2020-01-02T13:26:05Z</time>
      </trkpt>
      <trkpt lat="44.9954" lon="5.22603">
        <ele>1304</ele>
        <time>2020-01-02T13:26:09Z</time>
      </trkpt>
      <trkpt lat="44.99532" lon="5.22598">
        <ele>1304</ele>
        <time>2020-01-02T13:26:15Z</time>
      </trkpt>
      <trkpt lat="44.99528" lon="5.226">
        <ele>1304</ele>
        <time>2020-01-02T13:26:19Z</time>
      </trkpt>
      <trkpt lat="44.99523" lon="5.22605">
        <ele>1304</ele>
        <time>2020-01-02T13:26:25Z</time>
      </trkpt>
      <trkpt lat="44.9952" lon="5.22605">
        <ele>1304</ele>
        <time>2020-01-02T13:26:30Z</time>
      </trkpt>
      <trkpt lat="44.99518" lon="5.22608">
        <ele>1304</ele>
        <time>2020-01-02T13:26:37Z</time>
      </trkpt>
      <trkpt lat="44.99512" lon="5.22614">
        <ele>1305</ele>
        <time>2020-01-02T13:26:48Z</time>
      </trkpt>
      <trkpt lat="44.99509" lon="5.22618">
        <ele>1305</ele>
        <time>2020-01-02T13:26:54Z</time>
      </trkpt>
      <trkpt lat="44.99507" lon="5.22619">
        <ele>1305</ele>
        <time>2020-01-02T13:26:58Z</time>
      </trkpt>
      <trkpt lat="44.99501" lon="5.22614">
        <ele>1305</ele>
        <time>2020-01-02T13:27:09Z</time>
      </trkpt>
      <trkpt lat="44.99498" lon="5.22617">
        <ele>1305</ele>
        <time>2020-01-02T13:27:20Z</time>
      </trkpt>
      <trkpt lat="44.99494" lon="5.22619">
        <ele>1305</ele>
        <time>2020-01-02T13:27:24Z</time>
      </trkpt>
      <trkpt lat="44.9949" lon="5.2262">
        <ele>1305</ele>
        <time>2020-01-02T13:27:28Z</time>
      </trkpt>
      <trkpt lat="44.99487" lon="5.2262">
        <ele>1305</ele>
        <time>2020-01-02T13:27:33Z</time>
      </trkpt>
      <trkpt lat="44.99483" lon="5.2262">
        <ele>1305</ele>
        <time>2020-01-02T13:27:37Z</time>
      </trkpt>
      <trkpt lat="44.99479" lon="5.22623">
        <ele>1306</ele>
        <time>2020-01-02T13:27:40Z</time>
      </trkpt>
      <trkpt lat="44.99476" lon="5.22626">
        <ele>1306</ele>
        <time>2020-01-02T13:27:43Z</time>
      </trkpt>
      <trkpt lat="44.99472" lon="5.22625">
        <ele>1306</ele>
        <time>2020-01-02T13:27:46Z</time>
      </trkpt>
      <trkpt lat="44.99469" lon="5.22623">
        <ele>1306</ele>
        <time>2020-01-02T13:27:47Z</time>
      </trkpt>
      <trkpt lat="44.9946" lon="5.22617">
        <ele>1306</ele>
        <time>2020-01-02T13:27:59Z</time>
      </trkpt>
      <trkpt lat="44.99457" lon="5.22614">
        <ele>1306</ele>
        <time>2020-01-02T13:28:04Z</time>
      </trkpt>
      <trkpt lat="44.99454" lon="5.22611">
        <ele>1306</ele>
        <time>2020-01-02T13:28:08Z</time>
      </trkpt>
      <trkpt lat="44.99446" lon="5.22605">
        <ele>1306</ele>
        <time>2020-01-02T13:28:16Z</time>
      </trkpt>
      <trkpt lat="44.99442" lon="5.22604">
        <ele>1306</ele>
        <time>2020-01-02T13:28:22Z</time>
      </trkpt>
      <trkpt lat="44.99438" lon="5.22604">
        <ele>1306</ele>
        <time>2020-01-02T13:28:25Z</time>
      </trkpt>
      <trkpt lat="44.99434" lon="5.22605">
        <ele>1306</ele>
        <time>2020-01-02T13:28:30Z</time>
      </trkpt>
      <trkpt lat="44.9943" lon="5.22605">
        <ele>1306</ele>
        <time>2020-01-02T13:28:35Z</time>
      </trkpt>
      <trkpt lat="44.9942" lon="5.22603">
        <ele>1305</ele>
        <time>2020-01-02T13:28:41Z</time>
      </trkpt>
      <trkpt lat="44.99416" lon="5.22604">
        <ele>1305</ele>
        <time>2020-01-02T13:28:49Z</time>
      </trkpt>
      <trkpt lat="44.99412" lon="5.22603">
        <ele>1305</ele>
        <time>2020-01-02T13:28:59Z</time>
      </trkpt>
      <trkpt lat="44.99409" lon="5.226">
        <ele>1305</ele>
        <time>2020-01-02T13:29:02Z</time>
      </trkpt>
      <trkpt lat="44.99404" lon="5.22599">
        <ele>1305</ele>
        <time>2020-01-02T13:29:04Z</time>
      </trkpt>
      <trkpt lat="44.99397" lon="5.22604">
        <ele>1305</ele>
        <time>2020-01-02T13:29:08Z</time>
      </trkpt>
      <trkpt lat="44.99393" lon="5.22606">
        <ele>1305</ele>
        <time>2020-01-02T13:29:11Z</time>
      </trkpt>
      <trkpt lat="44.99388" lon="5.22605">
        <ele>1305</ele>
        <time>2020-01-02T13:29:14Z</time>
      </trkpt>
      <trkpt lat="44.99382" lon="5.22612">
        <ele>1305</ele>
        <time>2020-01-02T13:29:19Z</time>
      </trkpt>
      <trkpt lat="44.99379" lon="5.22615">
        <ele>1305</ele>
        <time>2020-01-02T13:29:21Z</time>
      </trkpt>
      <trkpt lat="44.99375" lon="5.22616">
        <ele>1305</ele>
        <time>2020-01-02T13:29:24Z</time>
      </trkpt>
      <trkpt lat="44.99367" lon="5.22615">
        <ele>1305</ele>
        <time>2020-01-02T13:29:33Z</time>
      </trkpt>
      <trkpt lat="44.99364" lon="5.22614">
        <ele>1305</ele>
        <time>2020-01-02T13:29:37Z</time>
      </trkpt>
      <trkpt lat="44.99358" lon="5.22621">
        <ele>1305</ele>
        <time>2020-01-02T13:29:47Z</time>
      </trkpt>
      <trkpt lat="44.99355" lon="5.22622">
        <ele>1305</ele>
        <time>2020-01-02T13:29:51Z</time>
      </trkpt>
      <trkpt lat="44.99356" lon="5.2263">
        <ele>1305</ele>
        <time>2020-01-02T13:30:02Z</time>
      </trkpt>
      <trkpt lat="44.99357" lon="5.22639">
        <ele>1305</ele>
        <time>2020-01-02T13:30:04Z</time>
      </trkpt>
      <trkpt lat="44.99357" lon="5.22647">
        <ele>1305</ele>
        <time>2020-01-02T13:30:06Z</time>
      </trkpt>
      <trkpt lat="44.99351" lon="5.22663">
        <ele>1305</ele>
        <time>2020-01-02T13:30:21Z</time>
      </trkpt>
      <trkpt lat="44.99347" lon="5.22667">
        <ele>1305</ele>
        <time>2020-01-02T13:30:24Z</time>
      </trkpt>
      <trkpt lat="44.99343" lon="5.2267">
        <ele>1304</ele>
        <time>2020-01-02T13:30:27Z</time>
      </trkpt>
      <trkpt lat="44.99339" lon="5.2267">
        <ele>1304</ele>
        <time>2020-01-02T13:30:30Z</time>
      </trkpt>
      <trkpt lat="44.99335" lon="5.22668">
        <ele>1304</ele>
        <time>2020-01-02T13:30:35Z</time>
      </trkpt>
      <trkpt lat="44.99329" lon="5.22664">
        <ele>1304</ele>
        <time>2020-01-02T13:30:41Z</time>
      </trkpt>
      <trkpt lat="44.99322" lon="5.22659">
        <ele>1304</ele>
        <time>2020-01-02T13:30:46Z</time>
      </trkpt>
      <trkpt lat="44.99317" lon="5.2266">
        <ele>1304</ele>
        <time>2020-01-02T13:30:51Z</time>
      </trkpt>
      <trkpt lat="44.99314" lon="5.22659">
        <ele>1303</ele>
        <time>2020-01-02T13:30:56Z</time>
      </trkpt>
      <trkpt lat="44.99311" lon="5.22656">
        <ele>1303</ele>
        <time>2020-01-02T13:31:01Z</time>
      </trkpt>
      <trkpt lat="44.99309" lon="5.22651">
        <ele>1303</ele>
        <time>2020-01-02T13:31:06Z</time>
      </trkpt>
      <trkpt lat="44.99297" lon="5.22637">
        <ele>1303</ele>
        <time>2020-01-02T13:31:17Z</time>
      </trkpt>
      <trkpt lat="44.99291" lon="5.22631">
        <ele>1303</ele>
        <time>2020-01-02T13:31:22Z</time>
      </trkpt>
      <trkpt lat="44.99282" lon="5.22627">
        <ele>1302</ele>
        <time>2020-01-02T13:31:29Z</time>
      </trkpt>
      <trkpt lat="44.99279" lon="5.22626">
        <ele>1302</ele>
        <time>2020-01-02T13:31:32Z</time>
      </trkpt>
      <trkpt lat="44.99274" lon="5.22627">
        <ele>1302</ele>
        <time>2020-01-02T13:31:36Z</time>
      </trkpt>
      <trkpt lat="44.99269" lon="5.22625">
        <ele>1302</ele>
        <time>2020-01-02T13:31:39Z</time>
      </trkpt>
      <trkpt lat="44.9926" lon="5.22636">
        <ele>1301</ele>
        <time>2020-01-02T13:32:02Z</time>
      </trkpt>
      <trkpt lat="44.99256" lon="5.22639">
        <ele>1301</ele>
        <time>2020-01-02T13:32:07Z</time>
      </trkpt>
      <trkpt lat="44.99253" lon="5.22635">
        <ele>1300</ele>
        <time>2020-01-02T13:32:13Z</time>
      </trkpt>
      <trkpt lat="44.99249" lon="5.22634">
        <ele>1300</ele>
        <time>2020-01-02T13:32:16Z</time>
      </trkpt>
      <trkpt lat="44.99245" lon="5.22635">
        <ele>1300</ele>
        <time>2020-01-02T13:32:19Z</time>
      </trkpt>
      <trkpt lat="44.99244" lon="5.22629">
        <ele>1300</ele>
        <time>2020-01-02T13:32:24Z</time>
      </trkpt>
      <trkpt lat="44.9924" lon="5.22626">
        <ele>1300</ele>
        <time>2020-01-02T13:32:27Z</time>
      </trkpt>
      <trkpt lat="44.99236" lon="5.22626">
        <ele>1299</ele>
        <time>2020-01-02T13:32:29Z</time>
      </trkpt>
      <trkpt lat="44.99231" lon="5.22621">
        <ele>1299</ele>
        <time>2020-01-02T13:32:32Z</time>
      </trkpt>
      <trkpt lat="44.99227" lon="5.2262">
        <ele>1299</ele>
        <time>2020-01-02T13:32:35Z</time>
      </trkpt>
      <trkpt lat="44.99224" lon="5.22617">
        <ele>1299</ele>
        <time>2020-01-02T13:32:39Z</time>
      </trkpt>
      <trkpt lat="44.99218" lon="5.22616">
        <ele>1299</ele>
        <time>2020-01-02T13:32:45Z</time>
      </trkpt>
      <trkpt lat="44.99214" lon="5.22614">
        <ele>1298</ele>
        <time>2020-01-02T13:32:52Z</time>
      </trkpt>
      <trkpt lat="44.9921" lon="5.22613">
        <ele>1298</ele>
        <time>2020-01-02T13:32:56Z</time>
      </trkpt>
      <trkpt lat="44.99201" lon="5.22615">
        <ele>1298</ele>
        <time>2020-01-02T13:33:03Z</time>
      </trkpt>
      <trkpt lat="44.99197" lon="5.22613">
        <ele>1297</ele>
        <time>2020-01-02T13:33:09Z</time>
      </trkpt>
      <trkpt lat="44.99196" lon="5.22608">
        <ele>1297</ele>
        <time>2020-01-02T13:33:13Z</time>
      </trkpt>
      <trkpt lat="44.99195" lon="5.22603">
        <ele>1297</ele>
        <time>2020-01-02T13:33:17Z</time>
      </trkpt>
      <trkpt lat="44.99196" lon="5.22596">
        <ele>1297</ele>
        <time>2020-01-02T13:33:21Z</time>
      </trkpt>
      <trkpt lat="44.99193" lon="5.22589">
        <ele>1296</ele>
        <time>2020-01-02T13:33:27Z</time>
      </trkpt>
      <trkpt lat="44.99187" lon="5.2258">
        <ele>1296</ele>
        <time>2020-01-02T13:33:36Z</time>
      </trkpt>
      <trkpt lat="44.99183" lon="5.22579">
        <ele>1296</ele>
        <time>2020-01-02T13:33:41Z</time>
      </trkpt>
      <trkpt lat="44.99179" lon="5.22579">
        <ele>1295</ele>
        <time>2020-01-02T13:33:55Z</time>
      </trkpt>
      <trkpt lat="44.99176" lon="5.22581">
        <ele>1295</ele>
        <time>2020-01-02T13:34:02Z</time>
      </trkpt>
      <trkpt lat="44.99166" lon="5.22589">
        <ele>1294</ele>
        <time>2020-01-02T13:34:09Z</time>
      </trkpt>
      <trkpt lat="44.99162" lon="5.22589">
        <ele>1293</ele>
        <time>2020-01-02T13:34:12Z</time>
      </trkpt>
      <trkpt lat="44.99158" lon="5.22591">
        <ele>1293</ele>
        <time>2020-01-02T13:34:16Z</time>
      </trkpt>
      <trkpt lat="44.99155" lon="5.22595">
        <ele>1293</ele>
        <time>2020-01-02T13:34:19Z</time>
      </trkpt>
      <trkpt lat="44.99152" lon="5.226">
        <ele>1293</ele>
        <time>2020-01-02T13:34:24Z</time>
      </trkpt>
      <trkpt lat="44.99149" lon="5.22604">
        <ele>1292</ele>
        <time>2020-01-02T13:34:28Z</time>
      </trkpt>
      <trkpt lat="44.99146" lon="5.22609">
        <ele>1292</ele>
        <time>2020-01-02T13:34:33Z</time>
      </trkpt>
      <trkpt lat="44.99142" lon="5.22608">
        <ele>1291</ele>
        <time>2020-01-02T13:34:41Z</time>
      </trkpt>
      <trkpt lat="44.99138" lon="5.22605">
        <ele>1291</ele>
        <time>2020-01-02T13:34:46Z</time>
      </trkpt>
      <trkpt lat="44.99135" lon="5.22603">
        <ele>1290</ele>
        <time>2020-01-02T13:34:59Z</time>
      </trkpt>
      <trkpt lat="44.99132" lon="5.22599">
        <ele>1289</ele>
        <time>2020-01-02T13:35:08Z</time>
      </trkpt>
      <trkpt lat="44.99124" lon="5.22603">
        <ele>1287</ele>
        <time>2020-01-02T13:35:25Z</time>
      </trkpt>
      <trkpt lat="44.99116" lon="5.22602">
        <ele>1287</ele>
        <time>2020-01-02T13:35:29Z</time>
      </trkpt>
      <trkpt lat="44.99112" lon="5.22602">
        <ele>1286</ele>
        <time>2020-01-02T13:35:31Z</time>
      </trkpt>
      <trkpt lat="44.99106" lon="5.22607">
        <ele>1285</ele>
        <time>2020-01-02T13:35:39Z</time>
      </trkpt>
      <trkpt lat="44.991" lon="5.22615">
        <ele>1283</ele>
        <time>2020-01-02T13:35:51Z</time>
      </trkpt>
      <trkpt lat="44.99094" lon="5.22626">
        <ele>1282</ele>
        <time>2020-01-02T13:35:58Z</time>
      </trkpt>
      <trkpt lat="44.9909" lon="5.22628">
        <ele>1282</ele>
        <time>2020-01-02T13:36:01Z</time>
      </trkpt>
      <trkpt lat="44.99087" lon="5.22632">
        <ele>1281</ele>
        <time>2020-01-02T13:36:05Z</time>
      </trkpt>
      <trkpt lat="44.99084" lon="5.22636">
        <ele>1280</ele>
        <time>2020-01-02T13:36:08Z</time>
      </trkpt>
      <trkpt lat="44.9908" lon="5.22638">
        <ele>1279</ele>
        <time>2020-01-02T13:36:13Z</time>
      </trkpt>
      <trkpt lat="44.99077" lon="5.22635">
        <ele>1279</ele>
        <time>2020-01-02T13:36:17Z</time>
      </trkpt>
      <trkpt lat="44.99073" lon="5.22632">
        <ele>1278</ele>
        <time>2020-01-02T13:36:20Z</time>
      </trkpt>
      <trkpt lat="44.99069" lon="5.22634">
        <ele>1277</ele>
        <time>2020-01-02T13:36:23Z</time>
      </trkpt>
      <trkpt lat="44.99066" lon="5.22633">
        <ele>1276</ele>
        <time>2020-01-02T13:36:26Z</time>
      </trkpt>
      <trkpt lat="44.99062" lon="5.22632">
        <ele>1276</ele>
        <time>2020-01-02T13:36:28Z</time>
      </trkpt>
      <trkpt lat="44.99059" lon="5.22628">
        <ele>1276</ele>
        <time>2020-01-02T13:36:30Z</time>
      </trkpt>
      <trkpt lat="44.99055" lon="5.22625">
        <ele>1275</ele>
        <time>2020-01-02T13:36:32Z</time>
      </trkpt>
      <trkpt lat="44.99051" lon="5.22626">
        <ele>1275</ele>
        <time>2020-01-02T13:36:34Z</time>
      </trkpt>
      <trkpt lat="44.99039" lon="5.22628">
        <ele>1273</ele>
        <time>2020-01-02T13:36:43Z</time>
      </trkpt>
      <trkpt lat="44.99035" lon="5.22626">
        <ele>1272</ele>
        <time>2020-01-02T13:36:47Z</time>
      </trkpt>
      <trkpt lat="44.99031" lon="5.22624">
        <ele>1272</ele>
        <time>2020-01-02T13:36:49Z</time>
      </trkpt>
      <trkpt lat="44.99027" lon="5.22623">
        <ele>1271</ele>
        <time>2020-01-02T13:36:52Z</time>
      </trkpt>
      <trkpt lat="44.99023" lon="5.22624">
        <ele>1271</ele>
        <time>2020-01-02T13:36:55Z</time>
      </trkpt>
      <trkpt lat="44.99021" lon="5.2262">
        <ele>1269</ele>
        <time>2020-01-02T13:37:00Z</time>
      </trkpt>
      <trkpt lat="44.99016" lon="5.22619">
        <ele>1269</ele>
        <time>2020-01-02T13:37:03Z</time>
      </trkpt>
      <trkpt lat="44.99014" lon="5.22615">
        <ele>1267</ele>
        <time>2020-01-02T13:37:18Z</time>
      </trkpt>
      <trkpt lat="44.99011" lon="5.22611">
        <ele>1266</ele>
        <time>2020-01-02T13:37:26Z</time>
      </trkpt>
      <trkpt lat="44.99007" lon="5.22613">
        <ele>1264</ele>
        <time>2020-01-02T13:37:33Z</time>
      </trkpt>
      <trkpt lat="44.99002" lon="5.22614">
        <ele>1262</ele>
        <time>2020-01-02T13:37:37Z</time>
      </trkpt>
      <trkpt lat="44.98999" lon="5.22617">
        <ele>1261</ele>
        <time>2020-01-02T13:37:41Z</time>
      </trkpt>
      <trkpt lat="44.98995" lon="5.22616">
        <ele>1260</ele>
        <time>2020-01-02T13:37:45Z</time>
      </trkpt>
      <trkpt lat="44.98991" lon="5.22618">
        <ele>1260</ele>
        <time>2020-01-02T13:37:49Z</time>
      </trkpt>
      <trkpt lat="44.98987" lon="5.22618">
        <ele>1258</ele>
        <time>2020-01-02T13:37:55Z</time>
      </trkpt>
      <trkpt lat="44.98982" lon="5.22619">
        <ele>1258</ele>
        <time>2020-01-02T13:37:58Z</time>
      </trkpt>
      <trkpt lat="44.98979" lon="5.22615">
        <ele>1257</ele>
        <time>2020-01-02T13:38:02Z</time>
      </trkpt>
      <trkpt lat="44.98975" lon="5.22611">
        <ele>1256</ele>
        <time>2020-01-02T13:38:07Z</time>
      </trkpt>
      <trkpt lat="44.98973" lon="5.22603">
        <ele>1255</ele>
        <time>2020-01-02T13:38:12Z</time>
      </trkpt>
      <trkpt lat="44.98971" lon="5.22598">
        <ele>1254</ele>
        <time>2020-01-02T13:38:16Z</time>
      </trkpt>
      <trkpt lat="44.98973" lon="5.22587">
        <ele>1252</ele>
        <time>2020-01-02T13:38:27Z</time>
      </trkpt>
      <trkpt lat="44.98965" lon="5.2259">
        <ele>1250</ele>
        <time>2020-01-02T13:38:39Z</time>
      </trkpt>
      <trkpt lat="44.9896" lon="5.22592">
        <ele>1249</ele>
        <time>2020-01-02T13:38:45Z</time>
      </trkpt>
      <trkpt lat="44.98956" lon="5.22591">
        <ele>1248</ele>
        <time>2020-01-02T13:38:50Z</time>
      </trkpt>
      <trkpt lat="44.98942" lon="5.22577">
        <ele>1246</ele>
        <time>2020-01-02T13:39:07Z</time>
      </trkpt>
      <trkpt lat="44.98941" lon="5.2257">
        <ele>1245</ele>
        <time>2020-01-02T13:39:11Z</time>
      </trkpt>
      <trkpt lat="44.98942" lon="5.22565">
        <ele>1245</ele>
        <time>2020-01-02T13:39:14Z</time>
      </trkpt>
      <trkpt lat="44.98941" lon="5.22558">
        <ele>1245</ele>
        <time>2020-01-02T13:39:17Z</time>
      </trkpt>
      <trkpt lat="44.98939" lon="5.22547">
        <ele>1244</ele>
        <time>2020-01-02T13:39:22Z</time>
      </trkpt>
      <trkpt lat="44.98938" lon="5.22539">
        <ele>1244</ele>
        <time>2020-01-02T13:39:25Z</time>
      </trkpt>
      <trkpt lat="44.98933" lon="5.22532">
        <ele>1243</ele>
        <time>2020-01-02T13:39:31Z</time>
      </trkpt>
      <trkpt lat="44.9893" lon="5.22527">
        <ele>1243</ele>
        <time>2020-01-02T13:39:34Z</time>
      </trkpt>
      <trkpt lat="44.98929" lon="5.22523">
        <ele>1243</ele>
        <time>2020-01-02T13:39:38Z</time>
      </trkpt>
      <trkpt lat="44.98925" lon="5.22522">
        <ele>1242</ele>
        <time>2020-01-02T13:39:43Z</time>
      </trkpt>
      <trkpt lat="44.98913" lon="5.2252">
        <ele>1242</ele>
        <time>2020-01-02T13:39:53Z</time>
      </trkpt>
      <trkpt lat="44.98905" lon="5.22516">
        <ele>1241</ele>
        <time>2020-01-02T13:40:02Z</time>
      </trkpt>
      <trkpt lat="44.98902" lon="5.22516">
        <ele>1241</ele>
        <time>2020-01-02T13:40:05Z</time>
      </trkpt>
      <trkpt lat="44.98899" lon="5.22519">
        <ele>1241</ele>
        <time>2020-01-02T13:40:10Z</time>
      </trkpt>
      <trkpt lat="44.98896" lon="5.22521">
        <ele>1240</ele>
        <time>2020-01-02T13:40:16Z</time>
      </trkpt>
      <trkpt lat="44.98892" lon="5.22522">
        <ele>1240</ele>
        <time>2020-01-02T13:40:20Z</time>
      </trkpt>
      <trkpt lat="44.98887" lon="5.22521">
        <ele>1240</ele>
        <time>2020-01-02T13:40:24Z</time>
      </trkpt>
      <trkpt lat="44.98884" lon="5.22518">
        <ele>1240</ele>
        <time>2020-01-02T13:40:26Z</time>
      </trkpt>
      <trkpt lat="44.9888" lon="5.22516">
        <ele>1240</ele>
        <time>2020-01-02T13:40:30Z</time>
      </trkpt>
      <trkpt lat="44.98872" lon="5.22508">
        <ele>1240</ele>
        <time>2020-01-02T13:40:37Z</time>
      </trkpt>
      <trkpt lat="44.98861" lon="5.22501">
        <ele>1240</ele>
        <time>2020-01-02T13:40:46Z</time>
      </trkpt>
      <trkpt lat="44.98858" lon="5.22498">
        <ele>1240</ele>
        <time>2020-01-02T13:40:49Z</time>
      </trkpt>
      <trkpt lat="44.98842" lon="5.22491">
        <ele>1240</ele>
        <time>2020-01-02T13:41:01Z</time>
      </trkpt>
      <trkpt lat="44.98838" lon="5.22494">
        <ele>1240</ele>
        <time>2020-01-02T13:41:07Z</time>
      </trkpt>
      <trkpt lat="44.98835" lon="5.22498">
        <ele>1240</ele>
        <time>2020-01-02T13:41:15Z</time>
      </trkpt>
      <trkpt lat="44.98828" lon="5.22507">
        <ele>1240</ele>
        <time>2020-01-02T13:41:20Z</time>
      </trkpt>
      <trkpt lat="44.98825" lon="5.22509">
        <ele>1240</ele>
        <time>2020-01-02T13:41:23Z</time>
      </trkpt>
      <trkpt lat="44.98822" lon="5.22514">
        <ele>1240</ele>
        <time>2020-01-02T13:41:28Z</time>
      </trkpt>
      <trkpt lat="44.98811" lon="5.22523">
        <ele>1240</ele>
        <time>2020-01-02T13:41:36Z</time>
      </trkpt>
      <trkpt lat="44.98807" lon="5.22526">
        <ele>1240</ele>
        <time>2020-01-02T13:41:39Z</time>
      </trkpt>
      <trkpt lat="44.98804" lon="5.22528">
        <ele>1240</ele>
        <time>2020-01-02T13:41:41Z</time>
      </trkpt>
      <trkpt lat="44.98801" lon="5.22531">
        <ele>1239</ele>
        <time>2020-01-02T13:41:43Z</time>
      </trkpt>
      <trkpt lat="44.98799" lon="5.22533">
        <ele>1239</ele>
        <time>2020-01-02T13:41:45Z</time>
      </trkpt>
      <trkpt lat="44.98797" lon="5.22535">
        <ele>1239</ele>
        <time>2020-01-02T13:41:48Z</time>
      </trkpt>
      <trkpt lat="44.98793" lon="5.22532">
        <ele>1239</ele>
        <time>2020-01-02T13:41:51Z</time>
      </trkpt>
      <trkpt lat="44.9879" lon="5.22529">
        <ele>1239</ele>
        <time>2020-01-02T13:41:54Z</time>
      </trkpt>
      <trkpt lat="44.98779" lon="5.22522">
        <ele>1239</ele>
        <time>2020-01-02T13:42:01Z</time>
      </trkpt>
      <trkpt lat="44.98775" lon="5.22522">
        <ele>1240</ele>
        <time>2020-01-02T13:42:03Z</time>
      </trkpt>
      <trkpt lat="44.98773" lon="5.22524">
        <ele>1240</ele>
        <time>2020-01-02T13:42:05Z</time>
      </trkpt>
      <trkpt lat="44.9877" lon="5.22525">
        <ele>1240</ele>
        <time>2020-01-02T13:42:07Z</time>
      </trkpt>
      <trkpt lat="44.98765" lon="5.22526">
        <ele>1240</ele>
        <time>2020-01-02T13:42:09Z</time>
      </trkpt>
      <trkpt lat="44.98757" lon="5.22524">
        <ele>1240</ele>
        <time>2020-01-02T13:42:13Z</time>
      </trkpt>
      <trkpt lat="44.98739" lon="5.22508">
        <ele>1240</ele>
        <time>2020-01-02T13:42:25Z</time>
      </trkpt>
      <trkpt lat="44.98734" lon="5.22507">
        <ele>1240</ele>
        <time>2020-01-02T13:42:28Z</time>
      </trkpt>
      <trkpt lat="44.98733" lon="5.22501">
        <ele>1241</ele>
        <time>2020-01-02T13:42:34Z</time>
      </trkpt>
      <trkpt lat="44.9873" lon="5.2249">
        <ele>1241</ele>
        <time>2020-01-02T13:42:43Z</time>
      </trkpt>
      <trkpt lat="44.98729" lon="5.22474">
        <ele>1241</ele>
        <time>2020-01-02T13:42:51Z</time>
      </trkpt>
      <trkpt lat="44.98729" lon="5.22465">
        <ele>1241</ele>
        <time>2020-01-02T13:42:56Z</time>
      </trkpt>
      <trkpt lat="44.98731" lon="5.2244">
        <ele>1242</ele>
        <time>2020-01-02T13:43:07Z</time>
      </trkpt>
      <trkpt lat="44.98734" lon="5.22435">
        <ele>1242</ele>
        <time>2020-01-02T13:43:11Z</time>
      </trkpt>
      <trkpt lat="44.98735" lon="5.22429">
        <ele>1242</ele>
        <time>2020-01-02T13:43:15Z</time>
      </trkpt>
      <trkpt lat="44.98736" lon="5.22423">
        <ele>1242</ele>
        <time>2020-01-02T13:43:18Z</time>
      </trkpt>
      <trkpt lat="44.98735" lon="5.22413">
        <ele>1242</ele>
        <time>2020-01-02T13:43:23Z</time>
      </trkpt>
      <trkpt lat="44.98732" lon="5.22408">
        <ele>1242</ele>
        <time>2020-01-02T13:43:25Z</time>
      </trkpt>
      <trkpt lat="44.98729" lon="5.22406">
        <ele>1242</ele>
        <time>2020-01-02T13:43:28Z</time>
      </trkpt>
      <trkpt lat="44.98723" lon="5.22404">
        <ele>1242</ele>
        <time>2020-01-02T13:43:31Z</time>
      </trkpt>
      <trkpt lat="44.98718" lon="5.22403">
        <ele>1242</ele>
        <time>2020-01-02T13:43:34Z</time>
      </trkpt>
      <trkpt lat="44.98714" lon="5.22403">
        <ele>1242</ele>
        <time>2020-01-02T13:43:36Z</time>
      </trkpt>
      <trkpt lat="44.98709" lon="5.22405">
        <ele>1242</ele>
        <time>2020-01-02T13:43:39Z</time>
      </trkpt>
      <trkpt lat="44.98683" lon="5.2242">
        <ele>1242</ele>
        <time>2020-01-02T13:43:58Z</time>
      </trkpt>
      <trkpt lat="44.98671" lon="5.22427">
        <ele>1242</ele>
        <time>2020-01-02T13:44:06Z</time>
      </trkpt>
      <trkpt lat="44.98667" lon="5.22429">
        <ele>1242</ele>
        <time>2020-01-02T13:44:09Z</time>
      </trkpt>
      <trkpt lat="44.98662" lon="5.22429">
        <ele>1242</ele>
        <time>2020-01-02T13:44:12Z</time>
      </trkpt>
      <trkpt lat="44.98658" lon="5.22431">
        <ele>1242</ele>
        <time>2020-01-02T13:44:15Z</time>
      </trkpt>
      <trkpt lat="44.98651" lon="5.22428">
        <ele>1242</ele>
        <time>2020-01-02T13:44:21Z</time>
      </trkpt>
      <trkpt lat="44.98644" lon="5.22426">
        <ele>1242</ele>
        <time>2020-01-02T13:44:25Z</time>
      </trkpt>
      <trkpt lat="44.98639" lon="5.22424">
        <ele>1242</ele>
        <time>2020-01-02T13:44:27Z</time>
      </trkpt>
      <trkpt lat="44.98634" lon="5.22426">
        <ele>1242</ele>
        <time>2020-01-02T13:44:29Z</time>
      </trkpt>
      <trkpt lat="44.9863" lon="5.22425">
        <ele>1242</ele>
        <time>2020-01-02T13:44:30Z</time>
      </trkpt>
      <trkpt lat="44.98625" lon="5.22425">
        <ele>1242</ele>
        <time>2020-01-02T13:44:32Z</time>
      </trkpt>
      <trkpt lat="44.98622" lon="5.22425">
        <ele>1242</ele>
        <time>2020-01-02T13:44:34Z</time>
      </trkpt>
      <trkpt lat="44.98618" lon="5.22423">
        <ele>1242</ele>
        <time>2020-01-02T13:44:36Z</time>
      </trkpt>
      <trkpt lat="44.98615" lon="5.22421">
        <ele>1242</ele>
        <time>2020-01-02T13:44:38Z</time>
      </trkpt>
      <trkpt lat="44.98613" lon="5.22418">
        <ele>1242</ele>
        <time>2020-01-02T13:44:40Z</time>
      </trkpt>
      <trkpt lat="44.9861" lon="5.22417">
        <ele>1242</ele>
        <time>2020-01-02T13:44:42Z</time>
      </trkpt>
      <trkpt lat="44.98606" lon="5.22416">
        <ele>1242</ele>
        <time>2020-01-02T13:44:45Z</time>
      </trkpt>
      <trkpt lat="44.98603" lon="5.22417">
        <ele>1242</ele>
        <time>2020-01-02T13:44:47Z</time>
      </trkpt>
      <trkpt lat="44.986" lon="5.22419">
        <ele>1242</ele>
        <time>2020-01-02T13:44:50Z</time>
      </trkpt>
      <trkpt lat="44.98597" lon="5.22423">
        <ele>1242</ele>
        <time>2020-01-02T13:44:52Z</time>
      </trkpt>
      <trkpt lat="44.98591" lon="5.22434">
        <ele>1242</ele>
        <time>2020-01-02T13:44:57Z</time>
      </trkpt>
      <trkpt lat="44.98588" lon="5.2244">
        <ele>1242</ele>
        <time>2020-01-02T13:45:00Z</time>
      </trkpt>
      <trkpt lat="44.98578" lon="5.2245">
        <ele>1243</ele>
        <time>2020-01-02T13:45:08Z</time>
      </trkpt>
      <trkpt lat="44.98571" lon="5.22455">
        <ele>1243</ele>
        <time>2020-01-02T13:45:11Z</time>
      </trkpt>
      <trkpt lat="44.98566" lon="5.22453">
        <ele>1243</ele>
        <time>2020-01-02T13:45:14Z</time>
      </trkpt>
      <trkpt lat="44.98563" lon="5.22452">
        <ele>1243</ele>
        <time>2020-01-02T13:45:15Z</time>
      </trkpt>
      <trkpt lat="44.98559" lon="5.22451">
        <ele>1243</ele>
        <time>2020-01-02T13:45:19Z</time>
      </trkpt>
      <trkpt lat="44.98553" lon="5.2245">
        <ele>1243</ele>
        <time>2020-01-02T13:45:23Z</time>
      </trkpt>
      <trkpt lat="44.9855" lon="5.22444">
        <ele>1243</ele>
        <time>2020-01-02T13:45:25Z</time>
      </trkpt>
      <trkpt lat="44.98547" lon="5.2244">
        <ele>1243</ele>
        <time>2020-01-02T13:45:27Z</time>
      </trkpt>
      <trkpt lat="44.98544" lon="5.22436">
        <ele>1243</ele>
        <time>2020-01-02T13:45:29Z</time>
      </trkpt>
      <trkpt lat="44.98542" lon="5.2243">
        <ele>1243</ele>
        <time>2020-01-02T13:45:32Z</time>
      </trkpt>
      <trkpt lat="44.9854" lon="5.22417">
        <ele>1243</ele>
        <time>2020-01-02T13:45:37Z</time>
      </trkpt>
      <trkpt lat="44.98538" lon="5.22413">
        <ele>1243</ele>
        <time>2020-01-02T13:45:39Z</time>
      </trkpt>
      <trkpt lat="44.98527" lon="5.22394">
        <ele>1244</ele>
        <time>2020-01-02T13:45:51Z</time>
      </trkpt>
      <trkpt lat="44.98525" lon="5.22387">
        <ele>1244</ele>
        <time>2020-01-02T13:45:56Z</time>
      </trkpt>
      <trkpt lat="44.98526" lon="5.22382">
        <ele>1244</ele>
        <time>2020-01-02T13:45:59Z</time>
      </trkpt>
      <trkpt lat="44.98527" lon="5.22376">
        <ele>1244</ele>
        <time>2020-01-02T13:46:04Z</time>
      </trkpt>
      <trkpt lat="44.9853" lon="5.22362">
        <ele>1244</ele>
        <time>2020-01-02T13:46:10Z</time>
      </trkpt>
      <trkpt lat="44.98528" lon="5.22359">
        <ele>1244</ele>
        <time>2020-01-02T13:46:22Z</time>
      </trkpt>
      <trkpt lat="44.98518" lon="5.22354">
        <ele>1243</ele>
        <time>2020-01-02T13:46:37Z</time>
      </trkpt>
      <trkpt lat="44.98504" lon="5.22346">
        <ele>1243</ele>
        <time>2020-01-02T13:46:53Z</time>
      </trkpt>
      <trkpt lat="44.985" lon="5.22347">
        <ele>1243</ele>
        <time>2020-01-02T13:47:05Z</time>
      </trkpt>
      <trkpt lat="44.98499" lon="5.22342">
        <ele>1243</ele>
        <time>2020-01-02T13:47:09Z</time>
      </trkpt>
      <trkpt lat="44.98493" lon="5.22332">
        <ele>1243</ele>
        <time>2020-01-02T13:47:19Z</time>
      </trkpt>
      <trkpt lat="44.9849" lon="5.22331">
        <ele>1243</ele>
        <time>2020-01-02T13:47:23Z</time>
      </trkpt>
      <trkpt lat="44.98487" lon="5.22327">
        <ele>1243</ele>
        <time>2020-01-02T13:47:27Z</time>
      </trkpt>
      <trkpt lat="44.98482" lon="5.22327">
        <ele>1243</ele>
        <time>2020-01-02T13:47:32Z</time>
      </trkpt>
      <trkpt lat="44.98479" lon="5.22325">
        <ele>1243</ele>
        <time>2020-01-02T13:47:44Z</time>
      </trkpt>
      <trkpt lat="44.98476" lon="5.22322">
        <ele>1243</ele>
        <time>2020-01-02T13:47:49Z</time>
      </trkpt>
      <trkpt lat="44.98472" lon="5.22319">
        <ele>1242</ele>
        <time>2020-01-02T13:47:55Z</time>
      </trkpt>
      <trkpt lat="44.98466" lon="5.22318">
        <ele>1242</ele>
        <time>2020-01-02T13:47:58Z</time>
      </trkpt>
      <trkpt lat="44.98462" lon="5.22318">
        <ele>1242</ele>
        <time>2020-01-02T13:48:01Z</time>
      </trkpt>
      <trkpt lat="44.98458" lon="5.22317">
        <ele>1242</ele>
        <time>2020-01-02T13:48:05Z</time>
      </trkpt>
      <trkpt lat="44.98448" lon="5.2232">
        <ele>1242</ele>
        <time>2020-01-02T13:48:12Z</time>
      </trkpt>
      <trkpt lat="44.98445" lon="5.22319">
        <ele>1242</ele>
        <time>2020-01-02T13:48:16Z</time>
      </trkpt>
      <trkpt lat="44.98437" lon="5.22311">
        <ele>1242</ele>
        <time>2020-01-02T13:48:22Z</time>
      </trkpt>
      <trkpt lat="44.98434" lon="5.22306">
        <ele>1242</ele>
        <time>2020-01-02T13:48:28Z</time>
      </trkpt>
      <trkpt lat="44.98432" lon="5.22301">
        <ele>1242</ele>
        <time>2020-01-02T13:48:31Z</time>
      </trkpt>
      <trkpt lat="44.98428" lon="5.22298">
        <ele>1242</ele>
        <time>2020-01-02T13:48:37Z</time>
      </trkpt>
      <trkpt lat="44.98424" lon="5.22297">
        <ele>1242</ele>
        <time>2020-01-02T13:48:41Z</time>
      </trkpt>
      <trkpt lat="44.98421" lon="5.22296">
        <ele>1241</ele>
        <time>2020-01-02T13:48:46Z</time>
      </trkpt>
      <trkpt lat="44.98414" lon="5.22288">
        <ele>1241</ele>
        <time>2020-01-02T13:48:54Z</time>
      </trkpt>
      <trkpt lat="44.98409" lon="5.22284">
        <ele>1241</ele>
        <time>2020-01-02T13:49:00Z</time>
      </trkpt>
      <trkpt lat="44.98404" lon="5.22282">
        <ele>1241</ele>
        <time>2020-01-02T13:49:05Z</time>
      </trkpt>
      <trkpt lat="44.98398" lon="5.2227">
        <ele>1241</ele>
        <time>2020-01-02T13:49:11Z</time>
      </trkpt>
      <trkpt lat="44.98395" lon="5.22266">
        <ele>1241</ele>
        <time>2020-01-02T13:49:14Z</time>
      </trkpt>
      <trkpt lat="44.98393" lon="5.22254">
        <ele>1241</ele>
        <time>2020-01-02T13:49:21Z</time>
      </trkpt>
      <trkpt lat="44.98392" lon="5.22249">
        <ele>1241</ele>
        <time>2020-01-02T13:49:25Z</time>
      </trkpt>
      <trkpt lat="44.98392" lon="5.22244">
        <ele>1241</ele>
        <time>2020-01-02T13:49:27Z</time>
      </trkpt>
      <trkpt lat="44.98391" lon="5.22238">
        <ele>1241</ele>
        <time>2020-01-02T13:49:30Z</time>
      </trkpt>
      <trkpt lat="44.98389" lon="5.22234">
        <ele>1241</ele>
        <time>2020-01-02T13:49:34Z</time>
      </trkpt>
      <trkpt lat="44.98386" lon="5.22231">
        <ele>1241</ele>
        <time>2020-01-02T13:49:39Z</time>
      </trkpt>
      <trkpt lat="44.98384" lon="5.22225">
        <ele>1241</ele>
        <time>2020-01-02T13:49:44Z</time>
      </trkpt>
      <trkpt lat="44.98381" lon="5.2222">
        <ele>1240</ele>
        <time>2020-01-02T13:49:48Z</time>
      </trkpt>
      <trkpt lat="44.98382" lon="5.22214">
        <ele>1240</ele>
        <time>2020-01-02T13:49:52Z</time>
      </trkpt>
      <trkpt lat="44.98381" lon="5.2221">
        <ele>1240</ele>
        <time>2020-01-02T13:50:02Z</time>
      </trkpt>
      <trkpt lat="44.98377" lon="5.22211">
        <ele>1240</ele>
        <time>2020-01-02T13:50:08Z</time>
      </trkpt>
      <trkpt lat="44.98372" lon="5.2221">
        <ele>1239</ele>
        <time>2020-01-02T13:50:13Z</time>
      </trkpt>
      <trkpt lat="44.98369" lon="5.22211">
        <ele>1239</ele>
        <time>2020-01-02T13:50:16Z</time>
      </trkpt>
      <trkpt lat="44.98366" lon="5.22214">
        <ele>1239</ele>
        <time>2020-01-02T13:50:20Z</time>
      </trkpt>
      <trkpt lat="44.98359" lon="5.22211">
        <ele>1239</ele>
        <time>2020-01-02T13:50:32Z</time>
      </trkpt>
      <trkpt lat="44.98351" lon="5.22208">
        <ele>1238</ele>
        <time>2020-01-02T13:50:40Z</time>
      </trkpt>
      <trkpt lat="44.98348" lon="5.22207">
        <ele>1238</ele>
        <time>2020-01-02T13:50:44Z</time>
      </trkpt>
      <trkpt lat="44.98344" lon="5.22205">
        <ele>1238</ele>
        <time>2020-01-02T13:50:49Z</time>
      </trkpt>
      <trkpt lat="44.9834" lon="5.22204">
        <ele>1238</ele>
        <time>2020-01-02T13:50:57Z</time>
      </trkpt>
      <trkpt lat="44.98337" lon="5.22206">
        <ele>1237</ele>
        <time>2020-01-02T13:51:03Z</time>
      </trkpt>
      <trkpt lat="44.98333" lon="5.22204">
        <ele>1237</ele>
        <time>2020-01-02T13:51:09Z</time>
      </trkpt>
      <trkpt lat="44.98328" lon="5.22202">
        <ele>1237</ele>
        <time>2020-01-02T13:51:14Z</time>
      </trkpt>
      <trkpt lat="44.98325" lon="5.22204">
        <ele>1237</ele>
        <time>2020-01-02T13:51:24Z</time>
      </trkpt>
      <trkpt lat="44.98322" lon="5.22202">
        <ele>1236</ele>
        <time>2020-01-02T13:51:38Z</time>
      </trkpt>
      <trkpt lat="44.98319" lon="5.22198">
        <ele>1236</ele>
        <time>2020-01-02T13:51:44Z</time>
      </trkpt>
      <trkpt lat="44.98315" lon="5.22198">
        <ele>1235</ele>
        <time>2020-01-02T13:51:50Z</time>
      </trkpt>
      <trkpt lat="44.98307" lon="5.222">
        <ele>1235</ele>
        <time>2020-01-02T13:52:01Z</time>
      </trkpt>
      <trkpt lat="44.98303" lon="5.22201">
        <ele>1234</ele>
        <time>2020-01-02T13:52:06Z</time>
      </trkpt>
      <trkpt lat="44.98299" lon="5.22198">
        <ele>1234</ele>
        <time>2020-01-02T13:52:10Z</time>
      </trkpt>
      <trkpt lat="44.98296" lon="5.22195">
        <ele>1233</ele>
        <time>2020-01-02T13:52:21Z</time>
      </trkpt>
      <trkpt lat="44.98293" lon="5.22193">
        <ele>1232</ele>
        <time>2020-01-02T13:52:40Z</time>
      </trkpt>
      <trkpt lat="44.98294" lon="5.22188">
        <ele>1231</ele>
        <time>2020-01-02T13:52:47Z</time>
      </trkpt>
      <trkpt lat="44.98292" lon="5.22184">
        <ele>1229</ele>
        <time>2020-01-02T13:52:51Z</time>
      </trkpt>
      <trkpt lat="44.98288" lon="5.22182">
        <ele>1228</ele>
        <time>2020-01-02T13:52:56Z</time>
      </trkpt>
      <trkpt lat="44.98283" lon="5.22182">
        <ele>1227</ele>
        <time>2020-01-02T13:52:59Z</time>
      </trkpt>
      <trkpt lat="44.98279" lon="5.22181">
        <ele>1226</ele>
        <time>2020-01-02T13:53:01Z</time>
      </trkpt>
      <trkpt lat="44.98279" lon="5.22175">
        <ele>1225</ele>
        <time>2020-01-02T13:53:04Z</time>
      </trkpt>
      <trkpt lat="44.98275" lon="5.22171">
        <ele>1224</ele>
        <time>2020-01-02T13:53:09Z</time>
      </trkpt>
      <trkpt lat="44.98271" lon="5.22168">
        <ele>1223</ele>
        <time>2020-01-02T13:53:14Z</time>
      </trkpt>
      <trkpt lat="44.98271" lon="5.22163">
        <ele>1222</ele>
        <time>2020-01-02T13:53:17Z</time>
      </trkpt>
      <trkpt lat="44.9827" lon="5.22157">
        <ele>1220</ele>
        <time>2020-01-02T13:53:21Z</time>
      </trkpt>
      <trkpt lat="44.98262" lon="5.22143">
        <ele>1217</ele>
        <time>2020-01-02T13:53:32Z</time>
      </trkpt>
      <trkpt lat="44.98261" lon="5.22138">
        <ele>1215</ele>
        <time>2020-01-02T13:53:35Z</time>
      </trkpt>
      <trkpt lat="44.98258" lon="5.22134">
        <ele>1214</ele>
        <time>2020-01-02T13:53:38Z</time>
      </trkpt>
      <trkpt lat="44.98256" lon="5.22129">
        <ele>1213</ele>
        <time>2020-01-02T13:53:43Z</time>
      </trkpt>
      <trkpt lat="44.98255" lon="5.22123">
        <ele>1211</ele>
        <time>2020-01-02T13:53:48Z</time>
      </trkpt>
      <trkpt lat="44.98255" lon="5.22118">
        <ele>1209</ele>
        <time>2020-01-02T13:53:54Z</time>
      </trkpt>
      <trkpt lat="44.98253" lon="5.22114">
        <ele>1208</ele>
        <time>2020-01-02T13:54:03Z</time>
      </trkpt>
      <trkpt lat="44.98232" lon="5.22101">
        <ele>1200</ele>
        <time>2020-01-02T13:54:34Z</time>
      </trkpt>
      <trkpt lat="44.98228" lon="5.22099">
        <ele>1199</ele>
        <time>2020-01-02T13:54:37Z</time>
      </trkpt>
      <trkpt lat="44.98226" lon="5.22095">
        <ele>1198</ele>
        <time>2020-01-02T13:54:45Z</time>
      </trkpt>
      <trkpt lat="44.98222" lon="5.22093">
        <ele>1197</ele>
        <time>2020-01-02T13:54:49Z</time>
      </trkpt>
      <trkpt lat="44.9822" lon="5.2209">
        <ele>1195</ele>
        <time>2020-01-02T13:54:55Z</time>
      </trkpt>
      <trkpt lat="44.98218" lon="5.22088">
        <ele>1195</ele>
        <time>2020-01-02T13:54:59Z</time>
      </trkpt>
      <trkpt lat="44.9821" lon="5.22082">
        <ele>1193</ele>
        <time>2020-01-02T13:55:07Z</time>
      </trkpt>
      <trkpt lat="44.98207" lon="5.22081">
        <ele>1193</ele>
        <time>2020-01-02T13:55:10Z</time>
      </trkpt>
      <trkpt lat="44.98203" lon="5.22081">
        <ele>1193</ele>
        <time>2020-01-02T13:55:14Z</time>
      </trkpt>
      <trkpt lat="44.98201" lon="5.22079">
        <ele>1192</ele>
        <time>2020-01-02T13:55:17Z</time>
      </trkpt>
      <trkpt lat="44.98198" lon="5.22077">
        <ele>1192</ele>
        <time>2020-01-02T13:55:20Z</time>
      </trkpt>
      <trkpt lat="44.98194" lon="5.22075">
        <ele>1191</ele>
        <time>2020-01-02T13:55:22Z</time>
      </trkpt>
      <trkpt lat="44.98191" lon="5.22073">
        <ele>1191</ele>
        <time>2020-01-02T13:55:26Z</time>
      </trkpt>
      <trkpt lat="44.98189" lon="5.22071">
        <ele>1191</ele>
        <time>2020-01-02T13:55:29Z</time>
      </trkpt>
      <trkpt lat="44.98187" lon="5.22065">
        <ele>1190</ele>
        <time>2020-01-02T13:55:33Z</time>
      </trkpt>
      <trkpt lat="44.98178" lon="5.22055">
        <ele>1189</ele>
        <time>2020-01-02T13:55:45Z</time>
      </trkpt>
      <trkpt lat="44.98175" lon="5.22052">
        <ele>1188</ele>
        <time>2020-01-02T13:55:52Z</time>
      </trkpt>
      <trkpt lat="44.98172" lon="5.22049">
        <ele>1188</ele>
        <time>2020-01-02T13:55:56Z</time>
      </trkpt>
      <trkpt lat="44.9817" lon="5.22045">
        <ele>1188</ele>
        <time>2020-01-02T13:56:00Z</time>
      </trkpt>
      <trkpt lat="44.98166" lon="5.22043">
        <ele>1187</ele>
        <time>2020-01-02T13:56:03Z</time>
      </trkpt>
      <trkpt lat="44.98163" lon="5.22038">
        <ele>1187</ele>
        <time>2020-01-02T13:56:08Z</time>
      </trkpt>
      <trkpt lat="44.9816" lon="5.22036">
        <ele>1187</ele>
        <time>2020-01-02T13:56:12Z</time>
      </trkpt>
      <trkpt lat="44.98157" lon="5.22032">
        <ele>1186</ele>
        <time>2020-01-02T13:56:22Z</time>
      </trkpt>
      <trkpt lat="44.98155" lon="5.22028">
        <ele>1186</ele>
        <time>2020-01-02T13:56:27Z</time>
      </trkpt>
      <trkpt lat="44.98153" lon="5.22023">
        <ele>1186</ele>
        <time>2020-01-02T13:56:33Z</time>
      </trkpt>
      <trkpt lat="44.98152" lon="5.22012">
        <ele>1185</ele>
        <time>2020-01-02T13:57:08Z</time>
      </trkpt>
      <trkpt lat="44.98151" lon="5.22008">
        <ele>1185</ele>
        <time>2020-01-02T13:57:13Z</time>
      </trkpt>
      <trkpt lat="44.98151" lon="5.22002">
        <ele>1184</ele>
        <time>2020-01-02T13:57:22Z</time>
      </trkpt>
      <trkpt lat="44.98148" lon="5.21999">
        <ele>1184</ele>
        <time>2020-01-02T13:57:27Z</time>
      </trkpt>
      <trkpt lat="44.98151" lon="5.21992">
        <ele>1184</ele>
        <time>2020-01-02T13:57:57Z</time>
      </trkpt>
      <trkpt lat="44.98153" lon="5.21986">
        <ele>1183</ele>
        <time>2020-01-02T13:58:06Z</time>
      </trkpt>
      <trkpt lat="44.98149" lon="5.21984">
        <ele>1183</ele>
        <time>2020-01-02T13:58:12Z</time>
      </trkpt>
      <trkpt lat="44.98151" lon="5.21976">
        <ele>1183</ele>
        <time>2020-01-02T13:58:30Z</time>
      </trkpt>
      <trkpt lat="44.98153" lon="5.2196">
        <ele>1182</ele>
        <time>2020-01-02T13:58:56Z</time>
      </trkpt>
      <trkpt lat="44.98155" lon="5.21954">
        <ele>1181</ele>
        <time>2020-01-02T13:59:43Z</time>
      </trkpt>
      <trkpt lat="44.98153" lon="5.21947">
        <ele>1180</ele>
        <time>2020-01-02T14:00:11Z</time>
      </trkpt>
      <trkpt lat="44.98153" lon="5.21939">
        <ele>1179</ele>
        <time>2020-01-02T14:00:24Z</time>
      </trkpt>
      <trkpt lat="44.98154" lon="5.21931">
        <ele>1178</ele>
        <time>2020-01-02T14:00:41Z</time>
      </trkpt>
      <trkpt lat="44.98154" lon="5.21922">
        <ele>1177</ele>
        <time>2020-01-02T14:00:52Z</time>
      </trkpt>
      <trkpt lat="44.98157" lon="5.21914">
        <ele>1177</ele>
        <time>2020-01-02T14:01:00Z</time>
      </trkpt>
      <trkpt lat="44.98158" lon="5.21905">
        <ele>1177</ele>
        <time>2020-01-02T14:01:04Z</time>
      </trkpt>
      <trkpt lat="44.98156" lon="5.21898">
        <ele>1177</ele>
        <time>2020-01-02T14:01:09Z</time>
      </trkpt>
      <trkpt lat="44.98154" lon="5.2189">
        <ele>1176</ele>
        <time>2020-01-02T14:01:17Z</time>
      </trkpt>
      <trkpt lat="44.98153" lon="5.21879">
        <ele>1176</ele>
        <time>2020-01-02T14:01:24Z</time>
      </trkpt>
      <trkpt lat="44.98151" lon="5.21872">
        <ele>1176</ele>
        <time>2020-01-02T14:01:30Z</time>
      </trkpt>
      <trkpt lat="44.98151" lon="5.21863">
        <ele>1176</ele>
        <time>2020-01-02T14:01:41Z</time>
      </trkpt>
      <trkpt lat="44.98145" lon="5.21864">
        <ele>1175</ele>
        <time>2020-01-02T14:01:56Z</time>
      </trkpt>
      <trkpt lat="44.98142" lon="5.21857">
        <ele>1174</ele>
        <time>2020-01-02T14:02:14Z</time>
      </trkpt>
      <trkpt lat="44.98141" lon="5.21857">
        <ele>1173</ele>
        <time>2020-01-02T14:02:27Z</time>
      </trkpt>
      <trkpt lat="44.98144" lon="5.21852">
        <ele>1172</ele>
        <time>2020-01-02T14:02:33Z</time>
      </trkpt>
      <trkpt lat="44.98144" lon="5.21847">
        <ele>1171</ele>
        <time>2020-01-02T14:02:43Z</time>
      </trkpt>
      <trkpt lat="44.98144" lon="5.21842">
        <ele>1169</ele>
        <time>2020-01-02T14:02:52Z</time>
      </trkpt>
      <trkpt lat="44.98143" lon="5.21841">
        <ele>1168</ele>
        <time>2020-01-02T14:03:02Z</time>
      </trkpt>
      <trkpt lat="44.98146" lon="5.21831">
        <ele>1168</ele>
        <time>2020-01-02T14:03:09Z</time>
      </trkpt>
      <trkpt lat="44.98151" lon="5.21825">
        <ele>1165</ele>
        <time>2020-01-02T14:03:18Z</time>
      </trkpt>
      <trkpt lat="44.98153" lon="5.2182">
        <ele>1163</ele>
        <time>2020-01-02T14:03:22Z</time>
      </trkpt>
      <trkpt lat="44.98155" lon="5.21809">
        <ele>1161</ele>
        <time>2020-01-02T14:03:29Z</time>
      </trkpt>
      <trkpt lat="44.98156" lon="5.21804">
        <ele>1160</ele>
        <time>2020-01-02T14:03:34Z</time>
      </trkpt>
      <trkpt lat="44.98156" lon="5.21798">
        <ele>1156</ele>
        <time>2020-01-02T14:03:45Z</time>
      </trkpt>
      <trkpt lat="44.98157" lon="5.21792">
        <ele>1153</ele>
        <time>2020-01-02T14:04:02Z</time>
      </trkpt>
      <trkpt lat="44.98156" lon="5.21787">
        <ele>1150</ele>
        <time>2020-01-02T14:04:10Z</time>
      </trkpt>
      <trkpt lat="44.98158" lon="5.21784">
        <ele>1145</ele>
        <time>2020-01-02T14:04:33Z</time>
      </trkpt>
      <trkpt lat="44.98165" lon="5.21778">
        <ele>1137</ele>
        <time>2020-01-02T14:04:52Z</time>
      </trkpt>
      <trkpt lat="44.98169" lon="5.21776">
        <ele>1136</ele>
        <time>2020-01-02T14:04:56Z</time>
      </trkpt>
      <trkpt lat="44.98173" lon="5.21771">
        <ele>1133</ele>
        <time>2020-01-02T14:04:59Z</time>
      </trkpt>
      <trkpt lat="44.98174" lon="5.21765">
        <ele>1132</ele>
        <time>2020-01-02T14:05:01Z</time>
      </trkpt>
      <trkpt lat="44.98175" lon="5.21759">
        <ele>1131</ele>
        <time>2020-01-02T14:05:04Z</time>
      </trkpt>
      <trkpt lat="44.98175" lon="5.21744">
        <ele>1127</ele>
        <time>2020-01-02T14:05:15Z</time>
      </trkpt>
      <trkpt lat="44.98173" lon="5.21739">
        <ele>1126</ele>
        <time>2020-01-02T14:05:17Z</time>
      </trkpt>
      <trkpt lat="44.98175" lon="5.21715">
        <ele>1118</ele>
        <time>2020-01-02T14:05:40Z</time>
      </trkpt>
      <trkpt lat="44.98177" lon="5.21709">
        <ele>1117</ele>
        <time>2020-01-02T14:05:42Z</time>
      </trkpt>
      <trkpt lat="44.98178" lon="5.21704">
        <ele>1116</ele>
        <time>2020-01-02T14:05:45Z</time>
      </trkpt>
      <trkpt lat="44.98179" lon="5.21699">
        <ele>1114</ele>
        <time>2020-01-02T14:05:49Z</time>
      </trkpt>
      <trkpt lat="44.98181" lon="5.21695">
        <ele>1113</ele>
        <time>2020-01-02T14:05:52Z</time>
      </trkpt>
      <trkpt lat="44.98184" lon="5.21691">
        <ele>1111</ele>
        <time>2020-01-02T14:05:58Z</time>
      </trkpt>
      <trkpt lat="44.98184" lon="5.21685">
        <ele>1110</ele>
        <time>2020-01-02T14:06:01Z</time>
      </trkpt>
      <trkpt lat="44.98184" lon="5.2168">
        <ele>1108</ele>
        <time>2020-01-02T14:06:04Z</time>
      </trkpt>
      <trkpt lat="44.98178" lon="5.21665">
        <ele>1105</ele>
        <time>2020-01-02T14:06:14Z</time>
      </trkpt>
      <trkpt lat="44.98176" lon="5.21658">
        <ele>1103</ele>
        <time>2020-01-02T14:06:21Z</time>
      </trkpt>
      <trkpt lat="44.98175" lon="5.2165">
        <ele>1101</ele>
        <time>2020-01-02T14:06:24Z</time>
      </trkpt>
      <trkpt lat="44.98175" lon="5.21643">
        <ele>1100</ele>
        <time>2020-01-02T14:06:27Z</time>
      </trkpt>
      <trkpt lat="44.98181" lon="5.21632">
        <ele>1098</ele>
        <time>2020-01-02T14:06:31Z</time>
      </trkpt>
      <trkpt lat="44.98179" lon="5.21623">
        <ele>1097</ele>
        <time>2020-01-02T14:06:34Z</time>
      </trkpt>
      <trkpt lat="44.98181" lon="5.21613">
        <ele>1096</ele>
        <time>2020-01-02T14:06:37Z</time>
      </trkpt>
      <trkpt lat="44.98185" lon="5.21597">
        <ele>1093</ele>
        <time>2020-01-02T14:06:44Z</time>
      </trkpt>
      <trkpt lat="44.98186" lon="5.21577">
        <ele>1089</ele>
        <time>2020-01-02T14:06:52Z</time>
      </trkpt>
      <trkpt lat="44.98188" lon="5.21571">
        <ele>1088</ele>
        <time>2020-01-02T14:06:55Z</time>
      </trkpt>
      <trkpt lat="44.98189" lon="5.21566">
        <ele>1087</ele>
        <time>2020-01-02T14:06:57Z</time>
      </trkpt>
      <trkpt lat="44.98193" lon="5.21562">
        <ele>1086</ele>
        <time>2020-01-02T14:06:59Z</time>
      </trkpt>
      <trkpt lat="44.98196" lon="5.21557">
        <ele>1085</ele>
        <time>2020-01-02T14:07:02Z</time>
      </trkpt>
      <trkpt lat="44.98199" lon="5.21552">
        <ele>1084</ele>
        <time>2020-01-02T14:07:05Z</time>
      </trkpt>
      <trkpt lat="44.98199" lon="5.21545">
        <ele>1082</ele>
        <time>2020-01-02T14:07:09Z</time>
      </trkpt>
      <trkpt lat="44.98199" lon="5.21537">
        <ele>1082</ele>
        <time>2020-01-02T14:07:13Z</time>
      </trkpt>
      <trkpt lat="44.982" lon="5.21529">
        <ele>1080</ele>
        <time>2020-01-02T14:07:17Z</time>
      </trkpt>
      <trkpt lat="44.98203" lon="5.21526">
        <ele>1078</ele>
        <time>2020-01-02T14:07:20Z</time>
      </trkpt>
      <trkpt lat="44.98209" lon="5.21524">
        <ele>1078</ele>
        <time>2020-01-02T14:07:23Z</time>
      </trkpt>
      <trkpt lat="44.98216" lon="5.21512">
        <ele>1075</ele>
        <time>2020-01-02T14:07:31Z</time>
      </trkpt>
      <trkpt lat="44.98229" lon="5.21496">
        <ele>1070</ele>
        <time>2020-01-02T14:07:46Z</time>
      </trkpt>
      <trkpt lat="44.98234" lon="5.21491">
        <ele>1069</ele>
        <time>2020-01-02T14:07:53Z</time>
      </trkpt>
      <trkpt lat="44.98244" lon="5.21479">
        <ele>1066</ele>
        <time>2020-01-02T14:08:02Z</time>
      </trkpt>
      <trkpt lat="44.98247" lon="5.21473">
        <ele>1065</ele>
        <time>2020-01-02T14:08:05Z</time>
      </trkpt>
      <trkpt lat="44.98251" lon="5.21466">
        <ele>1064</ele>
        <time>2020-01-02T14:08:10Z</time>
      </trkpt>
      <trkpt lat="44.98261" lon="5.21457">
        <ele>1062</ele>
        <time>2020-01-02T14:08:18Z</time>
      </trkpt>
      <trkpt lat="44.98265" lon="5.21451">
        <ele>1061</ele>
        <time>2020-01-02T14:08:22Z</time>
      </trkpt>
      <trkpt lat="44.98269" lon="5.21445">
        <ele>1060</ele>
        <time>2020-01-02T14:08:26Z</time>
      </trkpt>
      <trkpt lat="44.98275" lon="5.21445">
        <ele>1058</ele>
        <time>2020-01-02T14:08:29Z</time>
      </trkpt>
      <trkpt lat="44.98279" lon="5.2144">
        <ele>1058</ele>
        <time>2020-01-02T14:08:32Z</time>
      </trkpt>
      <trkpt lat="44.98284" lon="5.21434">
        <ele>1056</ele>
        <time>2020-01-02T14:08:38Z</time>
      </trkpt>
      <trkpt lat="44.98288" lon="5.21428">
        <ele>1055</ele>
        <time>2020-01-02T14:08:42Z</time>
      </trkpt>
      <trkpt lat="44.98293" lon="5.21423">
        <ele>1053</ele>
        <time>2020-01-02T14:08:45Z</time>
      </trkpt>
      <trkpt lat="44.98297" lon="5.21418">
        <ele>1051</ele>
        <time>2020-01-02T14:08:53Z</time>
      </trkpt>
      <trkpt lat="44.98303" lon="5.21417">
        <ele>1048</ele>
        <time>2020-01-02T14:08:56Z</time>
      </trkpt>
      <trkpt lat="44.98308" lon="5.21417">
        <ele>1046</ele>
        <time>2020-01-02T14:09:02Z</time>
      </trkpt>
      <trkpt lat="44.98312" lon="5.21416">
        <ele>1041</ele>
        <time>2020-01-02T14:09:15Z</time>
      </trkpt>
      <trkpt lat="44.98315" lon="5.2141">
        <ele>1040</ele>
        <time>2020-01-02T14:09:18Z</time>
      </trkpt>
      <trkpt lat="44.9832" lon="5.21399">
        <ele>1034</ele>
        <time>2020-01-02T14:09:25Z</time>
      </trkpt>
      <trkpt lat="44.98324" lon="5.21395">
        <ele>1033</ele>
        <time>2020-01-02T14:09:30Z</time>
      </trkpt>
      <trkpt lat="44.98326" lon="5.21389">
        <ele>1030</ele>
        <time>2020-01-02T14:09:33Z</time>
      </trkpt>
      <trkpt lat="44.98329" lon="5.21384">
        <ele>1029</ele>
        <time>2020-01-02T14:09:36Z</time>
      </trkpt>
      <trkpt lat="44.98334" lon="5.21379">
        <ele>1027</ele>
        <time>2020-01-02T14:09:40Z</time>
      </trkpt>
      <trkpt lat="44.98339" lon="5.21374">
        <ele>1026</ele>
        <time>2020-01-02T14:09:43Z</time>
      </trkpt>
      <trkpt lat="44.98343" lon="5.21368">
        <ele>1023</ele>
        <time>2020-01-02T14:09:47Z</time>
      </trkpt>
      <trkpt lat="44.98347" lon="5.21363">
        <ele>1022</ele>
        <time>2020-01-02T14:09:51Z</time>
      </trkpt>
      <trkpt lat="44.98351" lon="5.21355">
        <ele>1019</ele>
        <time>2020-01-02T14:09:56Z</time>
      </trkpt>
      <trkpt lat="44.98356" lon="5.2135">
        <ele>1017</ele>
        <time>2020-01-02T14:10:00Z</time>
      </trkpt>
      <trkpt lat="44.98361" lon="5.21343">
        <ele>1014</ele>
        <time>2020-01-02T14:10:06Z</time>
      </trkpt>
      <trkpt lat="44.98366" lon="5.21338">
        <ele>1013</ele>
        <time>2020-01-02T14:10:09Z</time>
      </trkpt>
      <trkpt lat="44.9837" lon="5.21332">
        <ele>1012</ele>
        <time>2020-01-02T14:10:13Z</time>
      </trkpt>
      <trkpt lat="44.98376" lon="5.21323">
        <ele>1009</ele>
        <time>2020-01-02T14:10:18Z</time>
      </trkpt>
      <trkpt lat="44.98382" lon="5.21317">
        <ele>1007</ele>
        <time>2020-01-02T14:10:24Z</time>
      </trkpt>
      <trkpt lat="44.98397" lon="5.213">
        <ele>1004</ele>
        <time>2020-01-02T14:10:34Z</time>
      </trkpt>
      <trkpt lat="44.98401" lon="5.21294">
        <ele>1003</ele>
        <time>2020-01-02T14:10:37Z</time>
      </trkpt>
      <trkpt lat="44.98404" lon="5.21291">
        <ele>1002</ele>
        <time>2020-01-02T14:10:39Z</time>
      </trkpt>
      <trkpt lat="44.98408" lon="5.21287">
        <ele>1001</ele>
        <time>2020-01-02T14:10:41Z</time>
      </trkpt>
      <trkpt lat="44.9841" lon="5.21282">
        <ele>1001</ele>
        <time>2020-01-02T14:10:43Z</time>
      </trkpt>
      <trkpt lat="44.98413" lon="5.21278">
        <ele>1000</ele>
        <time>2020-01-02T14:10:45Z</time>
      </trkpt>
      <trkpt lat="44.98416" lon="5.21272">
        <ele>999</ele>
        <time>2020-01-02T14:10:48Z</time>
      </trkpt>
      <trkpt lat="44.9842" lon="5.21269">
        <ele>998</ele>
        <time>2020-01-02T14:10:50Z</time>
      </trkpt>
      <trkpt lat="44.9843" lon="5.21256">
        <ele>995</ele>
        <time>2020-01-02T14:11:00Z</time>
      </trkpt>
      <trkpt lat="44.98433" lon="5.21253">
        <ele>994</ele>
        <time>2020-01-02T14:11:03Z</time>
      </trkpt>
      <trkpt lat="44.98469" lon="5.21207">
        <ele>988</ele>
        <time>2020-01-02T14:11:27Z</time>
      </trkpt>
      <trkpt lat="44.98476" lon="5.21194">
        <ele>985</ele>
        <time>2020-01-02T14:11:39Z</time>
      </trkpt>
      <trkpt lat="44.98476" lon="5.21192">
        <ele>982</ele>
        <time>2020-01-02T14:11:54Z</time>
      </trkpt>
      <trkpt lat="44.98475" lon="5.21186">
        <ele>981</ele>
        <time>2020-01-02T14:12:07Z</time>
      </trkpt>
      <trkpt lat="44.98473" lon="5.21182">
        <ele>979</ele>
        <time>2020-01-02T14:12:11Z</time>
      </trkpt>
      <trkpt lat="44.98472" lon="5.21176">
        <ele>978</ele>
        <time>2020-01-02T14:12:15Z</time>
      </trkpt>
      <trkpt lat="44.98472" lon="5.21163">
        <ele>976</ele>
        <time>2020-01-02T14:12:24Z</time>
      </trkpt>
      <trkpt lat="44.98473" lon="5.21157">
        <ele>974</ele>
        <time>2020-01-02T14:12:28Z</time>
      </trkpt>
      <trkpt lat="44.98477" lon="5.21151">
        <ele>974</ele>
        <time>2020-01-02T14:12:31Z</time>
      </trkpt>
      <trkpt lat="44.98479" lon="5.21145">
        <ele>973</ele>
        <time>2020-01-02T14:12:34Z</time>
      </trkpt>
      <trkpt lat="44.98488" lon="5.21127">
        <ele>971</ele>
        <time>2020-01-02T14:12:43Z</time>
      </trkpt>
      <trkpt lat="44.98497" lon="5.21117">
        <ele>969</ele>
        <time>2020-01-02T14:12:49Z</time>
      </trkpt>
      <trkpt lat="44.985" lon="5.21112">
        <ele>969</ele>
        <time>2020-01-02T14:12:51Z</time>
      </trkpt>
      <trkpt lat="44.98503" lon="5.21108">
        <ele>968</ele>
        <time>2020-01-02T14:12:53Z</time>
      </trkpt>
      <trkpt lat="44.98512" lon="5.21088">
        <ele>966</ele>
        <time>2020-01-02T14:13:03Z</time>
      </trkpt>
      <trkpt lat="44.98514" lon="5.21082">
        <ele>965</ele>
        <time>2020-01-02T14:13:05Z</time>
      </trkpt>
      <trkpt lat="44.98517" lon="5.21061">
        <ele>963</ele>
        <time>2020-01-02T14:13:16Z</time>
      </trkpt>
      <trkpt lat="44.98519" lon="5.21051">
        <ele>961</ele>
        <time>2020-01-02T14:13:22Z</time>
      </trkpt>
      <trkpt lat="44.9852" lon="5.21046">
        <ele>960</ele>
        <time>2020-01-02T14:13:25Z</time>
      </trkpt>
      <trkpt lat="44.98522" lon="5.21041">
        <ele>959</ele>
        <time>2020-01-02T14:13:27Z</time>
      </trkpt>
      <trkpt lat="44.98525" lon="5.21037">
        <ele>958</ele>
        <time>2020-01-02T14:13:29Z</time>
      </trkpt>
      <trkpt lat="44.98529" lon="5.21034">
        <ele>958</ele>
        <time>2020-01-02T14:13:32Z</time>
      </trkpt>
      <trkpt lat="44.98533" lon="5.21029">
        <ele>957</ele>
        <time>2020-01-02T14:13:37Z</time>
      </trkpt>
      <trkpt lat="44.98537" lon="5.21023">
        <ele>955</ele>
        <time>2020-01-02T14:13:41Z</time>
      </trkpt>
      <trkpt lat="44.98542" lon="5.21016">
        <ele>954</ele>
        <time>2020-01-02T14:13:45Z</time>
      </trkpt>
      <trkpt lat="44.98546" lon="5.2101">
        <ele>953</ele>
        <time>2020-01-02T14:13:48Z</time>
      </trkpt>
      <trkpt lat="44.98551" lon="5.21007">
        <ele>952</ele>
        <time>2020-01-02T14:13:51Z</time>
      </trkpt>
      <trkpt lat="44.98551" lon="5.20999">
        <ele>950</ele>
        <time>2020-01-02T14:13:55Z</time>
      </trkpt>
      <trkpt lat="44.98547" lon="5.20998">
        <ele>949</ele>
        <time>2020-01-02T14:14:00Z</time>
      </trkpt>
      <trkpt lat="44.98543" lon="5.21001">
        <ele>948</ele>
        <time>2020-01-02T14:14:08Z</time>
      </trkpt>
      <trkpt lat="44.98537" lon="5.21002">
        <ele>946</ele>
        <time>2020-01-02T14:14:12Z</time>
      </trkpt>
      <trkpt lat="44.98533" lon="5.21003">
        <ele>944</ele>
        <time>2020-01-02T14:14:15Z</time>
      </trkpt>
      <trkpt lat="44.98519" lon="5.21">
        <ele>939</ele>
        <time>2020-01-02T14:14:25Z</time>
      </trkpt>
      <trkpt lat="44.98514" lon="5.20998">
        <ele>938</ele>
        <time>2020-01-02T14:14:29Z</time>
      </trkpt>
      <trkpt lat="44.98509" lon="5.21">
        <ele>936</ele>
        <time>2020-01-02T14:14:32Z</time>
      </trkpt>
      <trkpt lat="44.98505" lon="5.21002">
        <ele>935</ele>
        <time>2020-01-02T14:14:34Z</time>
      </trkpt>
      <trkpt lat="44.98501" lon="5.21002">
        <ele>934</ele>
        <time>2020-01-02T14:14:36Z</time>
      </trkpt>
      <trkpt lat="44.98497" lon="5.21005">
        <ele>931</ele>
        <time>2020-01-02T14:14:42Z</time>
      </trkpt>
      <trkpt lat="44.98493" lon="5.21006">
        <ele>931</ele>
        <time>2020-01-02T14:14:44Z</time>
      </trkpt>
      <trkpt lat="44.98488" lon="5.21003">
        <ele>929</ele>
        <time>2020-01-02T14:14:48Z</time>
      </trkpt>
      <trkpt lat="44.98484" lon="5.21004">
        <ele>928</ele>
        <time>2020-01-02T14:14:50Z</time>
      </trkpt>
      <trkpt lat="44.98479" lon="5.21003">
        <ele>927</ele>
        <time>2020-01-02T14:14:52Z</time>
      </trkpt>
      <trkpt lat="44.9847" lon="5.20999">
        <ele>925</ele>
        <time>2020-01-02T14:14:57Z</time>
      </trkpt>
      <trkpt lat="44.98465" lon="5.20996">
        <ele>924</ele>
        <time>2020-01-02T14:15:00Z</time>
      </trkpt>
      <trkpt lat="44.98455" lon="5.21">
        <ele>921</ele>
        <time>2020-01-02T14:15:04Z</time>
      </trkpt>
      <trkpt lat="44.98454" lon="5.21007">
        <ele>918</ele>
        <time>2020-01-02T14:15:10Z</time>
      </trkpt>
      <trkpt lat="44.98456" lon="5.21019">
        <ele>914</ele>
        <time>2020-01-02T14:15:16Z</time>
      </trkpt>
      <trkpt lat="44.98454" lon="5.21023">
        <ele>913</ele>
        <time>2020-01-02T14:15:19Z</time>
      </trkpt>
      <trkpt lat="44.98448" lon="5.21031">
        <ele>906</ele>
        <time>2020-01-02T14:15:26Z</time>
      </trkpt>
      <trkpt lat="44.98444" lon="5.21035">
        <ele>905</ele>
        <time>2020-01-02T14:15:31Z</time>
      </trkpt>
      <trkpt lat="44.98439" lon="5.21035">
        <ele>903</ele>
        <time>2020-01-02T14:15:33Z</time>
      </trkpt>
      <trkpt lat="44.98436" lon="5.21037">
        <ele>902</ele>
        <time>2020-01-02T14:15:36Z</time>
      </trkpt>
      <trkpt lat="44.98431" lon="5.21038">
        <ele>900</ele>
        <time>2020-01-02T14:15:39Z</time>
      </trkpt>
      <trkpt lat="44.98428" lon="5.21041">
        <ele>899</ele>
        <time>2020-01-02T14:15:44Z</time>
      </trkpt>
      <trkpt lat="44.98424" lon="5.21046">
        <ele>896</ele>
        <time>2020-01-02T14:15:48Z</time>
      </trkpt>
      <trkpt lat="44.9842" lon="5.2105">
        <ele>895</ele>
        <time>2020-01-02T14:15:51Z</time>
      </trkpt>
      <trkpt lat="44.98415" lon="5.21052">
        <ele>893</ele>
        <time>2020-01-02T14:15:56Z</time>
      </trkpt>
      <trkpt lat="44.9841" lon="5.21054">
        <ele>891</ele>
        <time>2020-01-02T14:15:59Z</time>
      </trkpt>
      <trkpt lat="44.98405" lon="5.21057">
        <ele>889</ele>
        <time>2020-01-02T14:16:03Z</time>
      </trkpt>
      <trkpt lat="44.98402" lon="5.21062">
        <ele>888</ele>
        <time>2020-01-02T14:16:06Z</time>
      </trkpt>
      <trkpt lat="44.98398" lon="5.21062">
        <ele>887</ele>
        <time>2020-01-02T14:16:08Z</time>
      </trkpt>
      <trkpt lat="44.98392" lon="5.21064">
        <ele>886</ele>
        <time>2020-01-02T14:16:11Z</time>
      </trkpt>
      <trkpt lat="44.98384" lon="5.21068">
        <ele>884</ele>
        <time>2020-01-02T14:16:15Z</time>
      </trkpt>
      <trkpt lat="44.98379" lon="5.21068">
        <ele>883</ele>
        <time>2020-01-02T14:16:18Z</time>
      </trkpt>
      <trkpt lat="44.98375" lon="5.21072">
        <ele>881</ele>
        <time>2020-01-02T14:16:23Z</time>
      </trkpt>
      <trkpt lat="44.98372" lon="5.21075">
        <ele>880</ele>
        <time>2020-01-02T14:16:25Z</time>
      </trkpt>
      <trkpt lat="44.98369" lon="5.21078">
        <ele>878</ele>
        <time>2020-01-02T14:16:29Z</time>
      </trkpt>
      <trkpt lat="44.98365" lon="5.21081">
        <ele>877</ele>
        <time>2020-01-02T14:16:32Z</time>
      </trkpt>
      <trkpt lat="44.9836" lon="5.21084">
        <ele>875</ele>
        <time>2020-01-02T14:16:37Z</time>
      </trkpt>
      <trkpt lat="44.98354" lon="5.21088">
        <ele>873</ele>
        <time>2020-01-02T14:16:42Z</time>
      </trkpt>
      <trkpt lat="44.98349" lon="5.2109">
        <ele>872</ele>
        <time>2020-01-02T14:16:46Z</time>
      </trkpt>
      <trkpt lat="44.98343" lon="5.2109">
        <ele>870</ele>
        <time>2020-01-02T14:16:49Z</time>
      </trkpt>
      <trkpt lat="44.98329" lon="5.21089">
        <ele>868</ele>
        <time>2020-01-02T14:16:58Z</time>
      </trkpt>
      <trkpt lat="44.98322" lon="5.21081">
        <ele>866</ele>
        <time>2020-01-02T14:17:06Z</time>
      </trkpt>
      <trkpt lat="44.98309" lon="5.21081">
        <ele>863</ele>
        <time>2020-01-02T14:17:13Z</time>
      </trkpt>
      <trkpt lat="44.98301" lon="5.21082">
        <ele>862</ele>
        <time>2020-01-02T14:17:16Z</time>
      </trkpt>
      <trkpt lat="44.98289" lon="5.21072">
        <ele>859</ele>
        <time>2020-01-02T14:17:27Z</time>
      </trkpt>
      <trkpt lat="44.98284" lon="5.21067">
        <ele>858</ele>
        <time>2020-01-02T14:17:32Z</time>
      </trkpt>
      <trkpt lat="44.9828" lon="5.21059">
        <ele>857</ele>
        <time>2020-01-02T14:17:36Z</time>
      </trkpt>
      <trkpt lat="44.98277" lon="5.21051">
        <ele>856</ele>
        <time>2020-01-02T14:17:40Z</time>
      </trkpt>
      <trkpt lat="44.98273" lon="5.21045">
        <ele>856</ele>
        <time>2020-01-02T14:17:43Z</time>
      </trkpt>
      <trkpt lat="44.98271" lon="5.21037">
        <ele>855</ele>
        <time>2020-01-02T14:17:46Z</time>
      </trkpt>
      <trkpt lat="44.98253" lon="5.21013">
        <ele>852</ele>
        <time>2020-01-02T14:17:57Z</time>
      </trkpt>
      <trkpt lat="44.98244" lon="5.21002">
        <ele>850</ele>
        <time>2020-01-02T14:18:04Z</time>
      </trkpt>
      <trkpt lat="44.98232" lon="5.20997">
        <ele>849</ele>
        <time>2020-01-02T14:18:09Z</time>
      </trkpt>
      <trkpt lat="44.98224" lon="5.20996">
        <ele>849</ele>
        <time>2020-01-02T14:18:12Z</time>
      </trkpt>
      <trkpt lat="44.98217" lon="5.20998">
        <ele>848</ele>
        <time>2020-01-02T14:18:14Z</time>
      </trkpt>
      <trkpt lat="44.98197" lon="5.20993">
        <ele>845</ele>
        <time>2020-01-02T14:18:23Z</time>
      </trkpt>
      <trkpt lat="44.98191" lon="5.20993">
        <ele>844</ele>
        <time>2020-01-02T14:18:25Z</time>
      </trkpt>
      <trkpt lat="44.98188" lon="5.20997">
        <ele>842</ele>
        <time>2020-01-02T14:18:29Z</time>
      </trkpt>
      <trkpt lat="44.98184" lon="5.20997">
        <ele>842</ele>
        <time>2020-01-02T14:18:32Z</time>
      </trkpt>
      <trkpt lat="44.98178" lon="5.20995">
        <ele>839</ele>
        <time>2020-01-02T14:18:39Z</time>
      </trkpt>
      <trkpt lat="44.98173" lon="5.20992">
        <ele>837</ele>
        <time>2020-01-02T14:18:44Z</time>
      </trkpt>
      <trkpt lat="44.98168" lon="5.20989">
        <ele>835</ele>
        <time>2020-01-02T14:18:49Z</time>
      </trkpt>
      <trkpt lat="44.98149" lon="5.20981">
        <ele>829</ele>
        <time>2020-01-02T14:19:02Z</time>
      </trkpt>
      <trkpt lat="44.98142" lon="5.20977">
        <ele>827</ele>
        <time>2020-01-02T14:19:09Z</time>
      </trkpt>
      <trkpt lat="44.98132" lon="5.2097">
        <ele>824</ele>
        <time>2020-01-02T14:19:15Z</time>
      </trkpt>
      <trkpt lat="44.98127" lon="5.20969">
        <ele>823</ele>
        <time>2020-01-02T14:19:19Z</time>
      </trkpt>
      <trkpt lat="44.98121" lon="5.20966">
        <ele>821</ele>
        <time>2020-01-02T14:19:24Z</time>
      </trkpt>
      <trkpt lat="44.98118" lon="5.20959">
        <ele>819</ele>
        <time>2020-01-02T14:19:30Z</time>
      </trkpt>
      <trkpt lat="44.98113" lon="5.20957">
        <ele>819</ele>
        <time>2020-01-02T14:19:34Z</time>
      </trkpt>
      <trkpt lat="44.9809" lon="5.20941">
        <ele>812</ele>
        <time>2020-01-02T14:19:51Z</time>
      </trkpt>
      <trkpt lat="44.98085" lon="5.20936">
        <ele>811</ele>
        <time>2020-01-02T14:19:55Z</time>
      </trkpt>
      <trkpt lat="44.98082" lon="5.20929">
        <ele>810</ele>
        <time>2020-01-02T14:19:58Z</time>
      </trkpt>
      <trkpt lat="44.98076" lon="5.20928">
        <ele>809</ele>
        <time>2020-01-02T14:20:06Z</time>
      </trkpt>
      <trkpt lat="44.98072" lon="5.20921">
        <ele>805</ele>
        <time>2020-01-02T14:20:19Z</time>
      </trkpt>
      <trkpt lat="44.98069" lon="5.20916">
        <ele>803</ele>
        <time>2020-01-02T14:20:26Z</time>
      </trkpt>
      <trkpt lat="44.98078" lon="5.20907">
        <ele>800</ele>
        <time>2020-01-02T14:20:33Z</time>
      </trkpt>
      <trkpt lat="44.98081" lon="5.20902">
        <ele>799</ele>
        <time>2020-01-02T14:20:36Z</time>
      </trkpt>
      <trkpt lat="44.98084" lon="5.20891">
        <ele>796</ele>
        <time>2020-01-02T14:20:44Z</time>
      </trkpt>
      <trkpt lat="44.98091" lon="5.20888">
        <ele>795</ele>
        <time>2020-01-02T14:20:49Z</time>
      </trkpt>
      <trkpt lat="44.98097" lon="5.20887">
        <ele>793</ele>
        <time>2020-01-02T14:20:53Z</time>
      </trkpt>
      <trkpt lat="44.98103" lon="5.20885">
        <ele>791</ele>
        <time>2020-01-02T14:20:59Z</time>
      </trkpt>
      <trkpt lat="44.98108" lon="5.20882">
        <ele>789</ele>
        <time>2020-01-02T14:21:02Z</time>
      </trkpt>
      <trkpt lat="44.98115" lon="5.2088">
        <ele>788</ele>
        <time>2020-01-02T14:21:06Z</time>
      </trkpt>
      <trkpt lat="44.9812" lon="5.20883">
        <ele>786</ele>
        <time>2020-01-02T14:21:09Z</time>
      </trkpt>
      <trkpt lat="44.98127" lon="5.20881">
        <ele>785</ele>
        <time>2020-01-02T14:21:13Z</time>
      </trkpt>
      <trkpt lat="44.98133" lon="5.20879">
        <ele>783</ele>
        <time>2020-01-02T14:21:16Z</time>
      </trkpt>
      <trkpt lat="44.9814" lon="5.2088">
        <ele>782</ele>
        <time>2020-01-02T14:21:19Z</time>
      </trkpt>
      <trkpt lat="44.98146" lon="5.20879">
        <ele>780</ele>
        <time>2020-01-02T14:21:24Z</time>
      </trkpt>
      <trkpt lat="44.98153" lon="5.20881">
        <ele>777</ele>
        <time>2020-01-02T14:21:29Z</time>
      </trkpt>
      <trkpt lat="44.98159" lon="5.2088">
        <ele>775</ele>
        <time>2020-01-02T14:21:33Z</time>
      </trkpt>
      <trkpt lat="44.98184" lon="5.20872">
        <ele>767</ele>
        <time>2020-01-02T14:21:49Z</time>
      </trkpt>
      <trkpt lat="44.98189" lon="5.2087">
        <ele>764</ele>
        <time>2020-01-02T14:21:53Z</time>
      </trkpt>
      <trkpt lat="44.98196" lon="5.20868">
        <ele>762</ele>
        <time>2020-01-02T14:21:57Z</time>
      </trkpt>
      <trkpt lat="44.98202" lon="5.20865">
        <ele>761</ele>
        <time>2020-01-02T14:22:00Z</time>
      </trkpt>
      <trkpt lat="44.98207" lon="5.20861">
        <ele>758</ele>
        <time>2020-01-02T14:22:04Z</time>
      </trkpt>
      <trkpt lat="44.98211" lon="5.20856">
        <ele>756</ele>
        <time>2020-01-02T14:22:08Z</time>
      </trkpt>
      <trkpt lat="44.98214" lon="5.20852">
        <ele>754</ele>
        <time>2020-01-02T14:22:11Z</time>
      </trkpt>
      <trkpt lat="44.98219" lon="5.20847">
        <ele>753</ele>
        <time>2020-01-02T14:22:14Z</time>
      </trkpt>
      <trkpt lat="44.98222" lon="5.20842">
        <ele>750</ele>
        <time>2020-01-02T14:22:18Z</time>
      </trkpt>
      <trkpt lat="44.98226" lon="5.20838">
        <ele>748</ele>
        <time>2020-01-02T14:22:21Z</time>
      </trkpt>
      <trkpt lat="44.98228" lon="5.20832">
        <ele>747</ele>
        <time>2020-01-02T14:22:24Z</time>
      </trkpt>
      <trkpt lat="44.98232" lon="5.20828">
        <ele>745</ele>
        <time>2020-01-02T14:22:26Z</time>
      </trkpt>
      <trkpt lat="44.98233" lon="5.20822">
        <ele>744</ele>
        <time>2020-01-02T14:22:29Z</time>
      </trkpt>
      <trkpt lat="44.98235" lon="5.20816">
        <ele>742</ele>
        <time>2020-01-02T14:22:32Z</time>
      </trkpt>
      <trkpt lat="44.98237" lon="5.20812">
        <ele>741</ele>
        <time>2020-01-02T14:22:34Z</time>
      </trkpt>
      <trkpt lat="44.9824" lon="5.20805">
        <ele>739</ele>
        <time>2020-01-02T14:22:37Z</time>
      </trkpt>
      <trkpt lat="44.98242" lon="5.20801">
        <ele>737</ele>
        <time>2020-01-02T14:22:40Z</time>
      </trkpt>
      <trkpt lat="44.98243" lon="5.20796">
        <ele>737</ele>
        <time>2020-01-02T14:22:42Z</time>
      </trkpt>
      <trkpt lat="44.98256" lon="5.20765">
        <ele>728</ele>
        <time>2020-01-02T14:23:01Z</time>
      </trkpt>
      <trkpt lat="44.98259" lon="5.2076">
        <ele>727</ele>
        <time>2020-01-02T14:23:04Z</time>
      </trkpt>
      <trkpt lat="44.98261" lon="5.20756">
        <ele>725</ele>
        <time>2020-01-02T14:23:09Z</time>
      </trkpt>
      <trkpt lat="44.98275" lon="5.20734">
        <ele>721</ele>
        <time>2020-01-02T14:23:23Z</time>
      </trkpt>
      <trkpt lat="44.98277" lon="5.2073">
        <ele>720</ele>
        <time>2020-01-02T14:23:26Z</time>
      </trkpt>
      <trkpt lat="44.9828" lon="5.20725">
        <ele>719</ele>
        <time>2020-01-02T14:23:29Z</time>
      </trkpt>
      <trkpt lat="44.98283" lon="5.20722">
        <ele>718</ele>
        <time>2020-01-02T14:23:31Z</time>
      </trkpt>
      <trkpt lat="44.98286" lon="5.20719">
        <ele>717</ele>
        <time>2020-01-02T14:23:34Z</time>
      </trkpt>
      <trkpt lat="44.98304" lon="5.20699">
        <ele>713</ele>
        <time>2020-01-02T14:23:49Z</time>
      </trkpt>
      <trkpt lat="44.98308" lon="5.20695">
        <ele>713</ele>
        <time>2020-01-02T14:23:51Z</time>
      </trkpt>
      <trkpt lat="44.98312" lon="5.20688">
        <ele>712</ele>
        <time>2020-01-02T14:23:56Z</time>
      </trkpt>
      <trkpt lat="44.98317" lon="5.20672">
        <ele>711</ele>
        <time>2020-01-02T14:24:01Z</time>
      </trkpt>
      <trkpt lat="44.9832" lon="5.20666">
        <ele>710</ele>
        <time>2020-01-02T14:24:04Z</time>
      </trkpt>
      <trkpt lat="44.9834" lon="5.2064">
        <ele>707</ele>
        <time>2020-01-02T14:24:20Z</time>
      </trkpt>
      <trkpt lat="44.98349" lon="5.20628">
        <ele>705</ele>
        <time>2020-01-02T14:24:26Z</time>
      </trkpt>
      <trkpt lat="44.98353" lon="5.20623">
        <ele>705</ele>
        <time>2020-01-02T14:24:28Z</time>
      </trkpt>
      <trkpt lat="44.98355" lon="5.20617">
        <ele>705</ele>
        <time>2020-01-02T14:24:30Z</time>
      </trkpt>
      <trkpt lat="44.98359" lon="5.20612">
        <ele>704</ele>
        <time>2020-01-02T14:24:32Z</time>
      </trkpt>
      <trkpt lat="44.98362" lon="5.2061">
        <ele>704</ele>
        <time>2020-01-02T14:24:34Z</time>
      </trkpt>
      <trkpt lat="44.98365" lon="5.20606">
        <ele>703</ele>
        <time>2020-01-02T14:24:36Z</time>
      </trkpt>
      <trkpt lat="44.98369" lon="5.20603">
        <ele>703</ele>
        <time>2020-01-02T14:24:38Z</time>
      </trkpt>
      <trkpt lat="44.98371" lon="5.20598">
        <ele>702</ele>
        <time>2020-01-02T14:24:40Z</time>
      </trkpt>
      <trkpt lat="44.98374" lon="5.20594">
        <ele>702</ele>
        <time>2020-01-02T14:24:43Z</time>
      </trkpt>
      <trkpt lat="44.98376" lon="5.20589">
        <ele>701</ele>
        <time>2020-01-02T14:24:45Z</time>
      </trkpt>
      <trkpt lat="44.98382" lon="5.20581">
        <ele>699</ele>
        <time>2020-01-02T14:24:51Z</time>
      </trkpt>
      <trkpt lat="44.98386" lon="5.20575">
        <ele>699</ele>
        <time>2020-01-02T14:24:54Z</time>
      </trkpt>
      <trkpt lat="44.98391" lon="5.20573">
        <ele>698</ele>
        <time>2020-01-02T14:24:57Z</time>
      </trkpt>
      <trkpt lat="44.98399" lon="5.20559">
        <ele>696</ele>
        <time>2020-01-02T14:25:03Z</time>
      </trkpt>
      <trkpt lat="44.98402" lon="5.20554">
        <ele>695</ele>
        <time>2020-01-02T14:25:07Z</time>
      </trkpt>
      <trkpt lat="44.98406" lon="5.20552">
        <ele>694</ele>
        <time>2020-01-02T14:25:09Z</time>
      </trkpt>
      <trkpt lat="44.98407" lon="5.20547">
        <ele>693</ele>
        <time>2020-01-02T14:25:11Z</time>
      </trkpt>
      <trkpt lat="44.98412" lon="5.20543">
        <ele>693</ele>
        <time>2020-01-02T14:25:13Z</time>
      </trkpt>
      <trkpt lat="44.98415" lon="5.20537">
        <ele>692</ele>
        <time>2020-01-02T14:25:15Z</time>
      </trkpt>
      <trkpt lat="44.98427" lon="5.20518">
        <ele>689</ele>
        <time>2020-01-02T14:25:23Z</time>
      </trkpt>
      <trkpt lat="44.98431" lon="5.20512">
        <ele>688</ele>
        <time>2020-01-02T14:25:26Z</time>
      </trkpt>
      <trkpt lat="44.98435" lon="5.20509">
        <ele>688</ele>
        <time>2020-01-02T14:25:28Z</time>
      </trkpt>
      <trkpt lat="44.98437" lon="5.20505">
        <ele>687</ele>
        <time>2020-01-02T14:25:30Z</time>
      </trkpt>
      <trkpt lat="44.98445" lon="5.20489">
        <ele>684</ele>
        <time>2020-01-02T14:25:38Z</time>
      </trkpt>
      <trkpt lat="44.98447" lon="5.20485">
        <ele>683</ele>
        <time>2020-01-02T14:25:40Z</time>
      </trkpt>
      <trkpt lat="44.98458" lon="5.20471">
        <ele>681</ele>
        <time>2020-01-02T14:25:47Z</time>
      </trkpt>
      <trkpt lat="44.98461" lon="5.20466">
        <ele>680</ele>
        <time>2020-01-02T14:25:50Z</time>
      </trkpt>
      <trkpt lat="44.98464" lon="5.20462">
        <ele>679</ele>
        <time>2020-01-02T14:25:52Z</time>
      </trkpt>
      <trkpt lat="44.98471" lon="5.20454">
        <ele>678</ele>
        <time>2020-01-02T14:25:56Z</time>
      </trkpt>
      <trkpt lat="44.9848" lon="5.20434">
        <ele>675</ele>
        <time>2020-01-02T14:26:05Z</time>
      </trkpt>
      <trkpt lat="44.98486" lon="5.20426">
        <ele>673</ele>
        <time>2020-01-02T14:26:11Z</time>
      </trkpt>
      <trkpt lat="44.98503" lon="5.20397">
        <ele>670</ele>
        <time>2020-01-02T14:26:25Z</time>
      </trkpt>
      <trkpt lat="44.98508" lon="5.20389">
        <ele>669</ele>
        <time>2020-01-02T14:26:28Z</time>
      </trkpt>
      <trkpt lat="44.98513" lon="5.20372">
        <ele>666</ele>
        <time>2020-01-02T14:26:38Z</time>
      </trkpt>
      <trkpt lat="44.98517" lon="5.20363">
        <ele>664</ele>
        <time>2020-01-02T14:26:45Z</time>
      </trkpt>
      <trkpt lat="44.98518" lon="5.20357">
        <ele>663</ele>
        <time>2020-01-02T14:26:54Z</time>
      </trkpt>
      <trkpt lat="44.98513" lon="5.20357">
        <ele>658</ele>
        <time>2020-01-02T14:27:20Z</time>
      </trkpt>
      <trkpt lat="44.98514" lon="5.20356">
        <ele>643</ele>
        <time>2020-01-02T14:28:58Z</time>
      </trkpt>
      <trkpt lat="44.98518" lon="5.20354">
        <ele>640</ele>
        <time>2020-01-02T14:29:16Z</time>
      </trkpt>
      <trkpt lat="44.98521" lon="5.2035">
        <ele>640</ele>
        <time>2020-01-02T14:29:19Z</time>
      </trkpt>
      <trkpt lat="44.98524" lon="5.20344">
        <ele>639</ele>
        <time>2020-01-02T14:29:22Z</time>
      </trkpt>
      <trkpt lat="44.98532" lon="5.20328">
        <ele>639</ele>
        <time>2020-01-02T14:29:30Z</time>
      </trkpt>
      <trkpt lat="44.98535" lon="5.20325">
        <ele>639</ele>
        <time>2020-01-02T14:29:32Z</time>
      </trkpt>
      <trkpt lat="44.98538" lon="5.20319">
        <ele>639</ele>
        <time>2020-01-02T14:29:35Z</time>
      </trkpt>
      <trkpt lat="44.98541" lon="5.20314">
        <ele>638</ele>
        <time>2020-01-02T14:29:38Z</time>
      </trkpt>
      <trkpt lat="44.98554" lon="5.20289">
        <ele>638</ele>
        <time>2020-01-02T14:29:53Z</time>
      </trkpt>
      <trkpt lat="44.98556" lon="5.20285">
        <ele>637</ele>
        <time>2020-01-02T14:29:55Z</time>
      </trkpt>
      <trkpt lat="44.98559" lon="5.20279">
        <ele>637</ele>
        <time>2020-01-02T14:29:58Z</time>
      </trkpt>
      <trkpt lat="44.98561" lon="5.20274">
        <ele>637</ele>
        <time>2020-01-02T14:30:00Z</time>
      </trkpt>
      <trkpt lat="44.98569" lon="5.20255">
        <ele>637</ele>
        <time>2020-01-02T14:30:09Z</time>
      </trkpt>
      <trkpt lat="44.98571" lon="5.20248">
        <ele>637</ele>
        <time>2020-01-02T14:30:11Z</time>
      </trkpt>
      <trkpt lat="44.98575" lon="5.20236">
        <ele>636</ele>
        <time>2020-01-02T14:30:17Z</time>
      </trkpt>
      <trkpt lat="44.98579" lon="5.20225">
        <ele>636</ele>
        <time>2020-01-02T14:30:21Z</time>
      </trkpt>
      <trkpt lat="44.98584" lon="5.20216">
        <ele>636</ele>
        <time>2020-01-02T14:30:25Z</time>
      </trkpt>
      <trkpt lat="44.98587" lon="5.20212">
        <ele>636</ele>
        <time>2020-01-02T14:30:27Z</time>
      </trkpt>
      <trkpt lat="44.98589" lon="5.20207">
        <ele>636</ele>
        <time>2020-01-02T14:30:29Z</time>
      </trkpt>
      <trkpt lat="44.98592" lon="5.20204">
        <ele>636</ele>
        <time>2020-01-02T14:30:31Z</time>
      </trkpt>
      <trkpt lat="44.986" lon="5.20196">
        <ele>636</ele>
        <time>2020-01-02T14:30:35Z</time>
      </trkpt>
      <trkpt lat="44.98603" lon="5.20194">
        <ele>635</ele>
        <time>2020-01-02T14:30:37Z</time>
      </trkpt>
      <trkpt lat="44.98618" lon="5.20181">
        <ele>635</ele>
        <time>2020-01-02T14:30:45Z</time>
      </trkpt>
      <trkpt lat="44.98621" lon="5.20177">
        <ele>635</ele>
        <time>2020-01-02T14:30:47Z</time>
      </trkpt>
      <trkpt lat="44.98629" lon="5.20172">
        <ele>635</ele>
        <time>2020-01-02T14:30:51Z</time>
      </trkpt>
      <trkpt lat="44.98637" lon="5.20166">
        <ele>635</ele>
        <time>2020-01-02T14:30:55Z</time>
      </trkpt>
      <trkpt lat="44.98643" lon="5.20162">
        <ele>635</ele>
        <time>2020-01-02T14:30:58Z</time>
      </trkpt>
      <trkpt lat="44.98666" lon="5.20143">
        <ele>634</ele>
        <time>2020-01-02T14:31:11Z</time>
      </trkpt>
      <trkpt lat="44.98671" lon="5.2014">
        <ele>634</ele>
        <time>2020-01-02T14:31:13Z</time>
      </trkpt>
      <trkpt lat="44.98673" lon="5.20136">
        <ele>634</ele>
        <time>2020-01-02T14:31:15Z</time>
      </trkpt>
      <trkpt lat="44.98682" lon="5.20125">
        <ele>634</ele>
        <time>2020-01-02T14:31:21Z</time>
      </trkpt>
      <trkpt lat="44.98689" lon="5.20117">
        <ele>633</ele>
        <time>2020-01-02T14:31:25Z</time>
      </trkpt>
      <trkpt lat="44.98693" lon="5.20113">
        <ele>633</ele>
        <time>2020-01-02T14:31:27Z</time>
      </trkpt>
      <trkpt lat="44.98695" lon="5.20107">
        <ele>633</ele>
        <time>2020-01-02T14:31:30Z</time>
      </trkpt>
      <trkpt lat="44.98698" lon="5.20085">
        <ele>633</ele>
        <time>2020-01-02T14:31:38Z</time>
      </trkpt>
      <trkpt lat="44.98698" lon="5.2008">
        <ele>633</ele>
        <time>2020-01-02T14:31:40Z</time>
      </trkpt>
      <trkpt lat="44.98695" lon="5.20078">
        <ele>633</ele>
        <time>2020-01-02T14:31:42Z</time>
      </trkpt>
      <trkpt lat="44.98692" lon="5.20066">
        <ele>632</ele>
        <time>2020-01-02T14:31:47Z</time>
      </trkpt>
      <trkpt lat="44.9869" lon="5.20062">
        <ele>632</ele>
        <time>2020-01-02T14:31:49Z</time>
      </trkpt>
      <trkpt lat="44.98681" lon="5.20046">
        <ele>632</ele>
        <time>2020-01-02T14:31:57Z</time>
      </trkpt>
      <trkpt lat="44.9867" lon="5.20037">
        <ele>631</ele>
        <time>2020-01-02T14:32:03Z</time>
      </trkpt>
      <trkpt lat="44.98666" lon="5.20034">
        <ele>631</ele>
        <time>2020-01-02T14:32:05Z</time>
      </trkpt>
      <trkpt lat="44.98659" lon="5.20027">
        <ele>631</ele>
        <time>2020-01-02T14:32:10Z</time>
      </trkpt>
      <trkpt lat="44.98648" lon="5.20013">
        <ele>630</ele>
        <time>2020-01-02T14:32:16Z</time>
      </trkpt>
      <trkpt lat="44.98646" lon="5.20009">
        <ele>630</ele>
        <time>2020-01-02T14:32:18Z</time>
      </trkpt>
      <trkpt lat="44.98643" lon="5.20005">
        <ele>630</ele>
        <time>2020-01-02T14:32:20Z</time>
      </trkpt>
      <trkpt lat="44.9864" lon="5.19999">
        <ele>629</ele>
        <time>2020-01-02T14:32:23Z</time>
      </trkpt>
      <trkpt lat="44.98633" lon="5.19995">
        <ele>629</ele>
        <time>2020-01-02T14:32:27Z</time>
      </trkpt>
      <trkpt lat="44.98629" lon="5.19994">
        <ele>629</ele>
        <time>2020-01-02T14:32:29Z</time>
      </trkpt>
      <trkpt lat="44.98579" lon="5.19956">
        <ele>624</ele>
        <time>2020-01-02T14:32:59Z</time>
      </trkpt>
      <trkpt lat="44.98576" lon="5.19951">
        <ele>624</ele>
        <time>2020-01-02T14:33:03Z</time>
      </trkpt>
      <trkpt lat="44.98574" lon="5.19946">
        <ele>624</ele>
        <time>2020-01-02T14:33:05Z</time>
      </trkpt>
      <trkpt lat="44.98572" lon="5.19939">
        <ele>623</ele>
        <time>2020-01-02T14:33:08Z</time>
      </trkpt>
      <trkpt lat="44.98573" lon="5.19932">
        <ele>623</ele>
        <time>2020-01-02T14:33:11Z</time>
      </trkpt>
      <trkpt lat="44.98575" lon="5.19928">
        <ele>622</ele>
        <time>2020-01-02T14:33:14Z</time>
      </trkpt>
      <trkpt lat="44.98575" lon="5.19922">
        <ele>622</ele>
        <time>2020-01-02T14:33:17Z</time>
      </trkpt>
      <trkpt lat="44.98585" lon="5.19894">
        <ele>620</ele>
        <time>2020-01-02T14:33:27Z</time>
      </trkpt>
      <trkpt lat="44.98595" lon="5.19871">
        <ele>619</ele>
        <time>2020-01-02T14:33:40Z</time>
      </trkpt>
      <trkpt lat="44.98601" lon="5.1986">
        <ele>618</ele>
        <time>2020-01-02T14:33:45Z</time>
      </trkpt>
      <trkpt lat="44.98603" lon="5.19855">
        <ele>618</ele>
        <time>2020-01-02T14:33:47Z</time>
      </trkpt>
      <trkpt lat="44.98606" lon="5.1985">
        <ele>617</ele>
        <time>2020-01-02T14:33:50Z</time>
      </trkpt>
      <trkpt lat="44.98608" lon="5.19843">
        <ele>617</ele>
        <time>2020-01-02T14:33:53Z</time>
      </trkpt>
      <trkpt lat="44.98612" lon="5.1984">
        <ele>616</ele>
        <time>2020-01-02T14:33:56Z</time>
      </trkpt>
      <trkpt lat="44.98614" lon="5.19836">
        <ele>616</ele>
        <time>2020-01-02T14:33:59Z</time>
      </trkpt>
      <trkpt lat="44.98619" lon="5.19819">
        <ele>614</ele>
        <time>2020-01-02T14:34:07Z</time>
      </trkpt>
      <trkpt lat="44.98628" lon="5.19805">
        <ele>612</ele>
        <time>2020-01-02T14:34:16Z</time>
      </trkpt>
      <trkpt lat="44.98632" lon="5.198">
        <ele>611</ele>
        <time>2020-01-02T14:34:19Z</time>
      </trkpt>
      <trkpt lat="44.98635" lon="5.19797">
        <ele>610</ele>
        <time>2020-01-02T14:34:22Z</time>
      </trkpt>
      <trkpt lat="44.98642" lon="5.1979">
        <ele>609</ele>
        <time>2020-01-02T14:34:27Z</time>
      </trkpt>
      <trkpt lat="44.98653" lon="5.19777">
        <ele>607</ele>
        <time>2020-01-02T14:34:34Z</time>
      </trkpt>
      <trkpt lat="44.98657" lon="5.19773">
        <ele>606</ele>
        <time>2020-01-02T14:34:37Z</time>
      </trkpt>
      <trkpt lat="44.98673" lon="5.19763">
        <ele>603</ele>
        <time>2020-01-02T14:34:48Z</time>
      </trkpt>
      <trkpt lat="44.98677" lon="5.19761">
        <ele>602</ele>
        <time>2020-01-02T14:34:52Z</time>
      </trkpt>
      <trkpt lat="44.98686" lon="5.19744">
        <ele>600</ele>
        <time>2020-01-02T14:35:01Z</time>
      </trkpt>
      <trkpt lat="44.9869" lon="5.19732">
        <ele>598</ele>
        <time>2020-01-02T14:35:07Z</time>
      </trkpt>
      <trkpt lat="44.98692" lon="5.19727">
        <ele>597</ele>
        <time>2020-01-02T14:35:10Z</time>
      </trkpt>
      <trkpt lat="44.98709" lon="5.1971">
        <ele>592</ele>
        <time>2020-01-02T14:35:24Z</time>
      </trkpt>
      <trkpt lat="44.98718" lon="5.19706">
        <ele>590</ele>
        <time>2020-01-02T14:35:30Z</time>
      </trkpt>
      <trkpt lat="44.98723" lon="5.19705">
        <ele>589</ele>
        <time>2020-01-02T14:35:33Z</time>
      </trkpt>
      <trkpt lat="44.98728" lon="5.19707">
        <ele>587</ele>
        <time>2020-01-02T14:35:36Z</time>
      </trkpt>
      <trkpt lat="44.98733" lon="5.19707">
        <ele>586</ele>
        <time>2020-01-02T14:35:40Z</time>
      </trkpt>
      <trkpt lat="44.98784" lon="5.19736">
        <ele>575</ele>
        <time>2020-01-02T14:36:11Z</time>
      </trkpt>
      <trkpt lat="44.98804" lon="5.19748">
        <ele>572</ele>
        <time>2020-01-02T14:36:22Z</time>
      </trkpt>
      <trkpt lat="44.98809" lon="5.19747">
        <ele>571</ele>
        <time>2020-01-02T14:36:24Z</time>
      </trkpt>
      <trkpt lat="44.9885" lon="5.19752">
        <ele>566</ele>
        <time>2020-01-02T14:36:42Z</time>
      </trkpt>
      <trkpt lat="44.98858" lon="5.19753">
        <ele>565</ele>
        <time>2020-01-02T14:36:45Z</time>
      </trkpt>
      <trkpt lat="44.98863" lon="5.19758">
        <ele>563</ele>
        <time>2020-01-02T14:36:48Z</time>
      </trkpt>
      <trkpt lat="44.98868" lon="5.19766">
        <ele>562</ele>
        <time>2020-01-02T14:36:51Z</time>
      </trkpt>
      <trkpt lat="44.98892" lon="5.19801">
        <ele>556</ele>
        <time>2020-01-02T14:37:07Z</time>
      </trkpt>
      <trkpt lat="44.98897" lon="5.19805">
        <ele>555</ele>
        <time>2020-01-02T14:37:10Z</time>
      </trkpt>
      <trkpt lat="44.98915" lon="5.19815">
        <ele>551</ele>
        <time>2020-01-02T14:37:21Z</time>
      </trkpt>
      <trkpt lat="44.9894" lon="5.1981">
        <ele>546</ele>
        <time>2020-01-02T14:37:33Z</time>
      </trkpt>
      <trkpt lat="44.98945" lon="5.19809">
        <ele>545</ele>
        <time>2020-01-02T14:37:37Z</time>
      </trkpt>
      <trkpt lat="44.98956" lon="5.19808">
        <ele>543</ele>
        <time>2020-01-02T14:37:43Z</time>
      </trkpt>
      <trkpt lat="44.98963" lon="5.19807">
        <ele>542</ele>
        <time>2020-01-02T14:37:49Z</time>
      </trkpt>
      <trkpt lat="44.98969" lon="5.19805">
        <ele>540</ele>
        <time>2020-01-02T14:37:53Z</time>
      </trkpt>
      <trkpt lat="44.98974" lon="5.19806">
        <ele>539</ele>
        <time>2020-01-02T14:37:56Z</time>
      </trkpt>
      <trkpt lat="44.98979" lon="5.19807">
        <ele>538</ele>
        <time>2020-01-02T14:38:00Z</time>
      </trkpt>
      <trkpt lat="44.98987" lon="5.19807">
        <ele>536</ele>
        <time>2020-01-02T14:38:07Z</time>
      </trkpt>
      <trkpt lat="44.98992" lon="5.19803">
        <ele>536</ele>
        <time>2020-01-02T14:38:11Z</time>
      </trkpt>
      <trkpt lat="44.98996" lon="5.19798">
        <ele>534</ele>
        <time>2020-01-02T14:38:15Z</time>
      </trkpt>
      <trkpt lat="44.99002" lon="5.19794">
        <ele>534</ele>
        <time>2020-01-02T14:38:19Z</time>
      </trkpt>
      <trkpt lat="44.9901" lon="5.19792">
        <ele>533</ele>
        <time>2020-01-02T14:38:22Z</time>
      </trkpt>
      <trkpt lat="44.99016" lon="5.19792">
        <ele>532</ele>
        <time>2020-01-02T14:38:25Z</time>
      </trkpt>
      <trkpt lat="44.99047" lon="5.19806">
        <ele>529</ele>
        <time>2020-01-02T14:38:45Z</time>
      </trkpt>
      <trkpt lat="44.99051" lon="5.1981">
        <ele>528</ele>
        <time>2020-01-02T14:38:48Z</time>
      </trkpt>
      <trkpt lat="44.99054" lon="5.19814">
        <ele>528</ele>
        <time>2020-01-02T14:38:51Z</time>
      </trkpt>
      <trkpt lat="44.99064" lon="5.1982">
        <ele>527</ele>
        <time>2020-01-02T14:38:58Z</time>
      </trkpt>
      <trkpt lat="44.99068" lon="5.19821">
        <ele>526</ele>
        <time>2020-01-02T14:39:01Z</time>
      </trkpt>
      <trkpt lat="44.99106" lon="5.19842">
        <ele>523</ele>
        <time>2020-01-02T14:39:25Z</time>
      </trkpt>
      <trkpt lat="44.9911" lon="5.19845">
        <ele>523</ele>
        <time>2020-01-02T14:39:28Z</time>
      </trkpt>
      <trkpt lat="44.99118" lon="5.19851">
        <ele>522</ele>
        <time>2020-01-02T14:39:33Z</time>
      </trkpt>
      <trkpt lat="44.99121" lon="5.19855">
        <ele>522</ele>
        <time>2020-01-02T14:39:37Z</time>
      </trkpt>
      <trkpt lat="44.99125" lon="5.19858">
        <ele>522</ele>
        <time>2020-01-02T14:39:40Z</time>
      </trkpt>
      <trkpt lat="44.99129" lon="5.19857">
        <ele>522</ele>
        <time>2020-01-02T14:39:43Z</time>
      </trkpt>
      <trkpt lat="44.99135" lon="5.19858">
        <ele>521</ele>
        <time>2020-01-02T14:39:48Z</time>
      </trkpt>
      <trkpt lat="44.99143" lon="5.19847">
        <ele>520</ele>
        <time>2020-01-02T14:39:56Z</time>
      </trkpt>
      <trkpt lat="44.99146" lon="5.19842">
        <ele>520</ele>
        <time>2020-01-02T14:39:59Z</time>
      </trkpt>
      <trkpt lat="44.99147" lon="5.19835">
        <ele>520</ele>
        <time>2020-01-02T14:40:02Z</time>
      </trkpt>
      <trkpt lat="44.99148" lon="5.1983">
        <ele>519</ele>
        <time>2020-01-02T14:40:04Z</time>
      </trkpt>
      <trkpt lat="44.99151" lon="5.1982">
        <ele>519</ele>
        <time>2020-01-02T14:40:10Z</time>
      </trkpt>
      <trkpt lat="44.99154" lon="5.19814">
        <ele>519</ele>
        <time>2020-01-02T14:40:13Z</time>
      </trkpt>
      <trkpt lat="44.99158" lon="5.19812">
        <ele>518</ele>
        <time>2020-01-02T14:40:17Z</time>
      </trkpt>
      <trkpt lat="44.99162" lon="5.19808">
        <ele>518</ele>
        <time>2020-01-02T14:40:20Z</time>
      </trkpt>
      <trkpt lat="44.99173" lon="5.19804">
        <ele>518</ele>
        <time>2020-01-02T14:40:26Z</time>
      </trkpt>
    </trkseg>
  </trk>
</gpx>